<?xml version="1.0" encoding="UTF-8" standalone="yes"?>
<gpx
 xmlns="http://www.topografix.com/GPX/1/1"
 creator="OziExplorer Version 3956f - http://www.oziexplorer.com"
 version="1.1"
 xmlns:xsi="http://www.w3.org/2001/XMLSchema-instance"
 xsi:schemaLocation="http://www.topografix.com/GPX/1/1 http://www.topografix.com/GPX/1/1/gpx.xsd">
<metadata>
 <time>2019-11-27T05:44:13Z</time>
 <bounds minlat="31.207736" minlon="35.194527" maxlat="31.326669" maxlon="35.355988"/>
</metadata>
<trk>
 <name>Arad_Masada_New_Udl, 44 km</name>
 <desc>Arad_Masada_New_Udl, 44 km</desc>
<trkseg>
<trkpt lat="31.2483175" lon="35.1982493">
<ele>561.000000</ele>
<time>2010-01-01T00:00:00.000Z</time>
</trkpt>
<trkpt lat="31.2480770" lon="35.1981430">
<ele>561.000000</ele>
<time>2010-01-01T00:00:10.000Z</time>
</trkpt>
<trkpt lat="31.2479170" lon="35.1981580">
<ele>561.000000</ele>
<time>2010-01-01T00:00:16.000Z</time>
</trkpt>
<trkpt lat="31.2478530" lon="35.1981250">
<ele>561.000000</ele>
<time>2010-01-01T00:00:19.000Z</time>
</trkpt>
<trkpt lat="31.2477970" lon="35.1980370">
<ele>561.000000</ele>
<time>2010-01-01T00:00:23.000Z</time>
</trkpt>
<trkpt lat="31.2477580" lon="35.1977300">
<ele>561.000000</ele>
<time>2010-01-01T00:00:33.000Z</time>
</trkpt>
<trkpt lat="31.2476950" lon="35.1975980">
<ele>561.000000</ele>
<time>2010-01-01T00:00:39.000Z</time>
</trkpt>
<trkpt lat="31.2476430" lon="35.1975580">
<ele>561.000000</ele>
<time>2010-01-01T00:00:41.000Z</time>
</trkpt>
<trkpt lat="31.2475480" lon="35.1975380">
<ele>561.000000</ele>
<time>2010-01-01T00:00:45.000Z</time>
</trkpt>
<trkpt lat="31.2471730" lon="35.1975830">
<ele>561.000000</ele>
<time>2010-01-01T00:01:00.000Z</time>
</trkpt>
<trkpt lat="31.2471150" lon="35.1975830">
<ele>561.000000</ele>
<time>2010-01-01T00:01:02.000Z</time>
</trkpt>
<trkpt lat="31.2469720" lon="35.1975220">
<ele>562.000000</ele>
<time>2010-01-01T00:01:08.000Z</time>
</trkpt>
<trkpt lat="31.2467230" lon="35.1975930">
<ele>563.000000</ele>
<time>2010-01-01T00:01:19.000Z</time>
</trkpt>
<trkpt lat="31.2463020" lon="35.1975670">
<ele>564.000000</ele>
<time>2010-01-01T00:01:36.000Z</time>
</trkpt>
<trkpt lat="31.2460880" lon="35.1974780">
<ele>565.000000</ele>
<time>2010-01-01T00:01:45.000Z</time>
</trkpt>
<trkpt lat="31.2457920" lon="35.1974070">
<ele>567.000000</ele>
<time>2010-01-01T00:01:57.000Z</time>
</trkpt>
<trkpt lat="31.2453730" lon="35.1972700">
<ele>571.000000</ele>
<time>2010-01-01T00:02:14.000Z</time>
</trkpt>
<trkpt lat="31.2451820" lon="35.1972300">
<ele>571.000000</ele>
<time>2010-01-01T00:02:22.000Z</time>
</trkpt>
<trkpt lat="31.2449770" lon="35.1971620">
<ele>572.000000</ele>
<time>2010-01-01T00:02:30.000Z</time>
</trkpt>
<trkpt lat="31.2443950" lon="35.1970020">
<ele>575.000000</ele>
<time>2010-01-01T00:02:54.000Z</time>
</trkpt>
<trkpt lat="31.2438620" lon="35.1968100">
<ele>575.000000</ele>
<time>2010-01-01T00:03:17.000Z</time>
</trkpt>
<trkpt lat="31.2434570" lon="35.1966950">
<ele>574.000000</ele>
<time>2010-01-01T00:03:33.000Z</time>
</trkpt>
<trkpt lat="31.2432450" lon="35.1966220">
<ele>573.000000</ele>
<time>2010-01-01T00:03:42.000Z</time>
</trkpt>
<trkpt lat="31.2428570" lon="35.1965250">
<ele>574.000000</ele>
<time>2010-01-01T00:03:58.000Z</time>
</trkpt>
<trkpt lat="31.2427180" lon="35.1964680">
<ele>574.000000</ele>
<time>2010-01-01T00:04:04.000Z</time>
</trkpt>
<trkpt lat="31.2421820" lon="35.1963080">
<ele>574.000000</ele>
<time>2010-01-01T00:04:26.000Z</time>
</trkpt>
<trkpt lat="31.2420870" lon="35.1962700">
<ele>573.000000</ele>
<time>2010-01-01T00:04:30.000Z</time>
</trkpt>
<trkpt lat="31.2416830" lon="35.1961670">
<ele>571.000000</ele>
<time>2010-01-01T00:04:47.000Z</time>
</trkpt>
<trkpt lat="31.2413050" lon="35.1960500">
<ele>570.000000</ele>
<time>2010-01-01T00:05:02.000Z</time>
</trkpt>
<trkpt lat="31.2411120" lon="35.1959620">
<ele>569.000000</ele>
<time>2010-01-01T00:05:11.000Z</time>
</trkpt>
<trkpt lat="31.2406420" lon="35.1958170">
<ele>566.000000</ele>
<time>2010-01-01T00:05:30.000Z</time>
</trkpt>
<trkpt lat="31.2403220" lon="35.1957430">
<ele>568.000000</ele>
<time>2010-01-01T00:05:43.000Z</time>
</trkpt>
<trkpt lat="31.2399470" lon="35.1956180">
<ele>569.000000</ele>
<time>2010-01-01T00:05:59.000Z</time>
</trkpt>
<trkpt lat="31.2393470" lon="35.1954620">
<ele>572.000000</ele>
<time>2010-01-01T00:06:23.000Z</time>
</trkpt>
<trkpt lat="31.2382270" lon="35.1951270">
<ele>575.000000</ele>
<time>2010-01-01T00:07:10.000Z</time>
</trkpt>
<trkpt lat="31.2376550" lon="35.1949320">
<ele>580.000000</ele>
<time>2010-01-01T00:07:34.000Z</time>
</trkpt>
<trkpt lat="31.2374750" lon="35.1948920">
<ele>581.000000</ele>
<time>2010-01-01T00:07:41.000Z</time>
</trkpt>
<trkpt lat="31.2372500" lon="35.1948070">
<ele>581.000000</ele>
<time>2010-01-01T00:07:50.000Z</time>
</trkpt>
<trkpt lat="31.2367220" lon="35.1946420">
<ele>583.000000</ele>
<time>2010-01-01T00:08:12.000Z</time>
</trkpt>
<trkpt lat="31.2363800" lon="35.1945700">
<ele>583.000000</ele>
<time>2010-01-01T00:08:26.000Z</time>
</trkpt>
<trkpt lat="31.2358720" lon="35.1945270">
<ele>589.000000</ele>
<time>2010-01-01T00:08:47.000Z</time>
</trkpt>
<trkpt lat="31.2352550" lon="35.1946280">
<ele>591.000000</ele>
<time>2010-01-01T00:09:11.000Z</time>
</trkpt>
<trkpt lat="31.2350280" lon="35.1947130">
<ele>590.000000</ele>
<time>2010-01-01T00:09:21.000Z</time>
</trkpt>
<trkpt lat="31.2349170" lon="35.1947350">
<ele>589.000000</ele>
<time>2010-01-01T00:09:26.000Z</time>
</trkpt>
<trkpt lat="31.2347580" lon="35.1948080">
<ele>588.000000</ele>
<time>2010-01-01T00:09:32.000Z</time>
</trkpt>
<trkpt lat="31.2346500" lon="35.1948580">
<ele>587.000000</ele>
<time>2010-01-01T00:09:37.000Z</time>
</trkpt>
<trkpt lat="31.2344950" lon="35.1949770">
<ele>586.000000</ele>
<time>2010-01-01T00:09:44.000Z</time>
</trkpt>
<trkpt lat="31.2343270" lon="35.1950680">
<ele>585.000000</ele>
<time>2010-01-01T00:09:52.000Z</time>
</trkpt>
<trkpt lat="31.2342050" lon="35.1951600">
<ele>585.000000</ele>
<time>2010-01-01T00:09:58.000Z</time>
</trkpt>
<trkpt lat="31.2338450" lon="35.1954900">
<ele>586.000000</ele>
<time>2010-01-01T00:10:16.000Z</time>
</trkpt>
<trkpt lat="31.2337770" lon="35.1955770">
<ele>587.000000</ele>
<time>2010-01-01T00:10:20.000Z</time>
</trkpt>
<trkpt lat="31.2336530" lon="35.1957100">
<ele>587.000000</ele>
<time>2010-01-01T00:10:27.000Z</time>
</trkpt>
<trkpt lat="31.2334530" lon="35.1959770">
<ele>587.000000</ele>
<time>2010-01-01T00:10:39.000Z</time>
</trkpt>
<trkpt lat="31.2333430" lon="35.1960930">
<ele>587.000000</ele>
<time>2010-01-01T00:10:45.000Z</time>
</trkpt>
<trkpt lat="31.2332400" lon="35.1962250">
<ele>588.000000</ele>
<time>2010-01-01T00:10:51.000Z</time>
</trkpt>
<trkpt lat="31.2331200" lon="35.1963950">
<ele>588.000000</ele>
<time>2010-01-01T00:10:58.000Z</time>
</trkpt>
<trkpt lat="31.2329450" lon="35.1967500">
<ele>588.000000</ele>
<time>2010-01-01T00:11:12.000Z</time>
</trkpt>
<trkpt lat="31.2328470" lon="35.1969550">
<ele>589.000000</ele>
<time>2010-01-01T00:11:21.000Z</time>
</trkpt>
<trkpt lat="31.2327520" lon="35.1970980">
<ele>590.000000</ele>
<time>2010-01-01T00:11:27.000Z</time>
</trkpt>
<trkpt lat="31.2326880" lon="35.1971450">
<ele>590.000000</ele>
<time>2010-01-01T00:11:30.000Z</time>
</trkpt>
<trkpt lat="31.2325820" lon="35.1971730">
<ele>591.000000</ele>
<time>2010-01-01T00:11:34.000Z</time>
</trkpt>
<trkpt lat="31.2324700" lon="35.1971500">
<ele>591.000000</ele>
<time>2010-01-01T00:11:39.000Z</time>
</trkpt>
<trkpt lat="31.2323770" lon="35.1970950">
<ele>592.000000</ele>
<time>2010-01-01T00:11:43.000Z</time>
</trkpt>
<trkpt lat="31.2322982" lon="35.1968611">
<ele>593.000000</ele>
<time>2010-01-01T00:11:51.000Z</time>
</trkpt>
<trkpt lat="31.2321516" lon="35.1965929">
<ele>595.000000</ele>
<time>2010-01-01T00:12:02.000Z</time>
</trkpt>
<trkpt lat="31.2319315" lon="35.1965393">
<ele>597.000000</ele>
<time>2010-01-01T00:12:11.000Z</time>
</trkpt>
<trkpt lat="31.2317297" lon="35.1966787">
<ele>599.000000</ele>
<time>2010-01-01T00:12:21.000Z</time>
</trkpt>
<trkpt lat="31.2313994" lon="35.1966895">
<ele>600.000000</ele>
<time>2010-01-01T00:12:34.000Z</time>
</trkpt>
<trkpt lat="31.2309499" lon="35.1967324">
<ele>596.000000</ele>
<time>2010-01-01T00:12:52.000Z</time>
</trkpt>
<trkpt lat="31.2307114" lon="35.1969148">
<ele>595.000000</ele>
<time>2010-01-01T00:13:03.000Z</time>
</trkpt>
<trkpt lat="31.2304637" lon="35.1972152">
<ele>598.000000</ele>
<time>2010-01-01T00:13:18.000Z</time>
</trkpt>
<trkpt lat="31.2303077" lon="35.1976550">
<ele>601.000000</ele>
<time>2010-01-01T00:13:34.000Z</time>
</trkpt>
<trkpt lat="31.2301793" lon="35.1982559">
<ele>600.000000</ele>
<time>2010-01-01T00:13:55.000Z</time>
</trkpt>
<trkpt lat="31.2299774" lon="35.1987816">
<ele>599.000000</ele>
<time>2010-01-01T00:14:15.000Z</time>
</trkpt>
<trkpt lat="31.2297756" lon="35.1990605">
<ele>598.000000</ele>
<time>2010-01-01T00:14:27.000Z</time>
</trkpt>
<trkpt lat="31.2297206" lon="35.1993502">
<ele>599.000000</ele>
<time>2010-01-01T00:14:38.000Z</time>
</trkpt>
<trkpt lat="31.2296747" lon="35.1995004">
<ele>599.000000</ele>
<time>2010-01-01T00:14:43.000Z</time>
</trkpt>
<trkpt lat="31.2296196" lon="35.1998974">
<ele>600.000000</ele>
<time>2010-01-01T00:14:57.000Z</time>
</trkpt>
<trkpt lat="31.2295286" lon="35.2001012">
<ele>600.000000</ele>
<time>2010-01-01T00:15:05.000Z</time>
</trkpt>
<trkpt lat="31.2293909" lon="35.2005518">
<ele>600.000000</ele>
<time>2010-01-01T00:15:21.000Z</time>
</trkpt>
<trkpt lat="31.2292992" lon="35.2010239">
<ele>600.000000</ele>
<time>2010-01-01T00:15:38.000Z</time>
</trkpt>
<trkpt lat="31.2291065" lon="35.2015174">
<ele>601.000000</ele>
<time>2010-01-01T00:15:56.000Z</time>
</trkpt>
<trkpt lat="31.2289873" lon="35.2017856">
<ele>601.000000</ele>
<time>2010-01-01T00:16:07.000Z</time>
</trkpt>
<trkpt lat="31.2287487" lon="35.2020646">
<ele>604.000000</ele>
<time>2010-01-01T00:16:20.000Z</time>
</trkpt>
<trkpt lat="31.2286203" lon="35.2023006">
<ele>604.000000</ele>
<time>2010-01-01T00:16:30.000Z</time>
</trkpt>
<trkpt lat="31.2285010" lon="35.2025903">
<ele>603.000000</ele>
<time>2010-01-01T00:16:41.000Z</time>
</trkpt>
<trkpt lat="31.2284643" lon="35.2028263">
<ele>601.000000</ele>
<time>2010-01-01T00:16:49.000Z</time>
</trkpt>
<trkpt lat="31.2284552" lon="35.2030409">
<ele>601.000000</ele>
<time>2010-01-01T00:16:56.000Z</time>
</trkpt>
<trkpt lat="31.2284370" lon="35.2033570">
<ele>603.000000</ele>
<time>2010-01-01T00:17:07.000Z</time>
</trkpt>
<trkpt lat="31.2282730" lon="35.2036500">
<ele>605.000000</ele>
<time>2010-01-01T00:17:19.000Z</time>
</trkpt>
<trkpt lat="31.2281530" lon="35.2038820">
<ele>605.000000</ele>
<time>2010-01-01T00:17:28.000Z</time>
</trkpt>
<trkpt lat="31.2280950" lon="35.2039780">
<ele>605.000000</ele>
<time>2010-01-01T00:17:32.000Z</time>
</trkpt>
<trkpt lat="31.2279370" lon="35.2043050">
<ele>605.000000</ele>
<time>2010-01-01T00:17:45.000Z</time>
</trkpt>
<trkpt lat="31.2278800" lon="35.2044000">
<ele>606.000000</ele>
<time>2010-01-01T00:17:49.000Z</time>
</trkpt>
<trkpt lat="31.2277650" lon="35.2046020">
<ele>606.000000</ele>
<time>2010-01-01T00:17:57.000Z</time>
</trkpt>
<trkpt lat="31.2277370" lon="35.2046550">
<ele>606.000000</ele>
<time>2010-01-01T00:18:00.000Z</time>
</trkpt>
<trkpt lat="31.2277180" lon="35.2046730">
<ele>607.000000</ele>
<time>2010-01-01T00:18:01.000Z</time>
</trkpt>
<trkpt lat="31.2276170" lon="35.2048750">
<ele>608.000000</ele>
<time>2010-01-01T00:18:09.000Z</time>
</trkpt>
<trkpt lat="31.2274300" lon="35.2053120">
<ele>609.000000</ele>
<time>2010-01-01T00:18:25.000Z</time>
</trkpt>
<trkpt lat="31.2274130" lon="35.2053480">
<ele>610.000000</ele>
<time>2010-01-01T00:18:27.000Z</time>
</trkpt>
<trkpt lat="31.2272950" lon="35.2055230">
<ele>611.000000</ele>
<time>2010-01-01T00:18:34.000Z</time>
</trkpt>
<trkpt lat="31.2272520" lon="35.2055700">
<ele>611.000000</ele>
<time>2010-01-01T00:18:37.000Z</time>
</trkpt>
<trkpt lat="31.2270400" lon="35.2058850">
<ele>612.000000</ele>
<time>2010-01-01T00:18:50.000Z</time>
</trkpt>
<trkpt lat="31.2268220" lon="35.2063470">
<ele>613.000000</ele>
<time>2010-01-01T00:19:08.000Z</time>
</trkpt>
<trkpt lat="31.2267220" lon="35.2067200">
<ele>615.000000</ele>
<time>2010-01-01T00:19:22.000Z</time>
</trkpt>
<trkpt lat="31.2266330" lon="35.2069100">
<ele>615.000000</ele>
<time>2010-01-01T00:19:29.000Z</time>
</trkpt>
<trkpt lat="31.2265570" lon="35.2070520">
<ele>615.000000</ele>
<time>2010-01-01T00:19:35.000Z</time>
</trkpt>
<trkpt lat="31.2265380" lon="35.2070770">
<ele>615.000000</ele>
<time>2010-01-01T00:19:36.000Z</time>
</trkpt>
<trkpt lat="31.2265100" lon="35.2071270">
<ele>615.000000</ele>
<time>2010-01-01T00:19:38.000Z</time>
</trkpt>
<trkpt lat="31.2264770" lon="35.2071730">
<ele>616.000000</ele>
<time>2010-01-01T00:19:40.000Z</time>
</trkpt>
<trkpt lat="31.2264450" lon="35.2072700">
<ele>616.000000</ele>
<time>2010-01-01T00:19:44.000Z</time>
</trkpt>
<trkpt lat="31.2264250" lon="35.2075970">
<ele>616.000000</ele>
<time>2010-01-01T00:19:55.000Z</time>
</trkpt>
<trkpt lat="31.2263880" lon="35.2077150">
<ele>616.000000</ele>
<time>2010-01-01T00:19:59.000Z</time>
</trkpt>
<trkpt lat="31.2263250" lon="35.2078300">
<ele>615.000000</ele>
<time>2010-01-01T00:20:04.000Z</time>
</trkpt>
<trkpt lat="31.2262900" lon="35.2078780">
<ele>615.000000</ele>
<time>2010-01-01T00:20:06.000Z</time>
</trkpt>
<trkpt lat="31.2262150" lon="35.2079230">
<ele>614.000000</ele>
<time>2010-01-01T00:20:10.000Z</time>
</trkpt>
<trkpt lat="31.2261400" lon="35.2079670">
<ele>614.000000</ele>
<time>2010-01-01T00:20:13.000Z</time>
</trkpt>
<trkpt lat="31.2260680" lon="35.2080430">
<ele>614.000000</ele>
<time>2010-01-01T00:20:17.000Z</time>
</trkpt>
<trkpt lat="31.2260500" lon="35.2080470">
<ele>614.000000</ele>
<time>2010-01-01T00:20:18.000Z</time>
</trkpt>
<trkpt lat="31.2260350" lon="35.2080700">
<ele>614.000000</ele>
<time>2010-01-01T00:20:19.000Z</time>
</trkpt>
<trkpt lat="31.2258520" lon="35.2082750">
<ele>614.000000</ele>
<time>2010-01-01T00:20:29.000Z</time>
</trkpt>
<trkpt lat="31.2257170" lon="35.2084720">
<ele>615.000000</ele>
<time>2010-01-01T00:20:37.000Z</time>
</trkpt>
<trkpt lat="31.2256930" lon="35.2084630">
<ele>615.000000</ele>
<time>2010-01-01T00:20:38.000Z</time>
</trkpt>
<trkpt lat="31.2255900" lon="35.2085350">
<ele>615.000000</ele>
<time>2010-01-01T00:20:43.000Z</time>
</trkpt>
<trkpt lat="31.2255450" lon="35.2086680">
<ele>616.000000</ele>
<time>2010-01-01T00:20:48.000Z</time>
</trkpt>
<trkpt lat="31.2255320" lon="35.2087550">
<ele>617.000000</ele>
<time>2010-01-01T00:20:51.000Z</time>
</trkpt>
<trkpt lat="31.2254500" lon="35.2088420">
<ele>617.000000</ele>
<time>2010-01-01T00:20:55.000Z</time>
</trkpt>
<trkpt lat="31.2254170" lon="35.2088900">
<ele>618.000000</ele>
<time>2010-01-01T00:20:58.000Z</time>
</trkpt>
<trkpt lat="31.2253980" lon="35.2089130">
<ele>618.000000</ele>
<time>2010-01-01T00:20:59.000Z</time>
</trkpt>
<trkpt lat="31.2252970" lon="35.2090900">
<ele>618.000000</ele>
<time>2010-01-01T00:21:06.000Z</time>
</trkpt>
<trkpt lat="31.2251130" lon="35.2093270">
<ele>620.000000</ele>
<time>2010-01-01T00:21:17.000Z</time>
</trkpt>
<trkpt lat="31.2250470" lon="35.2094400">
<ele>620.000000</ele>
<time>2010-01-01T00:21:22.000Z</time>
</trkpt>
<trkpt lat="31.2249950" lon="35.2095630">
<ele>620.000000</ele>
<time>2010-01-01T00:21:26.000Z</time>
</trkpt>
<trkpt lat="31.2249680" lon="35.2096720">
<ele>620.000000</ele>
<time>2010-01-01T00:21:30.000Z</time>
</trkpt>
<trkpt lat="31.2249380" lon="35.2097300">
<ele>620.000000</ele>
<time>2010-01-01T00:21:32.000Z</time>
</trkpt>
<trkpt lat="31.2248130" lon="35.2098870">
<ele>620.000000</ele>
<time>2010-01-01T00:21:40.000Z</time>
</trkpt>
<trkpt lat="31.2247870" lon="35.2099400">
<ele>620.000000</ele>
<time>2010-01-01T00:21:42.000Z</time>
</trkpt>
<trkpt lat="31.2247470" lon="35.2101170">
<ele>621.000000</ele>
<time>2010-01-01T00:21:48.000Z</time>
</trkpt>
<trkpt lat="31.2247350" lon="35.2102530">
<ele>622.000000</ele>
<time>2010-01-01T00:21:53.000Z</time>
</trkpt>
<trkpt lat="31.2247480" lon="35.2113950">
<ele>630.000000</ele>
<time>2010-01-01T00:22:32.000Z</time>
</trkpt>
<trkpt lat="31.2247580" lon="35.2115320">
<ele>630.000000</ele>
<time>2010-01-01T00:22:37.000Z</time>
</trkpt>
<trkpt lat="31.2248280" lon="35.2117920">
<ele>631.000000</ele>
<time>2010-01-01T00:22:46.000Z</time>
</trkpt>
<trkpt lat="31.2249470" lon="35.2119500">
<ele>630.000000</ele>
<time>2010-01-01T00:22:53.000Z</time>
</trkpt>
<trkpt lat="31.2251020" lon="35.2120430">
<ele>630.000000</ele>
<time>2010-01-01T00:23:00.000Z</time>
</trkpt>
<trkpt lat="31.2251830" lon="35.2120930">
<ele>630.000000</ele>
<time>2010-01-01T00:23:04.000Z</time>
</trkpt>
<trkpt lat="31.2254270" lon="35.2122950">
<ele>630.000000</ele>
<time>2010-01-01T00:23:16.000Z</time>
</trkpt>
<trkpt lat="31.2254630" lon="35.2123400">
<ele>630.000000</ele>
<time>2010-01-01T00:23:18.000Z</time>
</trkpt>
<trkpt lat="31.2255280" lon="35.2124570">
<ele>628.999939</ele>
<time>2010-01-01T00:23:23.000Z</time>
</trkpt>
<trkpt lat="31.2256050" lon="35.2126770">
<ele>628.999939</ele>
<time>2010-01-01T00:23:31.000Z</time>
</trkpt>
<trkpt lat="31.2257330" lon="35.2129600">
<ele>628.999939</ele>
<time>2010-01-01T00:23:42.000Z</time>
</trkpt>
<trkpt lat="31.2257530" lon="35.2129880">
<ele>628.999939</ele>
<time>2010-01-01T00:23:43.000Z</time>
</trkpt>
<trkpt lat="31.2258200" lon="35.2130620">
<ele>628.999939</ele>
<time>2010-01-01T00:23:47.000Z</time>
</trkpt>
<trkpt lat="31.2259550" lon="35.2132380">
<ele>628.999939</ele>
<time>2010-01-01T00:23:55.000Z</time>
</trkpt>
<trkpt lat="31.2260220" lon="35.2133370">
<ele>628.999939</ele>
<time>2010-01-01T00:23:59.000Z</time>
</trkpt>
<trkpt lat="31.2261120" lon="35.2134550">
<ele>628.999939</ele>
<time>2010-01-01T00:24:05.000Z</time>
</trkpt>
<trkpt lat="31.2262600" lon="35.2136700">
<ele>628.999939</ele>
<time>2010-01-01T00:24:14.000Z</time>
</trkpt>
<trkpt lat="31.2263370" lon="35.2137920">
<ele>630.000000</ele>
<time>2010-01-01T00:24:19.000Z</time>
</trkpt>
<trkpt lat="31.2264550" lon="35.2139480">
<ele>630.000000</ele>
<time>2010-01-01T00:24:26.000Z</time>
</trkpt>
<trkpt lat="31.2265930" lon="35.2141450">
<ele>630.000000</ele>
<time>2010-01-01T00:24:35.000Z</time>
</trkpt>
<trkpt lat="31.2266120" lon="35.2141700">
<ele>631.000000</ele>
<time>2010-01-01T00:24:36.000Z</time>
</trkpt>
<trkpt lat="31.2266450" lon="35.2142220">
<ele>631.000000</ele>
<time>2010-01-01T00:24:38.000Z</time>
</trkpt>
<trkpt lat="31.2266620" lon="35.2142450">
<ele>631.000000</ele>
<time>2010-01-01T00:24:39.000Z</time>
</trkpt>
<trkpt lat="31.2267050" lon="35.2142850">
<ele>631.000000</ele>
<time>2010-01-01T00:24:42.000Z</time>
</trkpt>
<trkpt lat="31.2267730" lon="35.2143830">
<ele>630.000000</ele>
<time>2010-01-01T00:24:46.000Z</time>
</trkpt>
<trkpt lat="31.2268930" lon="35.2147220">
<ele>630.000000</ele>
<time>2010-01-01T00:24:59.000Z</time>
</trkpt>
<trkpt lat="31.2269130" lon="35.2147400">
<ele>630.000000</ele>
<time>2010-01-01T00:25:00.000Z</time>
</trkpt>
<trkpt lat="31.2269270" lon="35.2147450">
<ele>630.000000</ele>
<time>2010-01-01T00:25:00.000Z</time>
</trkpt>
<trkpt lat="31.2269350" lon="35.2147280">
<ele>630.000000</ele>
<time>2010-01-01T00:25:01.000Z</time>
</trkpt>
<trkpt lat="31.2270000" lon="35.2151980">
<ele>627.000000</ele>
<time>2010-01-01T00:25:17.000Z</time>
</trkpt>
<trkpt lat="31.2271270" lon="35.2156900">
<ele>623.000000</ele>
<time>2010-01-01T00:25:35.000Z</time>
</trkpt>
<trkpt lat="31.2273020" lon="35.2161100">
<ele>619.000000</ele>
<time>2010-01-01T00:25:51.000Z</time>
</trkpt>
<trkpt lat="31.2275030" lon="35.2165570">
<ele>617.000000</ele>
<time>2010-01-01T00:26:08.000Z</time>
</trkpt>
<trkpt lat="31.2275900" lon="35.2167920">
<ele>616.000000</ele>
<time>2010-01-01T00:26:17.000Z</time>
</trkpt>
<trkpt lat="31.2277450" lon="35.2173780">
<ele>612.000000</ele>
<time>2010-01-01T00:26:38.000Z</time>
</trkpt>
<trkpt lat="31.2277880" lon="35.2174930">
<ele>612.000000</ele>
<time>2010-01-01T00:26:42.000Z</time>
</trkpt>
<trkpt lat="31.2279680" lon="35.2178620">
<ele>612.000000</ele>
<time>2010-01-01T00:26:57.000Z</time>
</trkpt>
<trkpt lat="31.2282220" lon="35.2184220">
<ele>609.000000</ele>
<time>2010-01-01T00:27:18.000Z</time>
</trkpt>
<trkpt lat="31.2283520" lon="35.2188650">
<ele>607.000000</ele>
<time>2010-01-01T00:27:34.000Z</time>
</trkpt>
<trkpt lat="31.2283980" lon="35.2192450">
<ele>606.000000</ele>
<time>2010-01-01T00:27:47.000Z</time>
</trkpt>
<trkpt lat="31.2284150" lon="35.2194450">
<ele>605.000000</ele>
<time>2010-01-01T00:27:54.000Z</time>
</trkpt>
<trkpt lat="31.2283920" lon="35.2196480">
<ele>606.000000</ele>
<time>2010-01-01T00:28:01.000Z</time>
</trkpt>
<trkpt lat="31.2283470" lon="35.2197780">
<ele>606.000000</ele>
<time>2010-01-01T00:28:06.000Z</time>
</trkpt>
<trkpt lat="31.2282080" lon="35.2200900">
<ele>607.000000</ele>
<time>2010-01-01T00:28:18.000Z</time>
</trkpt>
<trkpt lat="31.2281220" lon="35.2203870">
<ele>608.000000</ele>
<time>2010-01-01T00:28:29.000Z</time>
</trkpt>
<trkpt lat="31.2280930" lon="35.2204230">
<ele>608.000000</ele>
<time>2010-01-01T00:28:31.000Z</time>
</trkpt>
<trkpt lat="31.2280350" lon="35.2205820">
<ele>608.000000</ele>
<time>2010-01-01T00:28:37.000Z</time>
</trkpt>
<trkpt lat="31.2279720" lon="35.2207130">
<ele>608.000000</ele>
<time>2010-01-01T00:28:42.000Z</time>
</trkpt>
<trkpt lat="31.2279000" lon="35.2207780">
<ele>608.000000</ele>
<time>2010-01-01T00:28:45.000Z</time>
</trkpt>
<trkpt lat="31.2276830" lon="35.2209020">
<ele>610.000000</ele>
<time>2010-01-01T00:28:55.000Z</time>
</trkpt>
<trkpt lat="31.2275080" lon="35.2210320">
<ele>612.000000</ele>
<time>2010-01-01T00:29:03.000Z</time>
</trkpt>
<trkpt lat="31.2273770" lon="35.2211200">
<ele>613.000000</ele>
<time>2010-01-01T00:29:09.000Z</time>
</trkpt>
<trkpt lat="31.2272900" lon="35.2212120">
<ele>614.000000</ele>
<time>2010-01-01T00:29:14.000Z</time>
</trkpt>
<trkpt lat="31.2271820" lon="35.2212930">
<ele>615.000000</ele>
<time>2010-01-01T00:29:19.000Z</time>
</trkpt>
<trkpt lat="31.2270230" lon="35.2213870">
<ele>617.000000</ele>
<time>2010-01-01T00:29:26.000Z</time>
</trkpt>
<trkpt lat="31.2269670" lon="35.2214250">
<ele>618.000000</ele>
<time>2010-01-01T00:29:29.000Z</time>
</trkpt>
<trkpt lat="31.2269280" lon="35.2214520">
<ele>618.000000</ele>
<time>2010-01-01T00:29:31.000Z</time>
</trkpt>
<trkpt lat="31.2268850" lon="35.2215130">
<ele>618.000000</ele>
<time>2010-01-01T00:29:33.000Z</time>
</trkpt>
<trkpt lat="31.2268230" lon="35.2216370">
<ele>618.000000</ele>
<time>2010-01-01T00:29:38.000Z</time>
</trkpt>
<trkpt lat="31.2267720" lon="35.2217820">
<ele>619.000000</ele>
<time>2010-01-01T00:29:44.000Z</time>
</trkpt>
<trkpt lat="31.2266780" lon="35.2221730">
<ele>618.000000</ele>
<time>2010-01-01T00:29:58.000Z</time>
</trkpt>
<trkpt lat="31.2266200" lon="35.2225850">
<ele>614.000000</ele>
<time>2010-01-01T00:30:12.000Z</time>
</trkpt>
<trkpt lat="31.2265080" lon="35.2229050">
<ele>612.000000</ele>
<time>2010-01-01T00:30:24.000Z</time>
</trkpt>
<trkpt lat="31.2264730" lon="35.2230930">
<ele>612.000000</ele>
<time>2010-01-01T00:30:30.000Z</time>
</trkpt>
<trkpt lat="31.2264600" lon="35.2232950">
<ele>612.000000</ele>
<time>2010-01-01T00:30:37.000Z</time>
</trkpt>
<trkpt lat="31.2264730" lon="35.2235100">
<ele>611.000000</ele>
<time>2010-01-01T00:30:45.000Z</time>
</trkpt>
<trkpt lat="31.2264980" lon="35.2235800">
<ele>610.000000</ele>
<time>2010-01-01T00:30:47.000Z</time>
</trkpt>
<trkpt lat="31.2265280" lon="35.2236450">
<ele>610.000000</ele>
<time>2010-01-01T00:30:50.000Z</time>
</trkpt>
<trkpt lat="31.2266000" lon="35.2237530">
<ele>609.000000</ele>
<time>2010-01-01T00:30:54.000Z</time>
</trkpt>
<trkpt lat="31.2267820" lon="35.2239150">
<ele>609.000000</ele>
<time>2010-01-01T00:31:04.000Z</time>
</trkpt>
<trkpt lat="31.2268720" lon="35.2240370">
<ele>610.000000</ele>
<time>2010-01-01T00:31:09.000Z</time>
</trkpt>
<trkpt lat="31.2269020" lon="35.2241220">
<ele>611.000000</ele>
<time>2010-01-01T00:31:12.000Z</time>
</trkpt>
<trkpt lat="31.2269170" lon="35.2242680">
<ele>612.000000</ele>
<time>2010-01-01T00:31:17.000Z</time>
</trkpt>
<trkpt lat="31.2269400" lon="35.2243520">
<ele>613.000000</ele>
<time>2010-01-01T00:31:20.000Z</time>
</trkpt>
<trkpt lat="31.2270950" lon="35.2247170">
<ele>616.000000</ele>
<time>2010-01-01T00:31:34.000Z</time>
</trkpt>
<trkpt lat="31.2271530" lon="35.2250150">
<ele>617.000000</ele>
<time>2010-01-01T00:31:45.000Z</time>
</trkpt>
<trkpt lat="31.2272500" lon="35.2252500">
<ele>621.000000</ele>
<time>2010-01-01T00:31:54.000Z</time>
</trkpt>
<trkpt lat="31.2272870" lon="35.2253570">
<ele>621.000000</ele>
<time>2010-01-01T00:31:58.000Z</time>
</trkpt>
<trkpt lat="31.2273980" lon="35.2255900">
<ele>623.000000</ele>
<time>2010-01-01T00:32:07.000Z</time>
</trkpt>
<trkpt lat="31.2274570" lon="35.2257620">
<ele>624.000000</ele>
<time>2010-01-01T00:32:13.000Z</time>
</trkpt>
<trkpt lat="31.2274980" lon="35.2260550">
<ele>624.000000</ele>
<time>2010-01-01T00:32:23.000Z</time>
</trkpt>
<trkpt lat="31.2275230" lon="35.2264530">
<ele>622.000000</ele>
<time>2010-01-01T00:32:37.000Z</time>
</trkpt>
<trkpt lat="31.2275570" lon="35.2266670">
<ele>619.000000</ele>
<time>2010-01-01T00:32:44.000Z</time>
</trkpt>
<trkpt lat="31.2275630" lon="35.2267970">
<ele>617.000000</ele>
<time>2010-01-01T00:32:49.000Z</time>
</trkpt>
<trkpt lat="31.2275870" lon="35.2270650">
<ele>615.000000</ele>
<time>2010-01-01T00:32:58.000Z</time>
</trkpt>
<trkpt lat="31.2276330" lon="35.2273250">
<ele>613.000000</ele>
<time>2010-01-01T00:33:07.000Z</time>
</trkpt>
<trkpt lat="31.2278761" lon="35.2277308">
<ele>612.000000</ele>
<time>2010-01-01T00:33:24.000Z</time>
</trkpt>
<trkpt lat="31.2278302" lon="35.2283048">
<ele>611.000000</ele>
<time>2010-01-01T00:33:44.000Z</time>
</trkpt>
<trkpt lat="31.2276467" lon="35.2287769">
<ele>612.000000</ele>
<time>2010-01-01T00:34:02.000Z</time>
</trkpt>
<trkpt lat="31.2256054" lon="35.2298015">
<ele>621.000000</ele>
<time>2010-01-01T00:35:30.000Z</time>
</trkpt>
<trkpt lat="31.2251604" lon="35.2301234">
<ele>619.000000</ele>
<time>2010-01-01T00:35:51.000Z</time>
</trkpt>
<trkpt lat="31.2250045" lon="35.2302736">
<ele>617.000000</ele>
<time>2010-01-01T00:35:59.000Z</time>
</trkpt>
<trkpt lat="31.2245687" lon="35.2301502">
<ele>612.000000</ele>
<time>2010-01-01T00:36:17.000Z</time>
</trkpt>
<trkpt lat="31.2241604" lon="35.2301663">
<ele>608.000000</ele>
<time>2010-01-01T00:36:34.000Z</time>
</trkpt>
<trkpt lat="31.2237384" lon="35.2300107">
<ele>612.000000</ele>
<time>2010-01-01T00:36:52.000Z</time>
</trkpt>
<trkpt lat="31.2242017" lon="35.2302253">
<ele>608.000000</ele>
<time>2010-01-01T00:37:11.000Z</time>
</trkpt>
<trkpt lat="31.2246237" lon="35.2301824">
<ele>612.000000</ele>
<time>2010-01-01T00:37:28.000Z</time>
</trkpt>
<trkpt lat="31.2249907" lon="35.2302736">
<ele>616.000000</ele>
<time>2010-01-01T00:37:43.000Z</time>
</trkpt>
<trkpt lat="31.2251834" lon="35.2310460">
<ele>608.000000</ele>
<time>2010-01-01T00:38:11.000Z</time>
</trkpt>
<trkpt lat="31.2252705" lon="35.2316415">
<ele>605.000000</ele>
<time>2010-01-01T00:38:32.000Z</time>
</trkpt>
<trkpt lat="31.2252659" lon="35.2313035">
<ele>605.000000</ele>
<time>2010-01-01T00:38:43.000Z</time>
</trkpt>
<trkpt lat="31.2251146" lon="35.2308583">
<ele>610.000000</ele>
<time>2010-01-01T00:39:00.000Z</time>
</trkpt>
<trkpt lat="31.2250228" lon="35.2305418">
<ele>615.000000</ele>
<time>2010-01-01T00:39:11.000Z</time>
</trkpt>
<trkpt lat="31.2250228" lon="35.2302896">
<ele>617.000000</ele>
<time>2010-01-01T00:39:20.000Z</time>
</trkpt>
<trkpt lat="31.2247292" lon="35.2302145">
<ele>613.000000</ele>
<time>2010-01-01T00:39:32.000Z</time>
</trkpt>
<trkpt lat="31.2250274" lon="35.2302628">
<ele>617.000000</ele>
<time>2010-01-01T00:39:44.000Z</time>
</trkpt>
<trkpt lat="31.2252017" lon="35.2300697">
<ele>619.000000</ele>
<time>2010-01-01T00:39:53.000Z</time>
</trkpt>
<trkpt lat="31.2263027" lon="35.2294313">
<ele>618.000000</ele>
<time>2010-01-01T00:40:43.000Z</time>
</trkpt>
<trkpt lat="31.2276651" lon="35.2287930">
<ele>612.000000</ele>
<time>2010-01-01T00:41:41.000Z</time>
</trkpt>
<trkpt lat="31.2278440" lon="35.2282565">
<ele>612.000000</ele>
<time>2010-01-01T00:42:01.000Z</time>
</trkpt>
<trkpt lat="31.2279036" lon="35.2277576">
<ele>612.000000</ele>
<time>2010-01-01T00:42:18.000Z</time>
</trkpt>
<trkpt lat="31.2284270" lon="35.2280630">
<ele>604.000000</ele>
<time>2010-01-01T00:42:42.000Z</time>
</trkpt>
<trkpt lat="31.2284720" lon="35.2281050">
<ele>603.000000</ele>
<time>2010-01-01T00:42:44.000Z</time>
</trkpt>
<trkpt lat="31.2285430" lon="35.2281880">
<ele>602.000000</ele>
<time>2010-01-01T00:42:48.000Z</time>
</trkpt>
<trkpt lat="31.2286350" lon="35.2282670">
<ele>601.000000</ele>
<time>2010-01-01T00:42:53.000Z</time>
</trkpt>
<trkpt lat="31.2288150" lon="35.2283330">
<ele>596.000000</ele>
<time>2010-01-01T00:43:00.000Z</time>
</trkpt>
<trkpt lat="31.2289730" lon="35.2283320">
<ele>592.000000</ele>
<time>2010-01-01T00:43:06.000Z</time>
</trkpt>
<trkpt lat="31.2291500" lon="35.2283030">
<ele>588.000000</ele>
<time>2010-01-01T00:43:14.000Z</time>
</trkpt>
<trkpt lat="31.2294080" lon="35.2282970">
<ele>587.000000</ele>
<time>2010-01-01T00:43:24.000Z</time>
</trkpt>
<trkpt lat="31.2295720" lon="35.2283370">
<ele>587.000000</ele>
<time>2010-01-01T00:43:31.000Z</time>
</trkpt>
<trkpt lat="31.2297230" lon="35.2283970">
<ele>587.000000</ele>
<time>2010-01-01T00:43:37.000Z</time>
</trkpt>
<trkpt lat="31.2298650" lon="35.2284800">
<ele>587.000000</ele>
<time>2010-01-01T00:43:43.000Z</time>
</trkpt>
<trkpt lat="31.2299900" lon="35.2285900">
<ele>588.000000</ele>
<time>2010-01-01T00:43:50.000Z</time>
</trkpt>
<trkpt lat="31.2301070" lon="35.2287100">
<ele>586.000000</ele>
<time>2010-01-01T00:43:56.000Z</time>
</trkpt>
<trkpt lat="31.2304450" lon="35.2290370">
<ele>581.000000</ele>
<time>2010-01-01T00:44:13.000Z</time>
</trkpt>
<trkpt lat="31.2304950" lon="35.2290980">
<ele>580.000000</ele>
<time>2010-01-01T00:44:16.000Z</time>
</trkpt>
<trkpt lat="31.2306830" lon="35.2294850">
<ele>572.000000</ele>
<time>2010-01-01T00:44:32.000Z</time>
</trkpt>
<trkpt lat="31.2307850" lon="35.2296420">
<ele>571.000000</ele>
<time>2010-01-01T00:44:38.000Z</time>
</trkpt>
<trkpt lat="31.2308430" lon="35.2297070">
<ele>571.000000</ele>
<time>2010-01-01T00:44:42.000Z</time>
</trkpt>
<trkpt lat="31.2309130" lon="35.2297620">
<ele>570.000000</ele>
<time>2010-01-01T00:44:45.000Z</time>
</trkpt>
<trkpt lat="31.2310670" lon="35.2298420">
<ele>570.000000</ele>
<time>2010-01-01T00:44:52.000Z</time>
</trkpt>
<trkpt lat="31.2312020" lon="35.2299380">
<ele>569.000000</ele>
<time>2010-01-01T00:44:58.000Z</time>
</trkpt>
<trkpt lat="31.2312600" lon="35.2300150">
<ele>569.000000</ele>
<time>2010-01-01T00:45:02.000Z</time>
</trkpt>
<trkpt lat="31.2313570" lon="35.2301800">
<ele>568.000000</ele>
<time>2010-01-01T00:45:08.000Z</time>
</trkpt>
<trkpt lat="31.2316400" lon="35.2309750">
<ele>559.000000</ele>
<time>2010-01-01T00:45:38.000Z</time>
</trkpt>
<trkpt lat="31.2316670" lon="35.2310780">
<ele>558.000000</ele>
<time>2010-01-01T00:45:42.000Z</time>
</trkpt>
<trkpt lat="31.2317800" lon="35.2318520">
<ele>556.000000</ele>
<time>2010-01-01T00:46:08.000Z</time>
</trkpt>
<trkpt lat="31.2320870" lon="35.2329500">
<ele>550.000000</ele>
<time>2010-01-01T00:46:48.000Z</time>
</trkpt>
<trkpt lat="31.2320980" lon="35.2330950">
<ele>548.000000</ele>
<time>2010-01-01T00:46:53.000Z</time>
</trkpt>
<trkpt lat="31.2320820" lon="35.2335530">
<ele>547.000000</ele>
<time>2010-01-01T00:47:09.000Z</time>
</trkpt>
<trkpt lat="31.2320620" lon="35.2336800">
<ele>548.000000</ele>
<time>2010-01-01T00:47:13.000Z</time>
</trkpt>
<trkpt lat="31.2318570" lon="35.2343380">
<ele>548.000000</ele>
<time>2010-01-01T00:47:37.000Z</time>
</trkpt>
<trkpt lat="31.2318000" lon="35.2346030">
<ele>548.000000</ele>
<time>2010-01-01T00:47:46.000Z</time>
</trkpt>
<trkpt lat="31.2317230" lon="35.2352800">
<ele>546.000000</ele>
<time>2010-01-01T00:48:10.000Z</time>
</trkpt>
<trkpt lat="31.2317300" lon="35.2354730">
<ele>545.000000</ele>
<time>2010-01-01T00:48:16.000Z</time>
</trkpt>
<trkpt lat="31.2317970" lon="35.2357880">
<ele>542.000000</ele>
<time>2010-01-01T00:48:27.000Z</time>
</trkpt>
<trkpt lat="31.2318630" lon="35.2359630">
<ele>538.000000</ele>
<time>2010-01-01T00:48:34.000Z</time>
</trkpt>
<trkpt lat="31.2318830" lon="35.2359930">
<ele>537.000000</ele>
<time>2010-01-01T00:48:35.000Z</time>
</trkpt>
<trkpt lat="31.2319700" lon="35.2360720">
<ele>535.000000</ele>
<time>2010-01-01T00:48:40.000Z</time>
</trkpt>
<trkpt lat="31.2320280" lon="35.2361730">
<ele>534.000000</ele>
<time>2010-01-01T00:48:44.000Z</time>
</trkpt>
<trkpt lat="31.2320820" lon="35.2362820">
<ele>534.000000</ele>
<time>2010-01-01T00:48:48.000Z</time>
</trkpt>
<trkpt lat="31.2322400" lon="35.2367120">
<ele>536.000000</ele>
<time>2010-01-01T00:49:04.000Z</time>
</trkpt>
<trkpt lat="31.2322630" lon="35.2368880">
<ele>537.000000</ele>
<time>2010-01-01T00:49:10.000Z</time>
</trkpt>
<trkpt lat="31.2322430" lon="35.2371320">
<ele>540.000000</ele>
<time>2010-01-01T00:49:19.000Z</time>
</trkpt>
<trkpt lat="31.2322150" lon="35.2372770">
<ele>542.000000</ele>
<time>2010-01-01T00:49:24.000Z</time>
</trkpt>
<trkpt lat="31.2322070" lon="35.2372970">
<ele>542.000000</ele>
<time>2010-01-01T00:49:25.000Z</time>
</trkpt>
<trkpt lat="31.2321780" lon="35.2373330">
<ele>543.000000</ele>
<time>2010-01-01T00:49:26.000Z</time>
</trkpt>
<trkpt lat="31.2321370" lon="35.2373500">
<ele>543.000000</ele>
<time>2010-01-01T00:49:28.000Z</time>
</trkpt>
<trkpt lat="31.2321020" lon="35.2374300">
<ele>543.000000</ele>
<time>2010-01-01T00:49:31.000Z</time>
</trkpt>
<trkpt lat="31.2320880" lon="35.2374420">
<ele>543.000000</ele>
<time>2010-01-01T00:49:32.000Z</time>
</trkpt>
<trkpt lat="31.2321030" lon="35.2375080">
<ele>544.000000</ele>
<time>2010-01-01T00:49:34.000Z</time>
</trkpt>
<trkpt lat="31.2321450" lon="35.2375700">
<ele>545.000000</ele>
<time>2010-01-01T00:49:37.000Z</time>
</trkpt>
<trkpt lat="31.2321900" lon="35.2376830">
<ele>546.000000</ele>
<time>2010-01-01T00:49:41.000Z</time>
</trkpt>
<trkpt lat="31.2322000" lon="35.2377330">
<ele>547.000000</ele>
<time>2010-01-01T00:49:43.000Z</time>
</trkpt>
<trkpt lat="31.2322000" lon="35.2377580">
<ele>547.000000</ele>
<time>2010-01-01T00:49:44.000Z</time>
</trkpt>
<trkpt lat="31.2321870" lon="35.2377880">
<ele>547.000000</ele>
<time>2010-01-01T00:49:45.000Z</time>
</trkpt>
<trkpt lat="31.2321820" lon="35.2377720">
<ele>547.000000</ele>
<time>2010-01-01T00:49:45.000Z</time>
</trkpt>
<trkpt lat="31.2321700" lon="35.2376650">
<ele>546.000000</ele>
<time>2010-01-01T00:49:49.000Z</time>
</trkpt>
<trkpt lat="31.2321430" lon="35.2376270">
<ele>545.000000</ele>
<time>2010-01-01T00:49:51.000Z</time>
</trkpt>
<trkpt lat="31.2321180" lon="35.2376000">
<ele>545.000000</ele>
<time>2010-01-01T00:49:52.000Z</time>
</trkpt>
<trkpt lat="31.2321030" lon="35.2375450">
<ele>544.000000</ele>
<time>2010-01-01T00:49:54.000Z</time>
</trkpt>
<trkpt lat="31.2321030" lon="35.2375150">
<ele>544.000000</ele>
<time>2010-01-01T00:49:55.000Z</time>
</trkpt>
<trkpt lat="31.2322220" lon="35.2372530">
<ele>542.000000</ele>
<time>2010-01-01T00:50:05.000Z</time>
</trkpt>
<trkpt lat="31.2322480" lon="35.2370750">
<ele>539.000000</ele>
<time>2010-01-01T00:50:11.000Z</time>
</trkpt>
<trkpt lat="31.2322430" lon="35.2368120">
<ele>536.000000</ele>
<time>2010-01-01T00:50:20.000Z</time>
</trkpt>
<trkpt lat="31.2321650" lon="35.2367120">
<ele>535.000000</ele>
<time>2010-01-01T00:50:25.000Z</time>
</trkpt>
<trkpt lat="31.2318850" lon="35.2367030">
<ele>533.000000</ele>
<time>2010-01-01T00:50:36.000Z</time>
</trkpt>
<trkpt lat="31.2318630" lon="35.2367150">
<ele>533.000000</ele>
<time>2010-01-01T00:50:37.000Z</time>
</trkpt>
<trkpt lat="31.2318380" lon="35.2367280">
<ele>533.000000</ele>
<time>2010-01-01T00:50:38.000Z</time>
</trkpt>
<trkpt lat="31.2318350" lon="35.2367450">
<ele>533.000000</ele>
<time>2010-01-01T00:50:39.000Z</time>
</trkpt>
<trkpt lat="31.2317670" lon="35.2368500">
<ele>534.000000</ele>
<time>2010-01-01T00:50:44.000Z</time>
</trkpt>
<trkpt lat="31.2316420" lon="35.2369650">
<ele>533.000000</ele>
<time>2010-01-01T00:50:50.000Z</time>
</trkpt>
<trkpt lat="31.2313380" lon="35.2372720">
<ele>529.000000</ele>
<time>2010-01-01T00:51:06.000Z</time>
</trkpt>
<trkpt lat="31.2308780" lon="35.2379000">
<ele>525.000000</ele>
<time>2010-01-01T00:51:34.000Z</time>
</trkpt>
<trkpt lat="31.2308000" lon="35.2380950">
<ele>525.000000</ele>
<time>2010-01-01T00:51:42.000Z</time>
</trkpt>
<trkpt lat="31.2307370" lon="35.2384980">
<ele>520.000000</ele>
<time>2010-01-01T00:51:56.000Z</time>
</trkpt>
<trkpt lat="31.2307470" lon="35.2385650">
<ele>519.000000</ele>
<time>2010-01-01T00:51:58.000Z</time>
</trkpt>
<trkpt lat="31.2308080" lon="35.2387220">
<ele>515.000000</ele>
<time>2010-01-01T00:52:04.000Z</time>
</trkpt>
<trkpt lat="31.2308580" lon="35.2388050">
<ele>513.000000</ele>
<time>2010-01-01T00:52:07.000Z</time>
</trkpt>
<trkpt lat="31.2310130" lon="35.2390450">
<ele>509.000000</ele>
<time>2010-01-01T00:52:18.000Z</time>
</trkpt>
<trkpt lat="31.2311220" lon="35.2391900">
<ele>507.000000</ele>
<time>2010-01-01T00:52:24.000Z</time>
</trkpt>
<trkpt lat="31.2313570" lon="35.2394700">
<ele>506.000000</ele>
<time>2010-01-01T00:52:38.000Z</time>
</trkpt>
<trkpt lat="31.2314150" lon="35.2395780">
<ele>504.999969</ele>
<time>2010-01-01T00:52:42.000Z</time>
</trkpt>
<trkpt lat="31.2314630" lon="35.2398700">
<ele>500.000000</ele>
<time>2010-01-01T00:52:52.000Z</time>
</trkpt>
<trkpt lat="31.2316180" lon="35.2401730">
<ele>497.000000</ele>
<time>2010-01-01T00:53:04.000Z</time>
</trkpt>
<trkpt lat="31.2318750" lon="35.2405820">
<ele>488.000031</ele>
<time>2010-01-01T00:53:22.000Z</time>
</trkpt>
<trkpt lat="31.2319750" lon="35.2407270">
<ele>486.000000</ele>
<time>2010-01-01T00:53:28.000Z</time>
</trkpt>
<trkpt lat="31.2321030" lon="35.2408350">
<ele>484.000000</ele>
<time>2010-01-01T00:53:34.000Z</time>
</trkpt>
<trkpt lat="31.2325150" lon="35.2409880">
<ele>480.000000</ele>
<time>2010-01-01T00:53:52.000Z</time>
</trkpt>
<trkpt lat="31.2326530" lon="35.2410650">
<ele>476.999969</ele>
<time>2010-01-01T00:53:58.000Z</time>
</trkpt>
<trkpt lat="31.2326750" lon="35.2411200">
<ele>475.000000</ele>
<time>2010-01-01T00:54:00.000Z</time>
</trkpt>
<trkpt lat="31.2326950" lon="35.2412570">
<ele>473.000000</ele>
<time>2010-01-01T00:54:05.000Z</time>
</trkpt>
<trkpt lat="31.2326620" lon="35.2413170">
<ele>472.000000</ele>
<time>2010-01-01T00:54:07.000Z</time>
</trkpt>
<trkpt lat="31.2325650" lon="35.2414450">
<ele>471.000000</ele>
<time>2010-01-01T00:54:13.000Z</time>
</trkpt>
<trkpt lat="31.2325070" lon="35.2415030">
<ele>471.000000</ele>
<time>2010-01-01T00:54:16.000Z</time>
</trkpt>
<trkpt lat="31.2322630" lon="35.2418820">
<ele>465.000000</ele>
<time>2010-01-01T00:54:32.000Z</time>
</trkpt>
<trkpt lat="31.2321370" lon="35.2420520">
<ele>463.000031</ele>
<time>2010-01-01T00:54:40.000Z</time>
</trkpt>
<trkpt lat="31.2320880" lon="35.2421030">
<ele>462.000000</ele>
<time>2010-01-01T00:54:43.000Z</time>
</trkpt>
<trkpt lat="31.2320450" lon="35.2421600">
<ele>461.000000</ele>
<time>2010-01-01T00:54:45.000Z</time>
</trkpt>
<trkpt lat="31.2319800" lon="35.2421950">
<ele>460.000000</ele>
<time>2010-01-01T00:54:48.000Z</time>
</trkpt>
<trkpt lat="31.2318750" lon="35.2422820">
<ele>458.000000</ele>
<time>2010-01-01T00:54:53.000Z</time>
</trkpt>
<trkpt lat="31.2317530" lon="35.2423380">
<ele>456.000000</ele>
<time>2010-01-01T00:54:58.000Z</time>
</trkpt>
<trkpt lat="31.2315530" lon="35.2423920">
<ele>451.999969</ele>
<time>2010-01-01T00:55:07.000Z</time>
</trkpt>
<trkpt lat="31.2310400" lon="35.2424520">
<ele>440.999969</ele>
<time>2010-01-01T00:55:27.000Z</time>
</trkpt>
<trkpt lat="31.2309600" lon="35.2425970">
<ele>437.000000</ele>
<time>2010-01-01T00:55:33.000Z</time>
</trkpt>
<trkpt lat="31.2309500" lon="35.2427620">
<ele>436.000000</ele>
<time>2010-01-01T00:55:39.000Z</time>
</trkpt>
<trkpt lat="31.2310000" lon="35.2430400">
<ele>436.000000</ele>
<time>2010-01-01T00:55:49.000Z</time>
</trkpt>
<trkpt lat="31.2310100" lon="35.2431300">
<ele>436.000000</ele>
<time>2010-01-01T00:55:52.000Z</time>
</trkpt>
<trkpt lat="31.2310050" lon="35.2432970">
<ele>434.000000</ele>
<time>2010-01-01T00:55:57.000Z</time>
</trkpt>
<trkpt lat="31.2310220" lon="35.2435150">
<ele>432.000000</ele>
<time>2010-01-01T00:56:05.000Z</time>
</trkpt>
<trkpt lat="31.2310080" lon="35.2435280">
<ele>431.000000</ele>
<time>2010-01-01T00:56:06.000Z</time>
</trkpt>
<trkpt lat="31.2310080" lon="35.2438400">
<ele>426.000000</ele>
<time>2010-01-01T00:56:16.000Z</time>
</trkpt>
<trkpt lat="31.2310220" lon="35.2441420">
<ele>421.000000</ele>
<time>2010-01-01T00:56:27.000Z</time>
</trkpt>
<trkpt lat="31.2311520" lon="35.2445020">
<ele>417.000000</ele>
<time>2010-01-01T00:56:40.000Z</time>
</trkpt>
<trkpt lat="31.2311770" lon="35.2445580">
<ele>415.999969</ele>
<time>2010-01-01T00:56:42.000Z</time>
</trkpt>
<trkpt lat="31.2312020" lon="35.2446180">
<ele>415.000000</ele>
<time>2010-01-01T00:56:44.000Z</time>
</trkpt>
<trkpt lat="31.2312870" lon="35.2447320">
<ele>412.999969</ele>
<time>2010-01-01T00:56:50.000Z</time>
</trkpt>
<trkpt lat="31.2316030" lon="35.2448450">
<ele>411.000000</ele>
<time>2010-01-01T00:57:03.000Z</time>
</trkpt>
<trkpt lat="31.2317700" lon="35.2448830">
<ele>409.000000</ele>
<time>2010-01-01T00:57:10.000Z</time>
</trkpt>
<trkpt lat="31.2318620" lon="35.2448830">
<ele>408.000000</ele>
<time>2010-01-01T00:57:13.000Z</time>
</trkpt>
<trkpt lat="31.2319430" lon="35.2448280">
<ele>408.000000</ele>
<time>2010-01-01T00:57:17.000Z</time>
</trkpt>
<trkpt lat="31.2320200" lon="35.2447620">
<ele>410.000031</ele>
<time>2010-01-01T00:57:21.000Z</time>
</trkpt>
<trkpt lat="31.2320600" lon="35.2447370">
<ele>411.000000</ele>
<time>2010-01-01T00:57:23.000Z</time>
</trkpt>
<trkpt lat="31.2321500" lon="35.2447470">
<ele>410.000031</ele>
<time>2010-01-01T00:57:26.000Z</time>
</trkpt>
<trkpt lat="31.2322620" lon="35.2448880">
<ele>406.000000</ele>
<time>2010-01-01T00:57:33.000Z</time>
</trkpt>
<trkpt lat="31.2324250" lon="35.2452170">
<ele>398.000000</ele>
<time>2010-01-01T00:57:46.000Z</time>
</trkpt>
<trkpt lat="31.2324650" lon="35.2452880">
<ele>396.000000</ele>
<time>2010-01-01T00:57:49.000Z</time>
</trkpt>
<trkpt lat="31.2325530" lon="35.2454180">
<ele>393.000000</ele>
<time>2010-01-01T00:57:55.000Z</time>
</trkpt>
<trkpt lat="31.2326500" lon="35.2455020">
<ele>391.000000</ele>
<time>2010-01-01T00:57:59.000Z</time>
</trkpt>
<trkpt lat="31.2327320" lon="35.2455520">
<ele>390.000000</ele>
<time>2010-01-01T00:58:03.000Z</time>
</trkpt>
<trkpt lat="31.2328030" lon="35.2455550">
<ele>389.000000</ele>
<time>2010-01-01T00:58:06.000Z</time>
</trkpt>
<trkpt lat="31.2328230" lon="35.2455970">
<ele>387.999969</ele>
<time>2010-01-01T00:58:08.000Z</time>
</trkpt>
<trkpt lat="31.2328380" lon="35.2458520">
<ele>384.000000</ele>
<time>2010-01-01T00:58:16.000Z</time>
</trkpt>
<trkpt lat="31.2326620" lon="35.2461400">
<ele>379.000000</ele>
<time>2010-01-01T00:58:28.000Z</time>
</trkpt>
<trkpt lat="31.2325630" lon="35.2462350">
<ele>378.000000</ele>
<time>2010-01-01T00:58:34.000Z</time>
</trkpt>
<trkpt lat="31.2324880" lon="35.2462680">
<ele>378.000000</ele>
<time>2010-01-01T00:58:37.000Z</time>
</trkpt>
<trkpt lat="31.2317750" lon="35.2463450">
<ele>369.000000</ele>
<time>2010-01-01T00:59:05.000Z</time>
</trkpt>
<trkpt lat="31.2310980" lon="35.2463100">
<ele>368.000000</ele>
<time>2010-01-01T00:59:33.000Z</time>
</trkpt>
<trkpt lat="31.2305430" lon="35.2464400">
<ele>366.000000</ele>
<time>2010-01-01T00:59:55.000Z</time>
</trkpt>
<trkpt lat="31.2296620" lon="35.2465430">
<ele>360.000031</ele>
<time>2010-01-01T01:00:31.000Z</time>
</trkpt>
<trkpt lat="31.2295370" lon="35.2465780">
<ele>359.000000</ele>
<time>2010-01-01T01:00:36.000Z</time>
</trkpt>
<trkpt lat="31.2293530" lon="35.2466700">
<ele>358.000000</ele>
<time>2010-01-01T01:00:44.000Z</time>
</trkpt>
<trkpt lat="31.2292020" lon="35.2467880">
<ele>357.000000</ele>
<time>2010-01-01T01:00:51.000Z</time>
</trkpt>
<trkpt lat="31.2290830" lon="35.2468850">
<ele>356.000000</ele>
<time>2010-01-01T01:00:57.000Z</time>
</trkpt>
<trkpt lat="31.2290550" lon="35.2469200">
<ele>355.000000</ele>
<time>2010-01-01T01:00:59.000Z</time>
</trkpt>
<trkpt lat="31.2290130" lon="35.2469930">
<ele>355.000000</ele>
<time>2010-01-01T01:01:02.000Z</time>
</trkpt>
<trkpt lat="31.2289770" lon="35.2470730">
<ele>356.000000</ele>
<time>2010-01-01T01:01:05.000Z</time>
</trkpt>
<trkpt lat="31.2286970" lon="35.2472830">
<ele>351.000000</ele>
<time>2010-01-01T01:01:18.000Z</time>
</trkpt>
<trkpt lat="31.2284750" lon="35.2475720">
<ele>350.000000</ele>
<time>2010-01-01T01:01:31.000Z</time>
</trkpt>
<trkpt lat="31.2284430" lon="35.2476700">
<ele>349.000031</ele>
<time>2010-01-01T01:01:35.000Z</time>
</trkpt>
<trkpt lat="31.2285970" lon="35.2481900">
<ele>344.000000</ele>
<time>2010-01-01T01:01:54.000Z</time>
</trkpt>
<trkpt lat="31.2286350" lon="35.2482700">
<ele>343.000000</ele>
<time>2010-01-01T01:01:57.000Z</time>
</trkpt>
<trkpt lat="31.2287930" lon="35.2484600">
<ele>342.000000</ele>
<time>2010-01-01T01:02:06.000Z</time>
</trkpt>
<trkpt lat="31.2289570" lon="35.2486070">
<ele>341.000000</ele>
<time>2010-01-01T01:02:14.000Z</time>
</trkpt>
<trkpt lat="31.2290420" lon="35.2487230">
<ele>340.000000</ele>
<time>2010-01-01T01:02:19.000Z</time>
</trkpt>
<trkpt lat="31.2290930" lon="35.2488700">
<ele>340.000000</ele>
<time>2010-01-01T01:02:25.000Z</time>
</trkpt>
<trkpt lat="31.2291220" lon="35.2491920">
<ele>339.000000</ele>
<time>2010-01-01T01:02:36.000Z</time>
</trkpt>
<trkpt lat="31.2291070" lon="35.2493470">
<ele>337.999969</ele>
<time>2010-01-01T01:02:41.000Z</time>
</trkpt>
<trkpt lat="31.2289130" lon="35.2496680">
<ele>336.000000</ele>
<time>2010-01-01T01:02:55.000Z</time>
</trkpt>
<trkpt lat="31.2288520" lon="35.2498370">
<ele>334.000000</ele>
<time>2010-01-01T01:03:01.000Z</time>
</trkpt>
<trkpt lat="31.2287550" lon="35.2499620">
<ele>333.000000</ele>
<time>2010-01-01T01:03:07.000Z</time>
</trkpt>
<trkpt lat="31.2287270" lon="35.2500100">
<ele>333.000000</ele>
<time>2010-01-01T01:03:09.000Z</time>
</trkpt>
<trkpt lat="31.2287120" lon="35.2501430">
<ele>332.000000</ele>
<time>2010-01-01T01:03:13.000Z</time>
</trkpt>
<trkpt lat="31.2287020" lon="35.2504570">
<ele>330.000000</ele>
<time>2010-01-01T01:03:24.000Z</time>
</trkpt>
<trkpt lat="31.2287030" lon="35.2505670">
<ele>329.000000</ele>
<time>2010-01-01T01:03:28.000Z</time>
</trkpt>
<trkpt lat="31.2286820" lon="35.2506230">
<ele>329.000000</ele>
<time>2010-01-01T01:03:30.000Z</time>
</trkpt>
<trkpt lat="31.2286950" lon="35.2508150">
<ele>326.999969</ele>
<time>2010-01-01T01:03:37.000Z</time>
</trkpt>
<trkpt lat="31.2287280" lon="35.2510700">
<ele>326.000000</ele>
<time>2010-01-01T01:03:45.000Z</time>
</trkpt>
<trkpt lat="31.2287670" lon="35.2511970">
<ele>325.000000</ele>
<time>2010-01-01T01:03:50.000Z</time>
</trkpt>
<trkpt lat="31.2288150" lon="35.2515620">
<ele>323.999969</ele>
<time>2010-01-01T01:04:03.000Z</time>
</trkpt>
<trkpt lat="31.2287970" lon="35.2517570">
<ele>323.000000</ele>
<time>2010-01-01T01:04:09.000Z</time>
</trkpt>
<trkpt lat="31.2287050" lon="35.2522130">
<ele>322.000000</ele>
<time>2010-01-01T01:04:25.000Z</time>
</trkpt>
<trkpt lat="31.2287000" lon="35.2525120">
<ele>322.000000</ele>
<time>2010-01-01T01:04:36.000Z</time>
</trkpt>
<trkpt lat="31.2286130" lon="35.2532920">
<ele>315.000000</ele>
<time>2010-01-01T01:05:03.000Z</time>
</trkpt>
<trkpt lat="31.2286650" lon="35.2533800">
<ele>314.000000</ele>
<time>2010-01-01T01:05:06.000Z</time>
</trkpt>
<trkpt lat="31.2287370" lon="35.2534450">
<ele>314.000000</ele>
<time>2010-01-01T01:05:10.000Z</time>
</trkpt>
<trkpt lat="31.2288000" lon="35.2534780">
<ele>314.000000</ele>
<time>2010-01-01T01:05:13.000Z</time>
</trkpt>
<trkpt lat="31.2288280" lon="35.2534980">
<ele>314.000000</ele>
<time>2010-01-01T01:05:14.000Z</time>
</trkpt>
<trkpt lat="31.2289950" lon="35.2535500">
<ele>315.000000</ele>
<time>2010-01-01T01:05:21.000Z</time>
</trkpt>
<trkpt lat="31.2294270" lon="35.2537300">
<ele>319.000000</ele>
<time>2010-01-01T01:05:39.000Z</time>
</trkpt>
<trkpt lat="31.2294470" lon="35.2537400">
<ele>320.000000</ele>
<time>2010-01-01T01:05:40.000Z</time>
</trkpt>
<trkpt lat="31.2295950" lon="35.2539330">
<ele>320.000000</ele>
<time>2010-01-01T01:05:49.000Z</time>
</trkpt>
<trkpt lat="31.2296620" lon="35.2540280">
<ele>321.000031</ele>
<time>2010-01-01T01:05:53.000Z</time>
</trkpt>
<trkpt lat="31.2296750" lon="35.2540500">
<ele>321.000031</ele>
<time>2010-01-01T01:05:54.000Z</time>
</trkpt>
<trkpt lat="31.2296920" lon="35.2540730">
<ele>321.000031</ele>
<time>2010-01-01T01:05:55.000Z</time>
</trkpt>
<trkpt lat="31.2298150" lon="35.2542100">
<ele>320.000000</ele>
<time>2010-01-01T01:06:02.000Z</time>
</trkpt>
<trkpt lat="31.2298580" lon="35.2542500">
<ele>320.000000</ele>
<time>2010-01-01T01:06:04.000Z</time>
</trkpt>
<trkpt lat="31.2299020" lon="35.2543070">
<ele>320.000000</ele>
<time>2010-01-01T01:06:07.000Z</time>
</trkpt>
<trkpt lat="31.2300350" lon="35.2544830">
<ele>319.000000</ele>
<time>2010-01-01T01:06:15.000Z</time>
</trkpt>
<trkpt lat="31.2301280" lon="35.2546330">
<ele>319.000000</ele>
<time>2010-01-01T01:06:21.000Z</time>
</trkpt>
<trkpt lat="31.2301480" lon="35.2546550">
<ele>319.000000</ele>
<time>2010-01-01T01:06:22.000Z</time>
</trkpt>
<trkpt lat="31.2301900" lon="35.2547150">
<ele>319.000000</ele>
<time>2010-01-01T01:06:25.000Z</time>
</trkpt>
<trkpt lat="31.2302330" lon="35.2547770">
<ele>318.000000</ele>
<time>2010-01-01T01:06:28.000Z</time>
</trkpt>
<trkpt lat="31.2303720" lon="35.2549280">
<ele>317.000000</ele>
<time>2010-01-01T01:06:35.000Z</time>
</trkpt>
<trkpt lat="31.2303980" lon="35.2549580">
<ele>317.000000</ele>
<time>2010-01-01T01:06:37.000Z</time>
</trkpt>
<trkpt lat="31.2304320" lon="35.2549920">
<ele>317.000000</ele>
<time>2010-01-01T01:06:38.000Z</time>
</trkpt>
<trkpt lat="31.2304850" lon="35.2550470">
<ele>316.000000</ele>
<time>2010-01-01T01:06:41.000Z</time>
</trkpt>
<trkpt lat="31.2305250" lon="35.2550670">
<ele>316.000000</ele>
<time>2010-01-01T01:06:43.000Z</time>
</trkpt>
<trkpt lat="31.2306350" lon="35.2551630">
<ele>315.000000</ele>
<time>2010-01-01T01:06:49.000Z</time>
</trkpt>
<trkpt lat="31.2307730" lon="35.2553080">
<ele>314.000000</ele>
<time>2010-01-01T01:06:56.000Z</time>
</trkpt>
<trkpt lat="31.2308450" lon="35.2553920">
<ele>312.999969</ele>
<time>2010-01-01T01:07:00.000Z</time>
</trkpt>
<trkpt lat="31.2310700" lon="35.2556150">
<ele>311.000000</ele>
<time>2010-01-01T01:07:12.000Z</time>
</trkpt>
<trkpt lat="31.2311520" lon="35.2556730">
<ele>311.000000</ele>
<time>2010-01-01T01:07:16.000Z</time>
</trkpt>
<trkpt lat="31.2312620" lon="35.2557750">
<ele>311.000000</ele>
<time>2010-01-01T01:07:21.000Z</time>
</trkpt>
<trkpt lat="31.2313830" lon="35.2558800">
<ele>310.000000</ele>
<time>2010-01-01T01:07:27.000Z</time>
</trkpt>
<trkpt lat="31.2315580" lon="35.2560080">
<ele>309.000000</ele>
<time>2010-01-01T01:07:36.000Z</time>
</trkpt>
<trkpt lat="31.2316130" lon="35.2560670">
<ele>309.000000</ele>
<time>2010-01-01T01:07:39.000Z</time>
</trkpt>
<trkpt lat="31.2316850" lon="35.2561430">
<ele>308.000000</ele>
<time>2010-01-01T01:07:42.000Z</time>
</trkpt>
<trkpt lat="31.2317820" lon="35.2562270">
<ele>308.000000</ele>
<time>2010-01-01T01:07:47.000Z</time>
</trkpt>
<trkpt lat="31.2320080" lon="35.2564320">
<ele>308.000000</ele>
<time>2010-01-01T01:07:59.000Z</time>
</trkpt>
<trkpt lat="31.2321580" lon="35.2565830">
<ele>308.000000</ele>
<time>2010-01-01T01:08:07.000Z</time>
</trkpt>
<trkpt lat="31.2322130" lon="35.2566330">
<ele>308.000000</ele>
<time>2010-01-01T01:08:09.000Z</time>
</trkpt>
<trkpt lat="31.2322980" lon="35.2567200">
<ele>307.000000</ele>
<time>2010-01-01T01:08:14.000Z</time>
</trkpt>
<trkpt lat="31.2323270" lon="35.2567520">
<ele>307.000000</ele>
<time>2010-01-01T01:08:16.000Z</time>
</trkpt>
<trkpt lat="31.2325070" lon="35.2568980">
<ele>307.000000</ele>
<time>2010-01-01T01:08:24.000Z</time>
</trkpt>
<trkpt lat="31.2325630" lon="35.2569700">
<ele>307.000000</ele>
<time>2010-01-01T01:08:28.000Z</time>
</trkpt>
<trkpt lat="31.2327500" lon="35.2571450">
<ele>307.000000</ele>
<time>2010-01-01T01:08:37.000Z</time>
</trkpt>
<trkpt lat="31.2328500" lon="35.2572470">
<ele>306.000000</ele>
<time>2010-01-01T01:08:43.000Z</time>
</trkpt>
<trkpt lat="31.2330730" lon="35.2574500">
<ele>305.000000</ele>
<time>2010-01-01T01:08:54.000Z</time>
</trkpt>
<trkpt lat="31.2332050" lon="35.2575850">
<ele>305.000000</ele>
<time>2010-01-01T01:09:01.000Z</time>
</trkpt>
<trkpt lat="31.2333350" lon="35.2576620">
<ele>305.000000</ele>
<time>2010-01-01T01:09:07.000Z</time>
</trkpt>
<trkpt lat="31.2337880" lon="35.2577030">
<ele>304.000000</ele>
<time>2010-01-01T01:09:25.000Z</time>
</trkpt>
<trkpt lat="31.2338850" lon="35.2576850">
<ele>304.000000</ele>
<time>2010-01-01T01:09:29.000Z</time>
</trkpt>
<trkpt lat="31.2339780" lon="35.2576380">
<ele>304.000000</ele>
<time>2010-01-01T01:09:33.000Z</time>
</trkpt>
<trkpt lat="31.2340050" lon="35.2576130">
<ele>304.000000</ele>
<time>2010-01-01T01:09:34.000Z</time>
</trkpt>
<trkpt lat="31.2341550" lon="35.2575280">
<ele>304.000000</ele>
<time>2010-01-01T01:09:41.000Z</time>
</trkpt>
<trkpt lat="31.2342250" lon="35.2574750">
<ele>305.000000</ele>
<time>2010-01-01T01:09:44.000Z</time>
</trkpt>
<trkpt lat="31.2342730" lon="35.2574670">
<ele>305.000000</ele>
<time>2010-01-01T01:09:46.000Z</time>
</trkpt>
<trkpt lat="31.2342880" lon="35.2574750">
<ele>305.000000</ele>
<time>2010-01-01T01:09:47.000Z</time>
</trkpt>
<trkpt lat="31.2342930" lon="35.2574930">
<ele>305.000000</ele>
<time>2010-01-01T01:09:48.000Z</time>
</trkpt>
<trkpt lat="31.2343170" lon="35.2576120">
<ele>305.000000</ele>
<time>2010-01-01T01:09:52.000Z</time>
</trkpt>
<trkpt lat="31.2343200" lon="35.2577900">
<ele>304.000000</ele>
<time>2010-01-01T01:09:58.000Z</time>
</trkpt>
<trkpt lat="31.2343620" lon="35.2579630">
<ele>304.000000</ele>
<time>2010-01-01T01:10:04.000Z</time>
</trkpt>
<trkpt lat="31.2344680" lon="35.2581030">
<ele>303.000000</ele>
<time>2010-01-01T01:10:10.000Z</time>
</trkpt>
<trkpt lat="31.2346150" lon="35.2582280">
<ele>303.000000</ele>
<time>2010-01-01T01:10:18.000Z</time>
</trkpt>
<trkpt lat="31.2346770" lon="35.2582870">
<ele>303.000000</ele>
<time>2010-01-01T01:10:21.000Z</time>
</trkpt>
<trkpt lat="31.2347270" lon="35.2583620">
<ele>302.000000</ele>
<time>2010-01-01T01:10:24.000Z</time>
</trkpt>
<trkpt lat="31.2347570" lon="35.2584520">
<ele>302.000000</ele>
<time>2010-01-01T01:10:27.000Z</time>
</trkpt>
<trkpt lat="31.2348380" lon="35.2589930">
<ele>300.000000</ele>
<time>2010-01-01T01:10:46.000Z</time>
</trkpt>
<trkpt lat="31.2349300" lon="35.2595300">
<ele>297.000000</ele>
<time>2010-01-01T01:11:05.000Z</time>
</trkpt>
<trkpt lat="31.2349870" lon="35.2597870">
<ele>295.000000</ele>
<time>2010-01-01T01:11:14.000Z</time>
</trkpt>
<trkpt lat="31.2350550" lon="35.2602270">
<ele>295.000000</ele>
<time>2010-01-01T01:11:29.000Z</time>
</trkpt>
<trkpt lat="31.2350700" lon="35.2602780">
<ele>295.000000</ele>
<time>2010-01-01T01:11:31.000Z</time>
</trkpt>
<trkpt lat="31.2351680" lon="35.2604750">
<ele>295.000000</ele>
<time>2010-01-01T01:11:39.000Z</time>
</trkpt>
<trkpt lat="31.2355050" lon="35.2609370">
<ele>294.000000</ele>
<time>2010-01-01T01:12:00.000Z</time>
</trkpt>
<trkpt lat="31.2356420" lon="35.2612400">
<ele>294.000000</ele>
<time>2010-01-01T01:12:12.000Z</time>
</trkpt>
<trkpt lat="31.2360100" lon="35.2625770">
<ele>292.000000</ele>
<time>2010-01-01T01:13:00.000Z</time>
</trkpt>
<trkpt lat="31.2361950" lon="35.2631030">
<ele>289.000000</ele>
<time>2010-01-01T01:13:19.000Z</time>
</trkpt>
<trkpt lat="31.2363730" lon="35.2634930">
<ele>288.000000</ele>
<time>2010-01-01T01:13:34.000Z</time>
</trkpt>
<trkpt lat="31.2364620" lon="35.2636880">
<ele>288.000000</ele>
<time>2010-01-01T01:13:42.000Z</time>
</trkpt>
<trkpt lat="31.2366550" lon="35.2640300">
<ele>288.000000</ele>
<time>2010-01-01T01:13:56.000Z</time>
</trkpt>
<trkpt lat="31.2367620" lon="35.2642570">
<ele>288.000000</ele>
<time>2010-01-01T01:14:05.000Z</time>
</trkpt>
<trkpt lat="31.2368470" lon="35.2645620">
<ele>288.000000</ele>
<time>2010-01-01T01:14:16.000Z</time>
</trkpt>
<trkpt lat="31.2369400" lon="35.2652230">
<ele>286.000000</ele>
<time>2010-01-01T01:14:39.000Z</time>
</trkpt>
<trkpt lat="31.2370430" lon="35.2655120">
<ele>283.000000</ele>
<time>2010-01-01T01:14:49.000Z</time>
</trkpt>
<trkpt lat="31.2371200" lon="35.2656650">
<ele>282.000000</ele>
<time>2010-01-01T01:14:55.000Z</time>
</trkpt>
<trkpt lat="31.2372020" lon="35.2657630">
<ele>281.000000</ele>
<time>2010-01-01T01:15:00.000Z</time>
</trkpt>
<trkpt lat="31.2372850" lon="35.2658600">
<ele>281.000000</ele>
<time>2010-01-01T01:15:05.000Z</time>
</trkpt>
<trkpt lat="31.2373420" lon="35.2659430">
<ele>281.000000</ele>
<time>2010-01-01T01:15:08.000Z</time>
</trkpt>
<trkpt lat="31.2374920" lon="35.2663830">
<ele>281.000000</ele>
<time>2010-01-01T01:15:25.000Z</time>
</trkpt>
<trkpt lat="31.2374870" lon="35.2664130">
<ele>281.000000</ele>
<time>2010-01-01T01:15:26.000Z</time>
</trkpt>
<trkpt lat="31.2375170" lon="35.2665330">
<ele>281.000000</ele>
<time>2010-01-01T01:15:30.000Z</time>
</trkpt>
<trkpt lat="31.2375000" lon="35.2670530">
<ele>281.000000</ele>
<time>2010-01-01T01:15:48.000Z</time>
</trkpt>
<trkpt lat="31.2375450" lon="35.2675900">
<ele>280.000000</ele>
<time>2010-01-01T01:16:06.000Z</time>
</trkpt>
<trkpt lat="31.2375620" lon="35.2676980">
<ele>280.000000</ele>
<time>2010-01-01T01:16:10.000Z</time>
</trkpt>
<trkpt lat="31.2375470" lon="35.2678380">
<ele>280.000000</ele>
<time>2010-01-01T01:16:15.000Z</time>
</trkpt>
<trkpt lat="31.2374230" lon="35.2680330">
<ele>279.000000</ele>
<time>2010-01-01T01:16:23.000Z</time>
</trkpt>
<trkpt lat="31.2373350" lon="35.2681520">
<ele>279.000000</ele>
<time>2010-01-01T01:16:28.000Z</time>
</trkpt>
<trkpt lat="31.2371500" lon="35.2684180">
<ele>279.000000</ele>
<time>2010-01-01T01:16:40.000Z</time>
</trkpt>
<trkpt lat="31.2370530" lon="35.2685980">
<ele>280.000000</ele>
<time>2010-01-01T01:16:48.000Z</time>
</trkpt>
<trkpt lat="31.2370280" lon="35.2686350">
<ele>280.000000</ele>
<time>2010-01-01T01:16:49.000Z</time>
</trkpt>
<trkpt lat="31.2369000" lon="35.2689030">
<ele>280.000000</ele>
<time>2010-01-01T01:17:00.000Z</time>
</trkpt>
<trkpt lat="31.2367600" lon="35.2691630">
<ele>279.000000</ele>
<time>2010-01-01T01:17:10.000Z</time>
</trkpt>
<trkpt lat="31.2366600" lon="35.2693250">
<ele>279.000000</ele>
<time>2010-01-01T01:17:17.000Z</time>
</trkpt>
<trkpt lat="31.2366200" lon="35.2693850">
<ele>279.000000</ele>
<time>2010-01-01T01:17:20.000Z</time>
</trkpt>
<trkpt lat="31.2364030" lon="35.2696950">
<ele>278.000000</ele>
<time>2010-01-01T01:17:33.000Z</time>
</trkpt>
<trkpt lat="31.2363350" lon="35.2697800">
<ele>278.000000</ele>
<time>2010-01-01T01:17:37.000Z</time>
</trkpt>
<trkpt lat="31.2361370" lon="35.2700850">
<ele>278.000000</ele>
<time>2010-01-01T01:17:50.000Z</time>
</trkpt>
<trkpt lat="31.2360450" lon="35.2702150">
<ele>277.000000</ele>
<time>2010-01-01T01:17:56.000Z</time>
</trkpt>
<trkpt lat="31.2360080" lon="35.2702470">
<ele>277.000000</ele>
<time>2010-01-01T01:17:58.000Z</time>
</trkpt>
<trkpt lat="31.2358630" lon="35.2703200">
<ele>276.000000</ele>
<time>2010-01-01T01:18:04.000Z</time>
</trkpt>
<trkpt lat="31.2357920" lon="35.2704000">
<ele>275.000000</ele>
<time>2010-01-01T01:18:08.000Z</time>
</trkpt>
<trkpt lat="31.2357270" lon="35.2705000">
<ele>275.000000</ele>
<time>2010-01-01T01:18:13.000Z</time>
</trkpt>
<trkpt lat="31.2356400" lon="35.2705670">
<ele>274.000000</ele>
<time>2010-01-01T01:18:17.000Z</time>
</trkpt>
<trkpt lat="31.2355720" lon="35.2706300">
<ele>274.000000</ele>
<time>2010-01-01T01:18:20.000Z</time>
</trkpt>
<trkpt lat="31.2355500" lon="35.2706520">
<ele>274.000000</ele>
<time>2010-01-01T01:18:21.000Z</time>
</trkpt>
<trkpt lat="31.2353650" lon="35.2707950">
<ele>274.000000</ele>
<time>2010-01-01T01:18:30.000Z</time>
</trkpt>
<trkpt lat="31.2352880" lon="35.2708430">
<ele>275.000000</ele>
<time>2010-01-01T01:18:34.000Z</time>
</trkpt>
<trkpt lat="31.2352070" lon="35.2709800">
<ele>275.000000</ele>
<time>2010-01-01T01:18:39.000Z</time>
</trkpt>
<trkpt lat="31.2349450" lon="35.2714770">
<ele>275.000000</ele>
<time>2010-01-01T01:18:59.000Z</time>
</trkpt>
<trkpt lat="31.2349050" lon="35.2716280">
<ele>276.000000</ele>
<time>2010-01-01T01:19:05.000Z</time>
</trkpt>
<trkpt lat="31.2349120" lon="35.2718980">
<ele>278.000000</ele>
<time>2010-01-01T01:19:14.000Z</time>
</trkpt>
<trkpt lat="31.2349480" lon="35.2720630">
<ele>279.000000</ele>
<time>2010-01-01T01:19:20.000Z</time>
</trkpt>
<trkpt lat="31.2350000" lon="35.2724470">
<ele>282.000000</ele>
<time>2010-01-01T01:19:33.000Z</time>
</trkpt>
<trkpt lat="31.2350680" lon="35.2727370">
<ele>284.000000</ele>
<time>2010-01-01T01:19:44.000Z</time>
</trkpt>
<trkpt lat="31.2350630" lon="35.2727620">
<ele>284.000000</ele>
<time>2010-01-01T01:19:44.000Z</time>
</trkpt>
<trkpt lat="31.2351100" lon="35.2728880">
<ele>285.000000</ele>
<time>2010-01-01T01:19:49.000Z</time>
</trkpt>
<trkpt lat="31.2352030" lon="35.2732200">
<ele>285.000000</ele>
<time>2010-01-01T01:20:01.000Z</time>
</trkpt>
<trkpt lat="31.2352080" lon="35.2733950">
<ele>285.000000</ele>
<time>2010-01-01T01:20:07.000Z</time>
</trkpt>
<trkpt lat="31.2352270" lon="35.2734020">
<ele>284.000000</ele>
<time>2010-01-01T01:20:08.000Z</time>
</trkpt>
<trkpt lat="31.2352030" lon="35.2737220">
<ele>284.000000</ele>
<time>2010-01-01T01:20:19.000Z</time>
</trkpt>
<trkpt lat="31.2351670" lon="35.2739320">
<ele>284.000000</ele>
<time>2010-01-01T01:20:26.000Z</time>
</trkpt>
<trkpt lat="31.2351350" lon="35.2740680">
<ele>284.000000</ele>
<time>2010-01-01T01:20:31.000Z</time>
</trkpt>
<trkpt lat="31.2350200" lon="35.2744400">
<ele>282.000000</ele>
<time>2010-01-01T01:20:45.000Z</time>
</trkpt>
<trkpt lat="31.2349480" lon="35.2745930">
<ele>281.000000</ele>
<time>2010-01-01T01:20:51.000Z</time>
</trkpt>
<trkpt lat="31.2347880" lon="35.2748650">
<ele>280.000000</ele>
<time>2010-01-01T01:21:02.000Z</time>
</trkpt>
<trkpt lat="31.2347380" lon="35.2749330">
<ele>279.000000</ele>
<time>2010-01-01T01:21:05.000Z</time>
</trkpt>
<trkpt lat="31.2346230" lon="35.2750020">
<ele>279.000000</ele>
<time>2010-01-01T01:21:10.000Z</time>
</trkpt>
<trkpt lat="31.2344550" lon="35.2752650">
<ele>277.000000</ele>
<time>2010-01-01T01:21:21.000Z</time>
</trkpt>
<trkpt lat="31.2343470" lon="35.2753650">
<ele>276.000000</ele>
<time>2010-01-01T01:21:27.000Z</time>
</trkpt>
<trkpt lat="31.2342450" lon="35.2754400">
<ele>275.000000</ele>
<time>2010-01-01T01:21:32.000Z</time>
</trkpt>
<trkpt lat="31.2339370" lon="35.2757220">
<ele>272.000000</ele>
<time>2010-01-01T01:21:47.000Z</time>
</trkpt>
<trkpt lat="31.2339000" lon="35.2757620">
<ele>272.000000</ele>
<time>2010-01-01T01:21:49.000Z</time>
</trkpt>
<trkpt lat="31.2338300" lon="35.2758380">
<ele>271.000000</ele>
<time>2010-01-01T01:21:53.000Z</time>
</trkpt>
<trkpt lat="31.2337100" lon="35.2760870">
<ele>270.000000</ele>
<time>2010-01-01T01:22:03.000Z</time>
</trkpt>
<trkpt lat="31.2336800" lon="35.2761270">
<ele>269.000000</ele>
<time>2010-01-01T01:22:05.000Z</time>
</trkpt>
<trkpt lat="31.2336030" lon="35.2761930">
<ele>269.000000</ele>
<time>2010-01-01T01:22:09.000Z</time>
</trkpt>
<trkpt lat="31.2334570" lon="35.2763070">
<ele>270.000000</ele>
<time>2010-01-01T01:22:16.000Z</time>
</trkpt>
<trkpt lat="31.2332920" lon="35.2765020">
<ele>270.000000</ele>
<time>2010-01-01T01:22:25.000Z</time>
</trkpt>
<trkpt lat="31.2332300" lon="35.2765720">
<ele>271.000000</ele>
<time>2010-01-01T01:22:28.000Z</time>
</trkpt>
<trkpt lat="31.2331980" lon="35.2765920">
<ele>271.000000</ele>
<time>2010-01-01T01:22:30.000Z</time>
</trkpt>
<trkpt lat="31.2330280" lon="35.2767530">
<ele>271.000000</ele>
<time>2010-01-01T01:22:39.000Z</time>
</trkpt>
<trkpt lat="31.2330030" lon="35.2767780">
<ele>271.000000</ele>
<time>2010-01-01T01:22:40.000Z</time>
</trkpt>
<trkpt lat="31.2327730" lon="35.2770750">
<ele>269.000000</ele>
<time>2010-01-01T01:22:54.000Z</time>
</trkpt>
<trkpt lat="31.2326180" lon="35.2773070">
<ele>267.000000</ele>
<time>2010-01-01T01:23:04.000Z</time>
</trkpt>
<trkpt lat="31.2325570" lon="35.2774320">
<ele>267.000000</ele>
<time>2010-01-01T01:23:09.000Z</time>
</trkpt>
<trkpt lat="31.2324970" lon="35.2775780">
<ele>266.000000</ele>
<time>2010-01-01T01:23:14.000Z</time>
</trkpt>
<trkpt lat="31.2322930" lon="35.2782670">
<ele>260.000000</ele>
<time>2010-01-01T01:23:39.000Z</time>
</trkpt>
<trkpt lat="31.2321870" lon="35.2784300">
<ele>259.000000</ele>
<time>2010-01-01T01:23:46.000Z</time>
</trkpt>
<trkpt lat="31.2320070" lon="35.2786580">
<ele>258.000000</ele>
<time>2010-01-01T01:23:57.000Z</time>
</trkpt>
<trkpt lat="31.2319500" lon="35.2787280">
<ele>257.000000</ele>
<time>2010-01-01T01:24:00.000Z</time>
</trkpt>
<trkpt lat="31.2318350" lon="35.2788570">
<ele>256.000000</ele>
<time>2010-01-01T01:24:07.000Z</time>
</trkpt>
<trkpt lat="31.2317720" lon="35.2789120">
<ele>255.000000</ele>
<time>2010-01-01T01:24:10.000Z</time>
</trkpt>
<trkpt lat="31.2315380" lon="35.2791620">
<ele>250.999985</ele>
<time>2010-01-01T01:24:22.000Z</time>
</trkpt>
<trkpt lat="31.2313480" lon="35.2793150">
<ele>249.000000</ele>
<time>2010-01-01T01:24:32.000Z</time>
</trkpt>
<trkpt lat="31.2312720" lon="35.2793520">
<ele>249.000000</ele>
<time>2010-01-01T01:24:35.000Z</time>
</trkpt>
<trkpt lat="31.2311380" lon="35.2793950">
<ele>248.000000</ele>
<time>2010-01-01T01:24:40.000Z</time>
</trkpt>
<trkpt lat="31.2310350" lon="35.2793920">
<ele>248.000000</ele>
<time>2010-01-01T01:24:45.000Z</time>
</trkpt>
<trkpt lat="31.2308280" lon="35.2793670">
<ele>249.000000</ele>
<time>2010-01-01T01:24:53.000Z</time>
</trkpt>
<trkpt lat="31.2305780" lon="35.2792800">
<ele>250.000000</ele>
<time>2010-01-01T01:25:03.000Z</time>
</trkpt>
<trkpt lat="31.2304480" lon="35.2793450">
<ele>247.000000</ele>
<time>2010-01-01T01:25:09.000Z</time>
</trkpt>
<trkpt lat="31.2304100" lon="35.2793880">
<ele>246.000000</ele>
<time>2010-01-01T01:25:11.000Z</time>
</trkpt>
<trkpt lat="31.2303650" lon="35.2794900">
<ele>245.000000</ele>
<time>2010-01-01T01:25:15.000Z</time>
</trkpt>
<trkpt lat="31.2302900" lon="35.2797500">
<ele>242.000000</ele>
<time>2010-01-01T01:25:24.000Z</time>
</trkpt>
<trkpt lat="31.2302750" lon="35.2797930">
<ele>242.000000</ele>
<time>2010-01-01T01:25:26.000Z</time>
</trkpt>
<trkpt lat="31.2302700" lon="35.2801470">
<ele>239.000000</ele>
<time>2010-01-01T01:25:38.000Z</time>
</trkpt>
<trkpt lat="31.2302420" lon="35.2802170">
<ele>238.000000</ele>
<time>2010-01-01T01:25:41.000Z</time>
</trkpt>
<trkpt lat="31.2301630" lon="35.2802870">
<ele>237.000015</ele>
<time>2010-01-01T01:25:45.000Z</time>
</trkpt>
<trkpt lat="31.2299670" lon="35.2803650">
<ele>237.000015</ele>
<time>2010-01-01T01:25:53.000Z</time>
</trkpt>
<trkpt lat="31.2296680" lon="35.2805370">
<ele>237.000015</ele>
<time>2010-01-01T01:26:06.000Z</time>
</trkpt>
<trkpt lat="31.2295650" lon="35.2805380">
<ele>237.000015</ele>
<time>2010-01-01T01:26:10.000Z</time>
</trkpt>
<trkpt lat="31.2294050" lon="35.2804980">
<ele>238.000000</ele>
<time>2010-01-01T01:26:17.000Z</time>
</trkpt>
<trkpt lat="31.2293350" lon="35.2805180">
<ele>239.000000</ele>
<time>2010-01-01T01:26:20.000Z</time>
</trkpt>
<trkpt lat="31.2292950" lon="35.2805900">
<ele>240.000000</ele>
<time>2010-01-01T01:26:23.000Z</time>
</trkpt>
<trkpt lat="31.2292800" lon="35.2808530">
<ele>239.000000</ele>
<time>2010-01-01T01:26:32.000Z</time>
</trkpt>
<trkpt lat="31.2292150" lon="35.2810520">
<ele>238.000000</ele>
<time>2010-01-01T01:26:39.000Z</time>
</trkpt>
<trkpt lat="31.2291380" lon="35.2811220">
<ele>239.000000</ele>
<time>2010-01-01T01:26:43.000Z</time>
</trkpt>
<trkpt lat="31.2289870" lon="35.2811570">
<ele>240.000000</ele>
<time>2010-01-01T01:26:49.000Z</time>
</trkpt>
<trkpt lat="31.2289600" lon="35.2811620">
<ele>240.000000</ele>
<time>2010-01-01T01:26:50.000Z</time>
</trkpt>
<trkpt lat="31.2289350" lon="35.2811770">
<ele>240.000000</ele>
<time>2010-01-01T01:26:51.000Z</time>
</trkpt>
<trkpt lat="31.2289070" lon="35.2812030">
<ele>240.000000</ele>
<time>2010-01-01T01:26:53.000Z</time>
</trkpt>
<trkpt lat="31.2288800" lon="35.2812450">
<ele>240.000000</ele>
<time>2010-01-01T01:26:55.000Z</time>
</trkpt>
<trkpt lat="31.2288620" lon="35.2813000">
<ele>240.000000</ele>
<time>2010-01-01T01:26:57.000Z</time>
</trkpt>
<trkpt lat="31.2288670" lon="35.2814770">
<ele>238.000000</ele>
<time>2010-01-01T01:27:03.000Z</time>
</trkpt>
<trkpt lat="31.2289020" lon="35.2816420">
<ele>237.000015</ele>
<time>2010-01-01T01:27:09.000Z</time>
</trkpt>
<trkpt lat="31.2289350" lon="35.2820850">
<ele>234.000000</ele>
<time>2010-01-01T01:27:24.000Z</time>
</trkpt>
<trkpt lat="31.2289900" lon="35.2821970">
<ele>232.000000</ele>
<time>2010-01-01T01:27:28.000Z</time>
</trkpt>
<trkpt lat="31.2290720" lon="35.2822700">
<ele>232.000000</ele>
<time>2010-01-01T01:27:32.000Z</time>
</trkpt>
<trkpt lat="31.2291600" lon="35.2823300">
<ele>231.000000</ele>
<time>2010-01-01T01:27:36.000Z</time>
</trkpt>
<trkpt lat="31.2292400" lon="35.2823970">
<ele>230.000000</ele>
<time>2010-01-01T01:27:40.000Z</time>
</trkpt>
<trkpt lat="31.2293170" lon="35.2825850">
<ele>230.000000</ele>
<time>2010-01-01T01:27:48.000Z</time>
</trkpt>
<trkpt lat="31.2293000" lon="35.2827430">
<ele>230.000000</ele>
<time>2010-01-01T01:27:53.000Z</time>
</trkpt>
<trkpt lat="31.2292430" lon="35.2829420">
<ele>231.000000</ele>
<time>2010-01-01T01:28:00.000Z</time>
</trkpt>
<trkpt lat="31.2292000" lon="35.2833600">
<ele>231.000000</ele>
<time>2010-01-01T01:28:15.000Z</time>
</trkpt>
<trkpt lat="31.2291330" lon="35.2836580">
<ele>232.000000</ele>
<time>2010-01-01T01:28:25.000Z</time>
</trkpt>
<trkpt lat="31.2291380" lon="35.2838550">
<ele>231.000000</ele>
<time>2010-01-01T01:28:32.000Z</time>
</trkpt>
<trkpt lat="31.2289530" lon="35.2850330">
<ele>225.999985</ele>
<time>2010-01-01T01:29:13.000Z</time>
</trkpt>
<trkpt lat="31.2288770" lon="35.2853050">
<ele>225.000000</ele>
<time>2010-01-01T01:29:23.000Z</time>
</trkpt>
<trkpt lat="31.2285620" lon="35.2860700">
<ele>224.000000</ele>
<time>2010-01-01T01:29:52.000Z</time>
</trkpt>
<trkpt lat="31.2285100" lon="35.2862550">
<ele>224.000000</ele>
<time>2010-01-01T01:29:58.000Z</time>
</trkpt>
<trkpt lat="31.2284830" lon="35.2864200">
<ele>225.000000</ele>
<time>2010-01-01T01:30:04.000Z</time>
</trkpt>
<trkpt lat="31.2283650" lon="35.2868170">
<ele>223.000000</ele>
<time>2010-01-01T01:30:19.000Z</time>
</trkpt>
<trkpt lat="31.2282830" lon="35.2872730">
<ele>218.000000</ele>
<time>2010-01-01T01:30:34.000Z</time>
</trkpt>
<trkpt lat="31.2282400" lon="35.2874320">
<ele>217.000000</ele>
<time>2010-01-01T01:30:40.000Z</time>
</trkpt>
<trkpt lat="31.2282220" lon="35.2874770">
<ele>217.000000</ele>
<time>2010-01-01T01:30:42.000Z</time>
</trkpt>
<trkpt lat="31.2281970" lon="35.2875130">
<ele>217.000000</ele>
<time>2010-01-01T01:30:43.000Z</time>
</trkpt>
<trkpt lat="31.2280850" lon="35.2875920">
<ele>218.000000</ele>
<time>2010-01-01T01:30:49.000Z</time>
</trkpt>
<trkpt lat="31.2280480" lon="35.2876250">
<ele>219.000015</ele>
<time>2010-01-01T01:30:51.000Z</time>
</trkpt>
<trkpt lat="31.2279920" lon="35.2877150">
<ele>221.000000</ele>
<time>2010-01-01T01:30:54.000Z</time>
</trkpt>
<trkpt lat="31.2279380" lon="35.2880720">
<ele>222.000000</ele>
<time>2010-01-01T01:31:07.000Z</time>
</trkpt>
<trkpt lat="31.2278650" lon="35.2882530">
<ele>221.000000</ele>
<time>2010-01-01T01:31:14.000Z</time>
</trkpt>
<trkpt lat="31.2277420" lon="35.2886300">
<ele>217.000000</ele>
<time>2010-01-01T01:31:27.000Z</time>
</trkpt>
<trkpt lat="31.2277050" lon="35.2887230">
<ele>216.000000</ele>
<time>2010-01-01T01:31:31.000Z</time>
</trkpt>
<trkpt lat="31.2276000" lon="35.2889150">
<ele>214.000000</ele>
<time>2010-01-01T01:31:39.000Z</time>
</trkpt>
<trkpt lat="31.2273720" lon="35.2894550">
<ele>217.000000</ele>
<time>2010-01-01T01:31:59.000Z</time>
</trkpt>
<trkpt lat="31.2273330" lon="35.2895370">
<ele>217.000000</ele>
<time>2010-01-01T01:32:03.000Z</time>
</trkpt>
<trkpt lat="31.2273020" lon="35.2896350">
<ele>218.000000</ele>
<time>2010-01-01T01:32:06.000Z</time>
</trkpt>
<trkpt lat="31.2272100" lon="35.2902100">
<ele>215.000000</ele>
<time>2010-01-01T01:32:26.000Z</time>
</trkpt>
<trkpt lat="31.2270730" lon="35.2904880">
<ele>214.000000</ele>
<time>2010-01-01T01:32:37.000Z</time>
</trkpt>
<trkpt lat="31.2270370" lon="35.2905500">
<ele>213.000000</ele>
<time>2010-01-01T01:32:40.000Z</time>
</trkpt>
<trkpt lat="31.2269930" lon="35.2906070">
<ele>212.000015</ele>
<time>2010-01-01T01:32:42.000Z</time>
</trkpt>
<trkpt lat="31.2268970" lon="35.2907020">
<ele>211.000000</ele>
<time>2010-01-01T01:32:47.000Z</time>
</trkpt>
<trkpt lat="31.2267950" lon="35.2908020">
<ele>210.000000</ele>
<time>2010-01-01T01:32:53.000Z</time>
</trkpt>
<trkpt lat="31.2266620" lon="35.2909680">
<ele>209.000000</ele>
<time>2010-01-01T01:33:00.000Z</time>
</trkpt>
<trkpt lat="31.2265000" lon="35.2912850">
<ele>207.999985</ele>
<time>2010-01-01T01:33:13.000Z</time>
</trkpt>
<trkpt lat="31.2264330" lon="35.2913980">
<ele>207.000000</ele>
<time>2010-01-01T01:33:18.000Z</time>
</trkpt>
<trkpt lat="31.2263980" lon="35.2914500">
<ele>207.000000</ele>
<time>2010-01-01T01:33:20.000Z</time>
</trkpt>
<trkpt lat="31.2263200" lon="35.2916050">
<ele>205.000015</ele>
<time>2010-01-01T01:33:26.000Z</time>
</trkpt>
<trkpt lat="31.2262380" lon="35.2917630">
<ele>204.000000</ele>
<time>2010-01-01T01:33:33.000Z</time>
</trkpt>
<trkpt lat="31.2260120" lon="35.2920350">
<ele>203.000000</ele>
<time>2010-01-01T01:33:46.000Z</time>
</trkpt>
<trkpt lat="31.2259750" lon="35.2920830">
<ele>202.000000</ele>
<time>2010-01-01T01:33:48.000Z</time>
</trkpt>
<trkpt lat="31.2258500" lon="35.2923270">
<ele>200.999985</ele>
<time>2010-01-01T01:33:58.000Z</time>
</trkpt>
<trkpt lat="31.2257830" lon="35.2925320">
<ele>200.000000</ele>
<time>2010-01-01T01:34:05.000Z</time>
</trkpt>
<trkpt lat="31.2257650" lon="35.2926700">
<ele>200.000000</ele>
<time>2010-01-01T01:34:10.000Z</time>
</trkpt>
<trkpt lat="31.2257720" lon="35.2929780">
<ele>200.000000</ele>
<time>2010-01-01T01:34:20.000Z</time>
</trkpt>
<trkpt lat="31.2257500" lon="35.2931550">
<ele>199.000000</ele>
<time>2010-01-01T01:34:26.000Z</time>
</trkpt>
<trkpt lat="31.2257330" lon="35.2932070">
<ele>199.000000</ele>
<time>2010-01-01T01:34:28.000Z</time>
</trkpt>
<trkpt lat="31.2256570" lon="35.2933350">
<ele>199.000000</ele>
<time>2010-01-01T01:34:34.000Z</time>
</trkpt>
<trkpt lat="31.2255580" lon="35.2934620">
<ele>200.000000</ele>
<time>2010-01-01T01:34:40.000Z</time>
</trkpt>
<trkpt lat="31.2254720" lon="35.2936880">
<ele>200.000000</ele>
<time>2010-01-01T01:34:48.000Z</time>
</trkpt>
<trkpt lat="31.2254420" lon="35.2939480">
<ele>200.000000</ele>
<time>2010-01-01T01:34:57.000Z</time>
</trkpt>
<trkpt lat="31.2254570" lon="35.2941780">
<ele>199.000000</ele>
<time>2010-01-01T01:35:05.000Z</time>
</trkpt>
<trkpt lat="31.2254450" lon="35.2944320">
<ele>197.000000</ele>
<time>2010-01-01T01:35:14.000Z</time>
</trkpt>
<trkpt lat="31.2254200" lon="35.2944720">
<ele>197.000000</ele>
<time>2010-01-01T01:35:15.000Z</time>
</trkpt>
<trkpt lat="31.2253550" lon="35.2945180">
<ele>197.000000</ele>
<time>2010-01-01T01:35:18.000Z</time>
</trkpt>
<trkpt lat="31.2252200" lon="35.2946550">
<ele>196.000000</ele>
<time>2010-01-01T01:35:26.000Z</time>
</trkpt>
<trkpt lat="31.2251420" lon="35.2947470">
<ele>195.000000</ele>
<time>2010-01-01T01:35:30.000Z</time>
</trkpt>
<trkpt lat="31.2250450" lon="35.2948320">
<ele>196.000000</ele>
<time>2010-01-01T01:35:35.000Z</time>
</trkpt>
<trkpt lat="31.2249970" lon="35.2948750">
<ele>196.000000</ele>
<time>2010-01-01T01:35:37.000Z</time>
</trkpt>
<trkpt lat="31.2249170" lon="35.2949670">
<ele>196.000000</ele>
<time>2010-01-01T01:35:42.000Z</time>
</trkpt>
<trkpt lat="31.2248770" lon="35.2950220">
<ele>195.000000</ele>
<time>2010-01-01T01:35:44.000Z</time>
</trkpt>
<trkpt lat="31.2246980" lon="35.2952070">
<ele>193.000000</ele>
<time>2010-01-01T01:35:54.000Z</time>
</trkpt>
<trkpt lat="31.2246180" lon="35.2952520">
<ele>192.000000</ele>
<time>2010-01-01T01:35:57.000Z</time>
</trkpt>
<trkpt lat="31.2244670" lon="35.2952420">
<ele>192.000000</ele>
<time>2010-01-01T01:36:03.000Z</time>
</trkpt>
<trkpt lat="31.2243450" lon="35.2952620">
<ele>192.000000</ele>
<time>2010-01-01T01:36:08.000Z</time>
</trkpt>
<trkpt lat="31.2239120" lon="35.2954200">
<ele>186.000000</ele>
<time>2010-01-01T01:36:26.000Z</time>
</trkpt>
<trkpt lat="31.2238320" lon="35.2954000">
<ele>187.000015</ele>
<time>2010-01-01T01:36:30.000Z</time>
</trkpt>
<trkpt lat="31.2237680" lon="35.2953550">
<ele>187.000015</ele>
<time>2010-01-01T01:36:33.000Z</time>
</trkpt>
<trkpt lat="31.2236330" lon="35.2952230">
<ele>190.000000</ele>
<time>2010-01-01T01:36:40.000Z</time>
</trkpt>
<trkpt lat="31.2235930" lon="35.2951030">
<ele>192.000000</ele>
<time>2010-01-01T01:36:44.000Z</time>
</trkpt>
<trkpt lat="31.2235850" lon="35.2950580">
<ele>192.000000</ele>
<time>2010-01-01T01:36:46.000Z</time>
</trkpt>
<trkpt lat="31.2236030" lon="35.2949480">
<ele>195.000000</ele>
<time>2010-01-01T01:36:50.000Z</time>
</trkpt>
<trkpt lat="31.2236000" lon="35.2948600">
<ele>197.000000</ele>
<time>2010-01-01T01:36:53.000Z</time>
</trkpt>
<trkpt lat="31.2235770" lon="35.2948300">
<ele>198.000000</ele>
<time>2010-01-01T01:36:54.000Z</time>
</trkpt>
<trkpt lat="31.2233230" lon="35.2948950">
<ele>195.000000</ele>
<time>2010-01-01T01:37:04.000Z</time>
</trkpt>
<trkpt lat="31.2232670" lon="35.2948820">
<ele>195.000000</ele>
<time>2010-01-01T01:37:07.000Z</time>
</trkpt>
<trkpt lat="31.2232400" lon="35.2948670">
<ele>195.000000</ele>
<time>2010-01-01T01:37:08.000Z</time>
</trkpt>
<trkpt lat="31.2232000" lon="35.2948180">
<ele>195.000000</ele>
<time>2010-01-01T01:37:10.000Z</time>
</trkpt>
<trkpt lat="31.2231350" lon="35.2947050">
<ele>196.000000</ele>
<time>2010-01-01T01:37:15.000Z</time>
</trkpt>
<trkpt lat="31.2231150" lon="35.2946800">
<ele>196.000000</ele>
<time>2010-01-01T01:37:16.000Z</time>
</trkpt>
<trkpt lat="31.2230770" lon="35.2946280">
<ele>196.000000</ele>
<time>2010-01-01T01:37:18.000Z</time>
</trkpt>
<trkpt lat="31.2229950" lon="35.2945770">
<ele>196.000000</ele>
<time>2010-01-01T01:37:22.000Z</time>
</trkpt>
<trkpt lat="31.2229220" lon="35.2945480">
<ele>196.000000</ele>
<time>2010-01-01T01:37:25.000Z</time>
</trkpt>
<trkpt lat="31.2227700" lon="35.2945750">
<ele>196.000000</ele>
<time>2010-01-01T01:37:31.000Z</time>
</trkpt>
<trkpt lat="31.2227430" lon="35.2945950">
<ele>195.000000</ele>
<time>2010-01-01T01:37:33.000Z</time>
</trkpt>
<trkpt lat="31.2227170" lon="35.2946250">
<ele>195.000000</ele>
<time>2010-01-01T01:37:34.000Z</time>
</trkpt>
<trkpt lat="31.2225820" lon="35.2947380">
<ele>195.000000</ele>
<time>2010-01-01T01:37:41.000Z</time>
</trkpt>
<trkpt lat="31.2225520" lon="35.2947680">
<ele>195.000000</ele>
<time>2010-01-01T01:37:42.000Z</time>
</trkpt>
<trkpt lat="31.2225030" lon="35.2949020">
<ele>193.999985</ele>
<time>2010-01-01T01:37:47.000Z</time>
</trkpt>
<trkpt lat="31.2224530" lon="35.2952030">
<ele>190.000000</ele>
<time>2010-01-01T01:37:58.000Z</time>
</trkpt>
<trkpt lat="31.2223900" lon="35.2954320">
<ele>188.000000</ele>
<time>2010-01-01T01:38:06.000Z</time>
</trkpt>
<trkpt lat="31.2223780" lon="35.2955620">
<ele>187.000015</ele>
<time>2010-01-01T01:38:11.000Z</time>
</trkpt>
<trkpt lat="31.2224630" lon="35.2957950">
<ele>185.000000</ele>
<time>2010-01-01T01:38:19.000Z</time>
</trkpt>
<trkpt lat="31.2225130" lon="35.2962230">
<ele>185.000000</ele>
<time>2010-01-01T01:38:34.000Z</time>
</trkpt>
<trkpt lat="31.2224570" lon="35.2965170">
<ele>184.000000</ele>
<time>2010-01-01T01:38:44.000Z</time>
</trkpt>
<trkpt lat="31.2223530" lon="35.2968900">
<ele>182.000000</ele>
<time>2010-01-01T01:38:58.000Z</time>
</trkpt>
<trkpt lat="31.2223020" lon="35.2971050">
<ele>183.000000</ele>
<time>2010-01-01T01:39:05.000Z</time>
</trkpt>
<trkpt lat="31.2222630" lon="35.2974600">
<ele>187.000015</ele>
<time>2010-01-01T01:39:18.000Z</time>
</trkpt>
<trkpt lat="31.2221500" lon="35.2977520">
<ele>189.000000</ele>
<time>2010-01-01T01:39:29.000Z</time>
</trkpt>
<trkpt lat="31.2221300" lon="35.2978280">
<ele>188.000000</ele>
<time>2010-01-01T01:39:31.000Z</time>
</trkpt>
<trkpt lat="31.2221150" lon="35.2980870">
<ele>185.000000</ele>
<time>2010-01-01T01:39:40.000Z</time>
</trkpt>
<trkpt lat="31.2221230" lon="35.2982080">
<ele>184.000000</ele>
<time>2010-01-01T01:39:44.000Z</time>
</trkpt>
<trkpt lat="31.2221150" lon="35.2982530">
<ele>183.000000</ele>
<time>2010-01-01T01:39:46.000Z</time>
</trkpt>
<trkpt lat="31.2220900" lon="35.2982870">
<ele>183.000000</ele>
<time>2010-01-01T01:39:47.000Z</time>
</trkpt>
<trkpt lat="31.2218680" lon="35.2984230">
<ele>182.000000</ele>
<time>2010-01-01T01:39:57.000Z</time>
</trkpt>
<trkpt lat="31.2214930" lon="35.2984920">
<ele>175.999985</ele>
<time>2010-01-01T01:40:13.000Z</time>
</trkpt>
<trkpt lat="31.2212280" lon="35.2984780">
<ele>163.000000</ele>
<time>2010-01-01T01:40:23.000Z</time>
</trkpt>
<trkpt lat="31.2212370" lon="35.2984880">
<ele>164.000000</ele>
<time>2010-01-01T01:40:24.000Z</time>
</trkpt>
<trkpt lat="31.2212280" lon="35.2984970">
<ele>163.000000</ele>
<time>2010-01-01T01:40:24.000Z</time>
</trkpt>
<trkpt lat="31.2212330" lon="35.2985220">
<ele>164.000000</ele>
<time>2010-01-01T01:40:25.000Z</time>
</trkpt>
<trkpt lat="31.2212520" lon="35.2985300">
<ele>165.000000</ele>
<time>2010-01-01T01:40:26.000Z</time>
</trkpt>
<trkpt lat="31.2212550" lon="35.2985470">
<ele>166.000000</ele>
<time>2010-01-01T01:40:27.000Z</time>
</trkpt>
<trkpt lat="31.2212930" lon="35.2985820">
<ele>168.000000</ele>
<time>2010-01-01T01:40:28.000Z</time>
</trkpt>
<trkpt lat="31.2213570" lon="35.2985900">
<ele>172.000000</ele>
<time>2010-01-01T01:40:31.000Z</time>
</trkpt>
<trkpt lat="31.2214420" lon="35.2986270">
<ele>175.999985</ele>
<time>2010-01-01T01:40:35.000Z</time>
</trkpt>
<trkpt lat="31.2215030" lon="35.2986300">
<ele>177.000000</ele>
<time>2010-01-01T01:40:37.000Z</time>
</trkpt>
<trkpt lat="31.2216320" lon="35.2985900">
<ele>181.000000</ele>
<time>2010-01-01T01:40:42.000Z</time>
</trkpt>
<trkpt lat="31.2217780" lon="35.2985800">
<ele>182.000000</ele>
<time>2010-01-01T01:40:48.000Z</time>
</trkpt>
<trkpt lat="31.2218800" lon="35.2986450">
<ele>182.000000</ele>
<time>2010-01-01T01:40:53.000Z</time>
</trkpt>
<trkpt lat="31.2220050" lon="35.2987070">
<ele>181.000000</ele>
<time>2010-01-01T01:40:58.000Z</time>
</trkpt>
<trkpt lat="31.2220950" lon="35.2987680">
<ele>179.000000</ele>
<time>2010-01-01T01:41:03.000Z</time>
</trkpt>
<trkpt lat="31.2221230" lon="35.2988370">
<ele>178.000000</ele>
<time>2010-01-01T01:41:05.000Z</time>
</trkpt>
<trkpt lat="31.2221250" lon="35.2989920">
<ele>179.000000</ele>
<time>2010-01-01T01:41:10.000Z</time>
</trkpt>
<trkpt lat="31.2221080" lon="35.2992100">
<ele>181.000000</ele>
<time>2010-01-01T01:41:18.000Z</time>
</trkpt>
<trkpt lat="31.2220520" lon="35.2995550">
<ele>183.000000</ele>
<time>2010-01-01T01:41:30.000Z</time>
</trkpt>
<trkpt lat="31.2220520" lon="35.2997720">
<ele>181.000000</ele>
<time>2010-01-01T01:41:37.000Z</time>
</trkpt>
<trkpt lat="31.2220800" lon="35.3000200">
<ele>180.000015</ele>
<time>2010-01-01T01:41:46.000Z</time>
</trkpt>
<trkpt lat="31.2220830" lon="35.3003720">
<ele>177.000000</ele>
<time>2010-01-01T01:41:58.000Z</time>
</trkpt>
<trkpt lat="31.2220920" lon="35.3004470">
<ele>177.000000</ele>
<time>2010-01-01T01:42:01.000Z</time>
</trkpt>
<trkpt lat="31.2222800" lon="35.3009780">
<ele>175.999985</ele>
<time>2010-01-01T01:42:20.000Z</time>
</trkpt>
<trkpt lat="31.2223570" lon="35.3014300">
<ele>180.000015</ele>
<time>2010-01-01T01:42:36.000Z</time>
</trkpt>
<trkpt lat="31.2223980" lon="35.3015420">
<ele>181.000000</ele>
<time>2010-01-01T01:42:40.000Z</time>
</trkpt>
<trkpt lat="31.2224850" lon="35.3017030">
<ele>184.000000</ele>
<time>2010-01-01T01:42:47.000Z</time>
</trkpt>
<trkpt lat="31.2225720" lon="35.3017920">
<ele>185.000000</ele>
<time>2010-01-01T01:42:51.000Z</time>
</trkpt>
<trkpt lat="31.2229100" lon="35.3020280">
<ele>186.000000</ele>
<time>2010-01-01T01:43:07.000Z</time>
</trkpt>
<trkpt lat="31.2231330" lon="35.3023030">
<ele>185.000000</ele>
<time>2010-01-01T01:43:20.000Z</time>
</trkpt>
<trkpt lat="31.2232320" lon="35.3025070">
<ele>186.000000</ele>
<time>2010-01-01T01:43:28.000Z</time>
</trkpt>
<trkpt lat="31.2235520" lon="35.3029450">
<ele>181.000000</ele>
<time>2010-01-01T01:43:48.000Z</time>
</trkpt>
<trkpt lat="31.2235950" lon="35.3029980">
<ele>181.000000</ele>
<time>2010-01-01T01:43:50.000Z</time>
</trkpt>
<trkpt lat="31.2236480" lon="35.3030470">
<ele>181.000000</ele>
<time>2010-01-01T01:43:53.000Z</time>
</trkpt>
<trkpt lat="31.2237020" lon="35.3030970">
<ele>181.000000</ele>
<time>2010-01-01T01:43:56.000Z</time>
</trkpt>
<trkpt lat="31.2238430" lon="35.3032650">
<ele>180.000015</ele>
<time>2010-01-01T01:44:04.000Z</time>
</trkpt>
<trkpt lat="31.2239120" lon="35.3033830">
<ele>179.000000</ele>
<time>2010-01-01T01:44:09.000Z</time>
</trkpt>
<trkpt lat="31.2239600" lon="35.3035000">
<ele>177.000000</ele>
<time>2010-01-01T01:44:13.000Z</time>
</trkpt>
<trkpt lat="31.2240120" lon="35.3037320">
<ele>175.999985</ele>
<time>2010-01-01T01:44:21.000Z</time>
</trkpt>
<trkpt lat="31.2240430" lon="35.3040130">
<ele>175.999985</ele>
<time>2010-01-01T01:44:31.000Z</time>
</trkpt>
<trkpt lat="31.2240270" lon="35.3041770">
<ele>175.999985</ele>
<time>2010-01-01T01:44:37.000Z</time>
</trkpt>
<trkpt lat="31.2239580" lon="35.3043330">
<ele>175.000000</ele>
<time>2010-01-01T01:44:43.000Z</time>
</trkpt>
<trkpt lat="31.2239330" lon="35.3043820">
<ele>174.000000</ele>
<time>2010-01-01T01:44:45.000Z</time>
</trkpt>
<trkpt lat="31.2238370" lon="35.3046600">
<ele>175.000000</ele>
<time>2010-01-01T01:44:55.000Z</time>
</trkpt>
<trkpt lat="31.2234870" lon="35.3054980">
<ele>173.000015</ele>
<time>2010-01-01T01:45:27.000Z</time>
</trkpt>
<trkpt lat="31.2234470" lon="35.3055620">
<ele>172.000000</ele>
<time>2010-01-01T01:45:30.000Z</time>
</trkpt>
<trkpt lat="31.2233950" lon="35.3056250">
<ele>171.000000</ele>
<time>2010-01-01T01:45:33.000Z</time>
</trkpt>
<trkpt lat="31.2233570" lon="35.3056500">
<ele>171.000000</ele>
<time>2010-01-01T01:45:34.000Z</time>
</trkpt>
<trkpt lat="31.2232730" lon="35.3056750">
<ele>168.999985</ele>
<time>2010-01-01T01:45:38.000Z</time>
</trkpt>
<trkpt lat="31.2230780" lon="35.3056620">
<ele>166.000000</ele>
<time>2010-01-01T01:45:46.000Z</time>
</trkpt>
<trkpt lat="31.2229530" lon="35.3056650">
<ele>164.000000</ele>
<time>2010-01-01T01:45:51.000Z</time>
</trkpt>
<trkpt lat="31.2227620" lon="35.3056930">
<ele>161.000000</ele>
<time>2010-01-01T01:45:58.000Z</time>
</trkpt>
<trkpt lat="31.2226150" lon="35.3056870">
<ele>159.000000</ele>
<time>2010-01-01T01:46:04.000Z</time>
</trkpt>
<trkpt lat="31.2224080" lon="35.3057480">
<ele>155.000000</ele>
<time>2010-01-01T01:46:13.000Z</time>
</trkpt>
<trkpt lat="31.2223530" lon="35.3057750">
<ele>154.000000</ele>
<time>2010-01-01T01:46:15.000Z</time>
</trkpt>
<trkpt lat="31.2222150" lon="35.3058870">
<ele>151.000000</ele>
<time>2010-01-01T01:46:22.000Z</time>
</trkpt>
<trkpt lat="31.2221780" lon="35.3059530">
<ele>150.000000</ele>
<time>2010-01-01T01:46:25.000Z</time>
</trkpt>
<trkpt lat="31.2221220" lon="35.3060330">
<ele>148.000000</ele>
<time>2010-01-01T01:46:28.000Z</time>
</trkpt>
<trkpt lat="31.2220820" lon="35.3061150">
<ele>147.000000</ele>
<time>2010-01-01T01:46:31.000Z</time>
</trkpt>
<trkpt lat="31.2219820" lon="35.3063870">
<ele>144.000000</ele>
<time>2010-01-01T01:46:42.000Z</time>
</trkpt>
<trkpt lat="31.2218580" lon="35.3066680">
<ele>140.000000</ele>
<time>2010-01-01T01:46:52.000Z</time>
</trkpt>
<trkpt lat="31.2218430" lon="35.3067070">
<ele>140.000000</ele>
<time>2010-01-01T01:46:54.000Z</time>
</trkpt>
<trkpt lat="31.2217630" lon="35.3068370">
<ele>138.000000</ele>
<time>2010-01-01T01:46:59.000Z</time>
</trkpt>
<trkpt lat="31.2216320" lon="35.3070030">
<ele>135.000000</ele>
<time>2010-01-01T01:47:07.000Z</time>
</trkpt>
<trkpt lat="31.2215500" lon="35.3072680">
<ele>130.000000</ele>
<time>2010-01-01T01:47:17.000Z</time>
</trkpt>
<trkpt lat="31.2214930" lon="35.3073550">
<ele>128.000000</ele>
<time>2010-01-01T01:47:20.000Z</time>
</trkpt>
<trkpt lat="31.2214800" lon="35.3074070">
<ele>127.000000</ele>
<time>2010-01-01T01:47:22.000Z</time>
</trkpt>
<trkpt lat="31.2214100" lon="35.3074900">
<ele>126.000000</ele>
<time>2010-01-01T01:47:26.000Z</time>
</trkpt>
<trkpt lat="31.2213050" lon="35.3075820">
<ele>123.000000</ele>
<time>2010-01-01T01:47:32.000Z</time>
</trkpt>
<trkpt lat="31.2212370" lon="35.3076700">
<ele>121.000000</ele>
<time>2010-01-01T01:47:36.000Z</time>
</trkpt>
<trkpt lat="31.2212020" lon="35.3077370">
<ele>119.000000</ele>
<time>2010-01-01T01:47:38.000Z</time>
</trkpt>
<trkpt lat="31.2210100" lon="35.3082680">
<ele>111.000000</ele>
<time>2010-01-01T01:47:58.000Z</time>
</trkpt>
<trkpt lat="31.2209530" lon="35.3083620">
<ele>110.000000</ele>
<time>2010-01-01T01:48:02.000Z</time>
</trkpt>
<trkpt lat="31.2209270" lon="35.3083930">
<ele>110.000000</ele>
<time>2010-01-01T01:48:03.000Z</time>
</trkpt>
<trkpt lat="31.2208370" lon="35.3084630">
<ele>110.000000</ele>
<time>2010-01-01T01:48:08.000Z</time>
</trkpt>
<trkpt lat="31.2206720" lon="35.3085300">
<ele>109.000000</ele>
<time>2010-01-01T01:48:15.000Z</time>
</trkpt>
<trkpt lat="31.2206420" lon="35.3085620">
<ele>108.000000</ele>
<time>2010-01-01T01:48:16.000Z</time>
</trkpt>
<trkpt lat="31.2206200" lon="35.3087200">
<ele>108.000000</ele>
<time>2010-01-01T01:48:22.000Z</time>
</trkpt>
<trkpt lat="31.2205080" lon="35.3089280">
<ele>107.000000</ele>
<time>2010-01-01T01:48:30.000Z</time>
</trkpt>
<trkpt lat="31.2204770" lon="35.3091070">
<ele>107.000000</ele>
<time>2010-01-01T01:48:37.000Z</time>
</trkpt>
<trkpt lat="31.2205120" lon="35.3094980">
<ele>106.000008</ele>
<time>2010-01-01T01:48:50.000Z</time>
</trkpt>
<trkpt lat="31.2205150" lon="35.3095700">
<ele>106.000008</ele>
<time>2010-01-01T01:48:52.000Z</time>
</trkpt>
<trkpt lat="31.2204920" lon="35.3096980">
<ele>106.000008</ele>
<time>2010-01-01T01:48:57.000Z</time>
</trkpt>
<trkpt lat="31.2204500" lon="35.3101630">
<ele>106.000008</ele>
<time>2010-01-01T01:49:13.000Z</time>
</trkpt>
<trkpt lat="31.2204430" lon="35.3103950">
<ele>106.000008</ele>
<time>2010-01-01T01:49:21.000Z</time>
</trkpt>
<trkpt lat="31.2204080" lon="35.3105970">
<ele>106.000008</ele>
<time>2010-01-01T01:49:28.000Z</time>
</trkpt>
<trkpt lat="31.2203980" lon="35.3108620">
<ele>106.000008</ele>
<time>2010-01-01T01:49:37.000Z</time>
</trkpt>
<trkpt lat="31.2203630" lon="35.3111920">
<ele>105.000000</ele>
<time>2010-01-01T01:49:48.000Z</time>
</trkpt>
<trkpt lat="31.2204230" lon="35.3115920">
<ele>102.000000</ele>
<time>2010-01-01T01:50:02.000Z</time>
</trkpt>
<trkpt lat="31.2204280" lon="35.3117180">
<ele>102.000000</ele>
<time>2010-01-01T01:50:07.000Z</time>
</trkpt>
<trkpt lat="31.2203950" lon="35.3122420">
<ele>102.000000</ele>
<time>2010-01-01T01:50:25.000Z</time>
</trkpt>
<trkpt lat="31.2203930" lon="35.3125230">
<ele>103.000000</ele>
<time>2010-01-01T01:50:34.000Z</time>
</trkpt>
<trkpt lat="31.2204070" lon="35.3126870">
<ele>103.000000</ele>
<time>2010-01-01T01:50:40.000Z</time>
</trkpt>
<trkpt lat="31.2203980" lon="35.3129030">
<ele>102.000000</ele>
<time>2010-01-01T01:50:47.000Z</time>
</trkpt>
<trkpt lat="31.2204620" lon="35.3134200">
<ele>100.000000</ele>
<time>2010-01-01T01:51:05.000Z</time>
</trkpt>
<trkpt lat="31.2204430" lon="35.3136230">
<ele>98.000000</ele>
<time>2010-01-01T01:51:12.000Z</time>
</trkpt>
<trkpt lat="31.2203100" lon="35.3139000">
<ele>96.999992</ele>
<time>2010-01-01T01:51:23.000Z</time>
</trkpt>
<trkpt lat="31.2202950" lon="35.3139950">
<ele>96.999992</ele>
<time>2010-01-01T01:51:26.000Z</time>
</trkpt>
<trkpt lat="31.2203220" lon="35.3142400">
<ele>96.999992</ele>
<time>2010-01-01T01:51:35.000Z</time>
</trkpt>
<trkpt lat="31.2203847" lon="35.3143030">
<ele>96.999992</ele>
<time>2010-01-01T01:51:38.000Z</time>
</trkpt>
<trkpt lat="31.2204306" lon="35.3143727">
<ele>96.999992</ele>
<time>2010-01-01T01:51:41.000Z</time>
</trkpt>
<trkpt lat="31.2189307" lon="35.3168392">
<ele>94.000000</ele>
<time>2010-01-01T01:53:25.000Z</time>
</trkpt>
<trkpt lat="31.2182700" lon="35.3184700">
<ele>95.000000</ele>
<time>2010-01-01T01:54:27.000Z</time>
</trkpt>
<trkpt lat="31.2180865" lon="35.3190279">
<ele>95.000000</ele>
<time>2010-01-01T01:54:47.000Z</time>
</trkpt>
<trkpt lat="31.2181599" lon="35.3197145">
<ele>91.000000</ele>
<time>2010-01-01T01:55:11.000Z</time>
</trkpt>
<trkpt lat="31.2179397" lon="35.3206586">
<ele>93.000000</ele>
<time>2010-01-01T01:55:44.000Z</time>
</trkpt>
<trkpt lat="31.2173892" lon="35.3219890">
<ele>87.999992</ele>
<time>2010-01-01T01:56:35.000Z</time>
</trkpt>
<trkpt lat="31.2160679" lon="35.3229331">
<ele>87.999992</ele>
<time>2010-01-01T01:57:37.000Z</time>
</trkpt>
<trkpt lat="31.2154440" lon="35.3237056">
<ele>84.000000</ele>
<time>2010-01-01T01:58:13.000Z</time>
</trkpt>
<trkpt lat="31.2150036" lon="35.3248214">
<ele>84.000000</ele>
<time>2010-01-01T01:58:55.000Z</time>
</trkpt>
<trkpt lat="31.2139759" lon="35.3267955">
<ele>75.000000</ele>
<time>2010-01-01T02:00:14.000Z</time>
</trkpt>
<trkpt lat="31.2124344" lon="35.3284692">
<ele>62.000000</ele>
<time>2010-01-01T02:01:39.000Z</time>
</trkpt>
<trkpt lat="31.2112599" lon="35.3311300">
<ele>46.000000</ele>
<time>2010-01-01T02:03:21.000Z</time>
</trkpt>
<trkpt lat="31.2113333" lon="35.3317737">
<ele>42.000000</ele>
<time>2010-01-01T02:03:43.000Z</time>
</trkpt>
<trkpt lat="31.2115902" lon="35.3324604">
<ele>41.000000</ele>
<time>2010-01-01T02:04:09.000Z</time>
</trkpt>
<trkpt lat="31.2108561" lon="35.3352928">
<ele>40.000000</ele>
<time>2010-01-01T02:05:50.000Z</time>
</trkpt>
<trkpt lat="31.2105625" lon="35.3374385">
<ele>43.999996</ele>
<time>2010-01-01T02:07:05.000Z</time>
</trkpt>
<trkpt lat="31.2102688" lon="35.3402709">
<ele>33.000000</ele>
<time>2010-01-01T02:08:42.000Z</time>
</trkpt>
<trkpt lat="31.2098651" lon="35.3423738">
<ele>36.000000</ele>
<time>2010-01-01T02:09:56.000Z</time>
</trkpt>
<trkpt lat="31.2089475" lon="35.3452062">
<ele>32.000000</ele>
<time>2010-01-01T02:11:40.000Z</time>
</trkpt>
<trkpt lat="31.2080666" lon="35.3463649">
<ele>30.000000</ele>
<time>2010-01-01T02:12:33.000Z</time>
</trkpt>
<trkpt lat="31.2080666" lon="35.3485107">
<ele>16.000000</ele>
<time>2010-01-01T02:13:46.000Z</time>
</trkpt>
<trkpt lat="31.2077362" lon="35.3492403">
<ele>16.000000</ele>
<time>2010-01-01T02:14:15.000Z</time>
</trkpt>
<trkpt lat="31.2081583" lon="35.3505063">
<ele>-2.000000</ele>
<time>2010-01-01T02:15:01.000Z</time>
</trkpt>
<trkpt lat="31.2077637" lon="35.3491544">
<ele>16.000000</ele>
<time>2010-01-01T02:15:50.000Z</time>
</trkpt>
<trkpt lat="31.2080849" lon="35.3484570">
<ele>16.000000</ele>
<time>2010-01-01T02:16:17.000Z</time>
</trkpt>
<trkpt lat="31.2080207" lon="35.3463327">
<ele>29.000000</ele>
<time>2010-01-01T02:17:30.000Z</time>
</trkpt>
<trkpt lat="31.2090117" lon="35.3452384">
<ele>33.000000</ele>
<time>2010-01-01T02:18:25.000Z</time>
</trkpt>
<trkpt lat="31.2111681" lon="35.3444552">
<ele>25.999998</ele>
<time>2010-01-01T02:19:55.000Z</time>
</trkpt>
<trkpt lat="31.2130216" lon="35.3434038">
<ele>20.000000</ele>
<time>2010-01-01T02:21:17.000Z</time>
</trkpt>
<trkpt lat="31.2142879" lon="35.3435540">
<ele>24.000000</ele>
<time>2010-01-01T02:22:08.000Z</time>
</trkpt>
<trkpt lat="31.2151871" lon="35.3434896">
<ele>28.000000</ele>
<time>2010-01-01T02:22:44.000Z</time>
</trkpt>
<trkpt lat="31.2159762" lon="35.3434896">
<ele>32.000000</ele>
<time>2010-01-01T02:23:16.000Z</time>
</trkpt>
<trkpt lat="31.2173158" lon="35.3432750">
<ele>37.000000</ele>
<time>2010-01-01T02:24:10.000Z</time>
</trkpt>
<trkpt lat="31.2178847" lon="35.3428030">
<ele>35.000000</ele>
<time>2010-01-01T02:24:38.000Z</time>
</trkpt>
<trkpt lat="31.2184902" lon="35.3423309">
<ele>38.000000</ele>
<time>2010-01-01T02:25:07.000Z</time>
</trkpt>
<trkpt lat="31.2188756" lon="35.3420948">
<ele>39.000000</ele>
<time>2010-01-01T02:25:25.000Z</time>
</trkpt>
<trkpt lat="31.2202152" lon="35.3410649">
<ele>40.000000</ele>
<time>2010-01-01T02:26:29.000Z</time>
</trkpt>
<trkpt lat="31.2211877" lon="35.3403997">
<ele>40.000000</ele>
<time>2010-01-01T02:27:14.000Z</time>
</trkpt>
<trkpt lat="31.2221786" lon="35.3401422">
<ele>40.000000</ele>
<time>2010-01-01T02:27:55.000Z</time>
</trkpt>
<trkpt lat="31.2227291" lon="35.3398633">
<ele>38.000000</ele>
<time>2010-01-01T02:28:19.000Z</time>
</trkpt>
<trkpt lat="31.2238118" lon="35.3396487">
<ele>38.000000</ele>
<time>2010-01-01T02:29:02.000Z</time>
</trkpt>
<trkpt lat="31.2255182" lon="35.3394556">
<ele>43.999996</ele>
<time>2010-01-01T02:30:11.000Z</time>
</trkpt>
<trkpt lat="31.2259953" lon="35.3395199">
<ele>46.000000</ele>
<time>2010-01-01T02:30:30.000Z</time>
</trkpt>
<trkpt lat="31.2268761" lon="35.3392195">
<ele>45.000004</ele>
<time>2010-01-01T02:31:07.000Z</time>
</trkpt>
<trkpt lat="31.2273898" lon="35.3390264">
<ele>45.000004</ele>
<time>2010-01-01T02:31:29.000Z</time>
</trkpt>
<trkpt lat="31.2280320" lon="35.3387045">
<ele>46.000000</ele>
<time>2010-01-01T02:31:57.000Z</time>
</trkpt>
<trkpt lat="31.2287293" lon="35.3384041">
<ele>49.000000</ele>
<time>2010-01-01T02:32:26.000Z</time>
</trkpt>
<trkpt lat="31.2289495" lon="35.3384041">
<ele>48.000000</ele>
<time>2010-01-01T02:32:35.000Z</time>
</trkpt>
<trkpt lat="31.2290100" lon="35.3398870">
<ele>45.000004</ele>
<time>2010-01-01T02:33:26.000Z</time>
</trkpt>
<trkpt lat="31.2290270" lon="35.3400020">
<ele>45.000004</ele>
<time>2010-01-01T02:33:30.000Z</time>
</trkpt>
<trkpt lat="31.2291250" lon="35.3403500">
<ele>43.999996</ele>
<time>2010-01-01T02:33:43.000Z</time>
</trkpt>
<trkpt lat="31.2291550" lon="35.3405720">
<ele>43.999996</ele>
<time>2010-01-01T02:33:50.000Z</time>
</trkpt>
<trkpt lat="31.2291900" lon="35.3410780">
<ele>45.000004</ele>
<time>2010-01-01T02:34:08.000Z</time>
</trkpt>
<trkpt lat="31.2292800" lon="35.3414370">
<ele>46.000000</ele>
<time>2010-01-01T02:34:20.000Z</time>
</trkpt>
<trkpt lat="31.2294350" lon="35.3423700">
<ele>48.000000</ele>
<time>2010-01-01T02:34:53.000Z</time>
</trkpt>
<trkpt lat="31.2295270" lon="35.3426120">
<ele>47.000000</ele>
<time>2010-01-01T02:35:02.000Z</time>
</trkpt>
<trkpt lat="31.2295680" lon="35.3427020">
<ele>46.000000</ele>
<time>2010-01-01T02:35:06.000Z</time>
</trkpt>
<trkpt lat="31.2296150" lon="35.3427850">
<ele>45.000004</ele>
<time>2010-01-01T02:35:09.000Z</time>
</trkpt>
<trkpt lat="31.2296480" lon="35.3428170">
<ele>45.000004</ele>
<time>2010-01-01T02:35:11.000Z</time>
</trkpt>
<trkpt lat="31.2297720" lon="35.3430670">
<ele>43.000000</ele>
<time>2010-01-01T02:35:21.000Z</time>
</trkpt>
<trkpt lat="31.2298180" lon="35.3431480">
<ele>42.000000</ele>
<time>2010-01-01T02:35:24.000Z</time>
</trkpt>
<trkpt lat="31.2298670" lon="35.3432270">
<ele>42.000000</ele>
<time>2010-01-01T02:35:27.000Z</time>
</trkpt>
<trkpt lat="31.2300100" lon="35.3434170">
<ele>42.000000</ele>
<time>2010-01-01T02:35:36.000Z</time>
</trkpt>
<trkpt lat="31.2301470" lon="35.3436220">
<ele>42.000000</ele>
<time>2010-01-01T02:35:45.000Z</time>
</trkpt>
<trkpt lat="31.2301930" lon="35.3437120">
<ele>42.000000</ele>
<time>2010-01-01T02:35:48.000Z</time>
</trkpt>
<trkpt lat="31.2302670" lon="35.3439220">
<ele>41.000000</ele>
<time>2010-01-01T02:35:56.000Z</time>
</trkpt>
<trkpt lat="31.2303650" lon="35.3441370">
<ele>42.000000</ele>
<time>2010-01-01T02:36:04.000Z</time>
</trkpt>
<trkpt lat="31.2305680" lon="35.3444820">
<ele>41.000000</ele>
<time>2010-01-01T02:36:19.000Z</time>
</trkpt>
<trkpt lat="31.2307180" lon="35.3446850">
<ele>41.000000</ele>
<time>2010-01-01T02:36:28.000Z</time>
</trkpt>
<trkpt lat="31.2307550" lon="35.3447330">
<ele>41.000000</ele>
<time>2010-01-01T02:36:30.000Z</time>
</trkpt>
<trkpt lat="31.2308750" lon="35.3448700">
<ele>41.000000</ele>
<time>2010-01-01T02:36:37.000Z</time>
</trkpt>
<trkpt lat="31.2311350" lon="35.3451100">
<ele>38.000000</ele>
<time>2010-01-01T02:36:50.000Z</time>
</trkpt>
<trkpt lat="31.2311750" lon="35.3451530">
<ele>37.000000</ele>
<time>2010-01-01T02:36:52.000Z</time>
</trkpt>
<trkpt lat="31.2312500" lon="35.3452400">
<ele>37.000000</ele>
<time>2010-01-01T02:36:57.000Z</time>
</trkpt>
<trkpt lat="31.2313430" lon="35.3453720">
<ele>36.000000</ele>
<time>2010-01-01T02:37:02.000Z</time>
</trkpt>
<trkpt lat="31.2314750" lon="35.3454800">
<ele>36.000000</ele>
<time>2010-01-01T02:37:09.000Z</time>
</trkpt>
<trkpt lat="31.2315130" lon="35.3455580">
<ele>36.000000</ele>
<time>2010-01-01T02:37:12.000Z</time>
</trkpt>
<trkpt lat="31.2315050" lon="35.3456230">
<ele>37.000000</ele>
<time>2010-01-01T02:37:14.000Z</time>
</trkpt>
<trkpt lat="31.2314720" lon="35.3457170">
<ele>38.000000</ele>
<time>2010-01-01T02:37:18.000Z</time>
</trkpt>
<trkpt lat="31.2312700" lon="35.3458700">
<ele>40.000000</ele>
<time>2010-01-01T02:37:27.000Z</time>
</trkpt>
<trkpt lat="31.2311170" lon="35.3460580">
<ele>41.000000</ele>
<time>2010-01-01T02:37:36.000Z</time>
</trkpt>
<trkpt lat="31.2310780" lon="35.3461820">
<ele>42.000000</ele>
<time>2010-01-01T02:37:41.000Z</time>
</trkpt>
<trkpt lat="31.2310750" lon="35.3465050">
<ele>41.000000</ele>
<time>2010-01-01T02:37:52.000Z</time>
</trkpt>
<trkpt lat="31.2315366" lon="35.3465902">
<ele>42.000000</ele>
<time>2010-01-01T02:38:10.000Z</time>
</trkpt>
<trkpt lat="31.2311020" lon="35.3466000">
<ele>40.000000</ele>
<time>2010-01-01T02:38:28.000Z</time>
</trkpt>
<trkpt lat="31.2311250" lon="35.3461230">
<ele>42.000000</ele>
<time>2010-01-01T02:38:44.000Z</time>
</trkpt>
<trkpt lat="31.2312230" lon="35.3459720">
<ele>41.000000</ele>
<time>2010-01-01T02:38:51.000Z</time>
</trkpt>
<trkpt lat="31.2312900" lon="35.3459020">
<ele>40.000000</ele>
<time>2010-01-01T02:38:54.000Z</time>
</trkpt>
<trkpt lat="31.2313250" lon="35.3458650">
<ele>40.000000</ele>
<time>2010-01-01T02:38:56.000Z</time>
</trkpt>
<trkpt lat="31.2314600" lon="35.3457630">
<ele>39.000000</ele>
<time>2010-01-01T02:39:03.000Z</time>
</trkpt>
<trkpt lat="31.2315220" lon="35.3456970">
<ele>38.000000</ele>
<time>2010-01-01T02:39:06.000Z</time>
</trkpt>
<trkpt lat="31.2315470" lon="35.3456120">
<ele>37.000000</ele>
<time>2010-01-01T02:39:09.000Z</time>
</trkpt>
<trkpt lat="31.2315120" lon="35.3455130">
<ele>36.000000</ele>
<time>2010-01-01T02:39:13.000Z</time>
</trkpt>
<trkpt lat="31.2314620" lon="35.3454480">
<ele>36.000000</ele>
<time>2010-01-01T02:39:16.000Z</time>
</trkpt>
<trkpt lat="31.2313650" lon="35.3453720">
<ele>36.000000</ele>
<time>2010-01-01T02:39:20.000Z</time>
</trkpt>
<trkpt lat="31.2313480" lon="35.3453530">
<ele>36.000000</ele>
<time>2010-01-01T02:39:21.000Z</time>
</trkpt>
<trkpt lat="31.2313030" lon="35.3452770">
<ele>36.000000</ele>
<time>2010-01-01T02:39:25.000Z</time>
</trkpt>
<trkpt lat="31.2311720" lon="35.3451200">
<ele>38.000000</ele>
<time>2010-01-01T02:39:32.000Z</time>
</trkpt>
<trkpt lat="31.2307150" lon="35.3446600">
<ele>41.000000</ele>
<time>2010-01-01T02:39:56.000Z</time>
</trkpt>
<trkpt lat="31.2305780" lon="35.3444800">
<ele>41.000000</ele>
<time>2010-01-01T02:40:04.000Z</time>
</trkpt>
<trkpt lat="31.2304020" lon="35.3441920">
<ele>42.000000</ele>
<time>2010-01-01T02:40:17.000Z</time>
</trkpt>
<trkpt lat="31.2303530" lon="35.3441100">
<ele>42.000000</ele>
<time>2010-01-01T02:40:20.000Z</time>
</trkpt>
<trkpt lat="31.2301530" lon="35.3436470">
<ele>42.000000</ele>
<time>2010-01-01T02:40:38.000Z</time>
</trkpt>
<trkpt lat="31.2301080" lon="35.3435680">
<ele>42.000000</ele>
<time>2010-01-01T02:40:41.000Z</time>
</trkpt>
<trkpt lat="31.2300150" lon="35.3434500">
<ele>42.000000</ele>
<time>2010-01-01T02:40:46.000Z</time>
</trkpt>
<trkpt lat="31.2299630" lon="35.3433800">
<ele>42.000000</ele>
<time>2010-01-01T02:40:50.000Z</time>
</trkpt>
<trkpt lat="31.2299030" lon="35.3433170">
<ele>42.000000</ele>
<time>2010-01-01T02:40:53.000Z</time>
</trkpt>
<trkpt lat="31.2297830" lon="35.3431480">
<ele>42.000000</ele>
<time>2010-01-01T02:41:00.000Z</time>
</trkpt>
<trkpt lat="31.2295350" lon="35.3426480">
<ele>46.000000</ele>
<time>2010-01-01T02:41:20.000Z</time>
</trkpt>
<trkpt lat="31.2294580" lon="35.3424580">
<ele>47.000000</ele>
<time>2010-01-01T02:41:27.000Z</time>
</trkpt>
<trkpt lat="31.2293980" lon="35.3422350">
<ele>48.000000</ele>
<time>2010-01-01T02:41:35.000Z</time>
</trkpt>
<trkpt lat="31.2293620" lon="35.3419970">
<ele>47.000000</ele>
<time>2010-01-01T02:41:44.000Z</time>
</trkpt>
<trkpt lat="31.2292270" lon="35.3413270">
<ele>46.000000</ele>
<time>2010-01-01T02:42:07.000Z</time>
</trkpt>
<trkpt lat="31.2291780" lon="35.3410820">
<ele>45.000004</ele>
<time>2010-01-01T02:42:16.000Z</time>
</trkpt>
<trkpt lat="31.2291600" lon="35.3404880">
<ele>43.999996</ele>
<time>2010-01-01T02:42:36.000Z</time>
</trkpt>
<trkpt lat="31.2291220" lon="35.3402900">
<ele>43.999996</ele>
<time>2010-01-01T02:42:43.000Z</time>
</trkpt>
<trkpt lat="31.2290520" lon="35.3400850">
<ele>43.999996</ele>
<time>2010-01-01T02:42:51.000Z</time>
</trkpt>
<trkpt lat="31.2290130" lon="35.3399230">
<ele>45.000004</ele>
<time>2010-01-01T02:42:56.000Z</time>
</trkpt>
<trkpt lat="31.2290220" lon="35.3396080">
<ele>45.000004</ele>
<time>2010-01-01T02:43:07.000Z</time>
</trkpt>
<trkpt lat="31.2290070" lon="35.3392200">
<ele>46.000000</ele>
<time>2010-01-01T02:43:20.000Z</time>
</trkpt>
<trkpt lat="31.2289650" lon="35.3388170">
<ele>46.000000</ele>
<time>2010-01-01T02:43:34.000Z</time>
</trkpt>
<trkpt lat="31.2294082" lon="35.3376317">
<ele>45.000004</ele>
<time>2010-01-01T02:44:19.000Z</time>
</trkpt>
<trkpt lat="31.2293348" lon="35.3371381">
<ele>42.000000</ele>
<time>2010-01-01T02:44:36.000Z</time>
</trkpt>
<trkpt lat="31.2294632" lon="35.3366017">
<ele>38.000000</ele>
<time>2010-01-01T02:44:55.000Z</time>
</trkpt>
<trkpt lat="31.2296651" lon="35.3370094">
<ele>40.000000</ele>
<time>2010-01-01T02:45:11.000Z</time>
</trkpt>
<trkpt lat="31.2299953" lon="35.3371596">
<ele>40.000000</ele>
<time>2010-01-01T02:45:25.000Z</time>
</trkpt>
<trkpt lat="31.2303070" lon="35.3373950">
<ele>38.000000</ele>
<time>2010-01-01T02:45:40.000Z</time>
</trkpt>
<trkpt lat="31.2306000" lon="35.3374680">
<ele>35.000000</ele>
<time>2010-01-01T02:45:52.000Z</time>
</trkpt>
<trkpt lat="31.2310420" lon="35.3375180">
<ele>31.000000</ele>
<time>2010-01-01T02:46:10.000Z</time>
</trkpt>
<trkpt lat="31.2311580" lon="35.3375700">
<ele>31.000000</ele>
<time>2010-01-01T02:46:15.000Z</time>
</trkpt>
<trkpt lat="31.2312820" lon="35.3376730">
<ele>30.000000</ele>
<time>2010-01-01T02:46:21.000Z</time>
</trkpt>
<trkpt lat="31.2314150" lon="35.3376570">
<ele>29.000000</ele>
<time>2010-01-01T02:46:26.000Z</time>
</trkpt>
<trkpt lat="31.2315470" lon="35.3375820">
<ele>29.000000</ele>
<time>2010-01-01T02:46:32.000Z</time>
</trkpt>
<trkpt lat="31.2317480" lon="35.3375280">
<ele>29.000000</ele>
<time>2010-01-01T02:46:40.000Z</time>
</trkpt>
<trkpt lat="31.2320770" lon="35.3376370">
<ele>29.000000</ele>
<time>2010-01-01T02:46:54.000Z</time>
</trkpt>
<trkpt lat="31.2327800" lon="35.3376900">
<ele>32.000000</ele>
<time>2010-01-01T02:47:22.000Z</time>
</trkpt>
<trkpt lat="31.2334480" lon="35.3377680">
<ele>35.000000</ele>
<time>2010-01-01T02:47:49.000Z</time>
</trkpt>
<trkpt lat="31.2336350" lon="35.3378080">
<ele>36.000000</ele>
<time>2010-01-01T02:47:57.000Z</time>
</trkpt>
<trkpt lat="31.2340830" lon="35.3378520">
<ele>37.000000</ele>
<time>2010-01-01T02:48:15.000Z</time>
</trkpt>
<trkpt lat="31.2345720" lon="35.3379170">
<ele>35.000000</ele>
<time>2010-01-01T02:48:34.000Z</time>
</trkpt>
<trkpt lat="31.2347820" lon="35.3379180">
<ele>35.000000</ele>
<time>2010-01-01T02:48:43.000Z</time>
</trkpt>
<trkpt lat="31.2358020" lon="35.3378230">
<ele>40.000000</ele>
<time>2010-01-01T02:49:24.000Z</time>
</trkpt>
<trkpt lat="31.2364980" lon="35.3377720">
<ele>42.000000</ele>
<time>2010-01-01T02:49:52.000Z</time>
</trkpt>
<trkpt lat="31.2366270" lon="35.3377300">
<ele>42.000000</ele>
<time>2010-01-01T02:49:57.000Z</time>
</trkpt>
<trkpt lat="31.2367520" lon="35.3376420">
<ele>42.000000</ele>
<time>2010-01-01T02:50:03.000Z</time>
</trkpt>
<trkpt lat="31.2367930" lon="35.3375980">
<ele>42.000000</ele>
<time>2010-01-01T02:50:05.000Z</time>
</trkpt>
<trkpt lat="31.2369680" lon="35.3373170">
<ele>41.000000</ele>
<time>2010-01-01T02:50:17.000Z</time>
</trkpt>
<trkpt lat="31.2370000" lon="35.3372830">
<ele>41.000000</ele>
<time>2010-01-01T02:50:19.000Z</time>
</trkpt>
<trkpt lat="31.2371780" lon="35.3372200">
<ele>40.000000</ele>
<time>2010-01-01T02:50:26.000Z</time>
</trkpt>
<trkpt lat="31.2373130" lon="35.3372030">
<ele>40.000000</ele>
<time>2010-01-01T02:50:32.000Z</time>
</trkpt>
<trkpt lat="31.2376530" lon="35.3372500">
<ele>41.000000</ele>
<time>2010-01-01T02:50:45.000Z</time>
</trkpt>
<trkpt lat="31.2380470" lon="35.3372130">
<ele>43.999996</ele>
<time>2010-01-01T02:51:01.000Z</time>
</trkpt>
<trkpt lat="31.2383770" lon="35.3371670">
<ele>46.000000</ele>
<time>2010-01-01T02:51:14.000Z</time>
</trkpt>
<trkpt lat="31.2389570" lon="35.3371220">
<ele>48.000000</ele>
<time>2010-01-01T02:51:38.000Z</time>
</trkpt>
<trkpt lat="31.2395200" lon="35.3371100">
<ele>48.000000</ele>
<time>2010-01-01T02:52:00.000Z</time>
</trkpt>
<trkpt lat="31.2397300" lon="35.3371400">
<ele>47.000000</ele>
<time>2010-01-01T02:52:09.000Z</time>
</trkpt>
<trkpt lat="31.2399700" lon="35.3372050">
<ele>47.000000</ele>
<time>2010-01-01T02:52:19.000Z</time>
</trkpt>
<trkpt lat="31.2403400" lon="35.3372750">
<ele>45.000004</ele>
<time>2010-01-01T02:52:34.000Z</time>
</trkpt>
<trkpt lat="31.2407220" lon="35.3373550">
<ele>45.000004</ele>
<time>2010-01-01T02:52:49.000Z</time>
</trkpt>
<trkpt lat="31.2409020" lon="35.3374200">
<ele>43.999996</ele>
<time>2010-01-01T02:52:57.000Z</time>
</trkpt>
<trkpt lat="31.2411620" lon="35.3374600">
<ele>41.000000</ele>
<time>2010-01-01T02:53:07.000Z</time>
</trkpt>
<trkpt lat="31.2416450" lon="35.3374920">
<ele>36.000000</ele>
<time>2010-01-01T02:53:27.000Z</time>
</trkpt>
<trkpt lat="31.2420220" lon="35.3375420">
<ele>32.000000</ele>
<time>2010-01-01T02:53:42.000Z</time>
</trkpt>
<trkpt lat="31.2422600" lon="35.3375850">
<ele>32.000000</ele>
<time>2010-01-01T02:53:51.000Z</time>
</trkpt>
<trkpt lat="31.2425070" lon="35.3377280">
<ele>33.000000</ele>
<time>2010-01-01T02:54:02.000Z</time>
</trkpt>
<trkpt lat="31.2431770" lon="35.3379020">
<ele>35.000000</ele>
<time>2010-01-01T02:54:30.000Z</time>
</trkpt>
<trkpt lat="31.2436230" lon="35.3378750">
<ele>34.000000</ele>
<time>2010-01-01T02:54:48.000Z</time>
</trkpt>
<trkpt lat="31.2437600" lon="35.3378550">
<ele>34.000000</ele>
<time>2010-01-01T02:54:53.000Z</time>
</trkpt>
<trkpt lat="31.2440300" lon="35.3377780">
<ele>33.000000</ele>
<time>2010-01-01T02:55:04.000Z</time>
</trkpt>
<trkpt lat="31.2442930" lon="35.3377470">
<ele>33.000000</ele>
<time>2010-01-01T02:55:15.000Z</time>
</trkpt>
<trkpt lat="31.2448180" lon="35.3376270">
<ele>32.000000</ele>
<time>2010-01-01T02:55:36.000Z</time>
</trkpt>
<trkpt lat="31.2453320" lon="35.3375580">
<ele>32.000000</ele>
<time>2010-01-01T02:55:57.000Z</time>
</trkpt>
<trkpt lat="31.2458850" lon="35.3374220">
<ele>35.000000</ele>
<time>2010-01-01T02:56:20.000Z</time>
</trkpt>
<trkpt lat="31.2466100" lon="35.3371930">
<ele>37.000000</ele>
<time>2010-01-01T02:56:50.000Z</time>
</trkpt>
<trkpt lat="31.2467030" lon="35.3371930">
<ele>37.000000</ele>
<time>2010-01-01T02:56:54.000Z</time>
</trkpt>
<trkpt lat="31.2481880" lon="35.3374970">
<ele>41.000000</ele>
<time>2010-01-01T02:57:54.000Z</time>
</trkpt>
<trkpt lat="31.2483650" lon="35.3374670">
<ele>41.000000</ele>
<time>2010-01-01T02:58:01.000Z</time>
</trkpt>
<trkpt lat="31.2486670" lon="35.3373470">
<ele>42.000000</ele>
<time>2010-01-01T02:58:14.000Z</time>
</trkpt>
<trkpt lat="31.2489880" lon="35.3372650">
<ele>43.999996</ele>
<time>2010-01-01T02:58:27.000Z</time>
</trkpt>
<trkpt lat="31.2494500" lon="35.3371820">
<ele>43.999996</ele>
<time>2010-01-01T02:58:46.000Z</time>
</trkpt>
<trkpt lat="31.2495750" lon="35.3371670">
<ele>43.999996</ele>
<time>2010-01-01T02:58:51.000Z</time>
</trkpt>
<trkpt lat="31.2498570" lon="35.3371920">
<ele>43.999996</ele>
<time>2010-01-01T02:59:02.000Z</time>
</trkpt>
<trkpt lat="31.2499930" lon="35.3371780">
<ele>43.999996</ele>
<time>2010-01-01T02:59:07.000Z</time>
</trkpt>
<trkpt lat="31.2501430" lon="35.3371220">
<ele>46.000000</ele>
<time>2010-01-01T02:59:14.000Z</time>
</trkpt>
<trkpt lat="31.2507600" lon="35.3371150">
<ele>48.000000</ele>
<time>2010-01-01T02:59:38.000Z</time>
</trkpt>
<trkpt lat="31.2513100" lon="35.3370700">
<ele>48.000000</ele>
<time>2010-01-01T03:00:01.000Z</time>
</trkpt>
<trkpt lat="31.2520500" lon="35.3369100">
<ele>42.000000</ele>
<time>2010-01-01T03:00:31.000Z</time>
</trkpt>
<trkpt lat="31.2521370" lon="35.3368870">
<ele>42.000000</ele>
<time>2010-01-01T03:00:34.000Z</time>
</trkpt>
<trkpt lat="31.2522330" lon="35.3368380">
<ele>41.000000</ele>
<time>2010-01-01T03:00:38.000Z</time>
</trkpt>
<trkpt lat="31.2524680" lon="35.3366970">
<ele>41.000000</ele>
<time>2010-01-01T03:00:49.000Z</time>
</trkpt>
<trkpt lat="31.2525420" lon="35.3366620">
<ele>40.000000</ele>
<time>2010-01-01T03:00:52.000Z</time>
</trkpt>
<trkpt lat="31.2526330" lon="35.3366400">
<ele>40.000000</ele>
<time>2010-01-01T03:00:56.000Z</time>
</trkpt>
<trkpt lat="31.2527680" lon="35.3366450">
<ele>40.000000</ele>
<time>2010-01-01T03:01:01.000Z</time>
</trkpt>
<trkpt lat="31.2528650" lon="35.3365850">
<ele>39.000000</ele>
<time>2010-01-01T03:01:06.000Z</time>
</trkpt>
<trkpt lat="31.2529420" lon="35.3365030">
<ele>39.000000</ele>
<time>2010-01-01T03:01:10.000Z</time>
</trkpt>
<trkpt lat="31.2530600" lon="35.3363620">
<ele>40.000000</ele>
<time>2010-01-01T03:01:17.000Z</time>
</trkpt>
<trkpt lat="31.2531670" lon="35.3362020">
<ele>39.000000</ele>
<time>2010-01-01T03:01:24.000Z</time>
</trkpt>
<trkpt lat="31.2532720" lon="35.3358280">
<ele>39.000000</ele>
<time>2010-01-01T03:01:37.000Z</time>
</trkpt>
<trkpt lat="31.2532780" lon="35.3357430">
<ele>38.000000</ele>
<time>2010-01-01T03:01:40.000Z</time>
</trkpt>
<trkpt lat="31.2532380" lon="35.3353000">
<ele>36.000000</ele>
<time>2010-01-01T03:01:55.000Z</time>
</trkpt>
<trkpt lat="31.2532450" lon="35.3352280">
<ele>36.000000</ele>
<time>2010-01-01T03:01:58.000Z</time>
</trkpt>
<trkpt lat="31.2532870" lon="35.3351470">
<ele>35.000000</ele>
<time>2010-01-01T03:02:01.000Z</time>
</trkpt>
<trkpt lat="31.2536220" lon="35.3350700">
<ele>35.000000</ele>
<time>2010-01-01T03:02:15.000Z</time>
</trkpt>
<trkpt lat="31.2538600" lon="35.3349600">
<ele>35.000000</ele>
<time>2010-01-01T03:02:25.000Z</time>
</trkpt>
<trkpt lat="31.2540630" lon="35.3348150">
<ele>34.000000</ele>
<time>2010-01-01T03:02:34.000Z</time>
</trkpt>
<trkpt lat="31.2544300" lon="35.3347320">
<ele>31.000000</ele>
<time>2010-01-01T03:02:49.000Z</time>
</trkpt>
<trkpt lat="31.2544770" lon="35.3347080">
<ele>30.000000</ele>
<time>2010-01-01T03:02:51.000Z</time>
</trkpt>
<trkpt lat="31.2545250" lon="35.3346450">
<ele>29.000000</ele>
<time>2010-01-01T03:02:54.000Z</time>
</trkpt>
<trkpt lat="31.2545870" lon="35.3345870">
<ele>29.000000</ele>
<time>2010-01-01T03:02:57.000Z</time>
</trkpt>
<trkpt lat="31.2548280" lon="35.3344370">
<ele>27.000000</ele>
<time>2010-01-01T03:03:08.000Z</time>
</trkpt>
<trkpt lat="31.2550720" lon="35.3342730">
<ele>25.999998</ele>
<time>2010-01-01T03:03:20.000Z</time>
</trkpt>
<trkpt lat="31.2553430" lon="35.3341430">
<ele>27.000000</ele>
<time>2010-01-01T03:03:31.000Z</time>
</trkpt>
<trkpt lat="31.2554250" lon="35.3340900">
<ele>27.000000</ele>
<time>2010-01-01T03:03:35.000Z</time>
</trkpt>
<trkpt lat="31.2557700" lon="35.3338120">
<ele>27.000000</ele>
<time>2010-01-01T03:03:52.000Z</time>
</trkpt>
<trkpt lat="31.2559350" lon="35.3337220">
<ele>25.999998</ele>
<time>2010-01-01T03:03:59.000Z</time>
</trkpt>
<trkpt lat="31.2561070" lon="35.3336880">
<ele>25.000000</ele>
<time>2010-01-01T03:04:06.000Z</time>
</trkpt>
<trkpt lat="31.2564120" lon="35.3337000">
<ele>24.000000</ele>
<time>2010-01-01T03:04:18.000Z</time>
</trkpt>
<trkpt lat="31.2565650" lon="35.3337030">
<ele>24.000000</ele>
<time>2010-01-01T03:04:25.000Z</time>
</trkpt>
<trkpt lat="31.2570970" lon="35.3336350">
<ele>23.000000</ele>
<time>2010-01-01T03:04:46.000Z</time>
</trkpt>
<trkpt lat="31.2573830" lon="35.3336700">
<ele>23.000000</ele>
<time>2010-01-01T03:04:57.000Z</time>
</trkpt>
<trkpt lat="31.2575720" lon="35.3337430">
<ele>21.999998</ele>
<time>2010-01-01T03:05:05.000Z</time>
</trkpt>
<trkpt lat="31.2579900" lon="35.3338500">
<ele>21.000000</ele>
<time>2010-01-01T03:05:23.000Z</time>
</trkpt>
<trkpt lat="31.2583420" lon="35.3339570">
<ele>21.999998</ele>
<time>2010-01-01T03:05:37.000Z</time>
</trkpt>
<trkpt lat="31.2585470" lon="35.3339880">
<ele>21.999998</ele>
<time>2010-01-01T03:05:45.000Z</time>
</trkpt>
<trkpt lat="31.2587720" lon="35.3339800">
<ele>21.999998</ele>
<time>2010-01-01T03:05:54.000Z</time>
</trkpt>
<trkpt lat="31.2592720" lon="35.3338520">
<ele>18.000000</ele>
<time>2010-01-01T03:06:15.000Z</time>
</trkpt>
<trkpt lat="31.2593000" lon="35.3338330">
<ele>18.000000</ele>
<time>2010-01-01T03:06:16.000Z</time>
</trkpt>
<trkpt lat="31.2594020" lon="35.3337350">
<ele>17.000000</ele>
<time>2010-01-01T03:06:21.000Z</time>
</trkpt>
<trkpt lat="31.2594920" lon="35.3335800">
<ele>18.000000</ele>
<time>2010-01-01T03:06:28.000Z</time>
</trkpt>
<trkpt lat="31.2595280" lon="35.3335420">
<ele>18.000000</ele>
<time>2010-01-01T03:06:30.000Z</time>
</trkpt>
<trkpt lat="31.2599270" lon="35.3334600">
<ele>17.000000</ele>
<time>2010-01-01T03:06:46.000Z</time>
</trkpt>
<trkpt lat="31.2600120" lon="35.3334300">
<ele>16.000000</ele>
<time>2010-01-01T03:06:50.000Z</time>
</trkpt>
<trkpt lat="31.2601070" lon="35.3333830">
<ele>16.000000</ele>
<time>2010-01-01T03:06:54.000Z</time>
</trkpt>
<trkpt lat="31.2602030" lon="35.3333180">
<ele>15.000000</ele>
<time>2010-01-01T03:06:58.000Z</time>
</trkpt>
<trkpt lat="31.2604770" lon="35.3332100">
<ele>14.000000</ele>
<time>2010-01-01T03:07:10.000Z</time>
</trkpt>
<trkpt lat="31.2608570" lon="35.3331500">
<ele>12.000000</ele>
<time>2010-01-01T03:07:25.000Z</time>
</trkpt>
<trkpt lat="31.2613080" lon="35.3330180">
<ele>10.999999</ele>
<time>2010-01-01T03:07:44.000Z</time>
</trkpt>
<trkpt lat="31.2618180" lon="35.3329500">
<ele>10.999999</ele>
<time>2010-01-01T03:08:04.000Z</time>
</trkpt>
<trkpt lat="31.2621000" lon="35.3328200">
<ele>10.999999</ele>
<time>2010-01-01T03:08:16.000Z</time>
</trkpt>
<trkpt lat="31.2622850" lon="35.3327580">
<ele>10.999999</ele>
<time>2010-01-01T03:08:24.000Z</time>
</trkpt>
<trkpt lat="31.2629000" lon="35.3326920">
<ele>10.000000</ele>
<time>2010-01-01T03:08:49.000Z</time>
</trkpt>
<trkpt lat="31.2630500" lon="35.3326430">
<ele>10.000000</ele>
<time>2010-01-01T03:08:55.000Z</time>
</trkpt>
<trkpt lat="31.2631050" lon="35.3326180">
<ele>10.000000</ele>
<time>2010-01-01T03:08:57.000Z</time>
</trkpt>
<trkpt lat="31.2633000" lon="35.3324880">
<ele>8.000000</ele>
<time>2010-01-01T03:09:06.000Z</time>
</trkpt>
<trkpt lat="31.2634100" lon="35.3324780">
<ele>7.000000</ele>
<time>2010-01-01T03:09:11.000Z</time>
</trkpt>
<trkpt lat="31.2635070" lon="35.3325220">
<ele>6.000000</ele>
<time>2010-01-01T03:09:15.000Z</time>
</trkpt>
<trkpt lat="31.2636080" lon="35.3326000">
<ele>6.000000</ele>
<time>2010-01-01T03:09:20.000Z</time>
</trkpt>
<trkpt lat="31.2639370" lon="35.3327550">
<ele>5.000000</ele>
<time>2010-01-01T03:09:34.000Z</time>
</trkpt>
<trkpt lat="31.2642630" lon="35.3329480">
<ele>5.000000</ele>
<time>2010-01-01T03:09:49.000Z</time>
</trkpt>
<trkpt lat="31.2646280" lon="35.3330920">
<ele>6.000000</ele>
<time>2010-01-01T03:10:04.000Z</time>
</trkpt>
<trkpt lat="31.2650450" lon="35.3333730">
<ele>9.000000</ele>
<time>2010-01-01T03:10:23.000Z</time>
</trkpt>
<trkpt lat="31.2653330" lon="35.3335580">
<ele>9.000000</ele>
<time>2010-01-01T03:10:36.000Z</time>
</trkpt>
<trkpt lat="31.2654950" lon="35.3336950">
<ele>10.000000</ele>
<time>2010-01-01T03:10:44.000Z</time>
</trkpt>
<trkpt lat="31.2655630" lon="35.3337870">
<ele>9.000000</ele>
<time>2010-01-01T03:10:49.000Z</time>
</trkpt>
<trkpt lat="31.2656630" lon="35.3340720">
<ele>10.000000</ele>
<time>2010-01-01T03:10:59.000Z</time>
</trkpt>
<trkpt lat="31.2657820" lon="35.3346570">
<ele>9.000000</ele>
<time>2010-01-01T03:11:20.000Z</time>
</trkpt>
<trkpt lat="31.2658150" lon="35.3350550">
<ele>8.000000</ele>
<time>2010-01-01T03:11:33.000Z</time>
</trkpt>
<trkpt lat="31.2659480" lon="35.3354200">
<ele>8.000000</ele>
<time>2010-01-01T03:11:47.000Z</time>
</trkpt>
<trkpt lat="31.2660520" lon="35.3357580">
<ele>8.000000</ele>
<time>2010-01-01T03:11:59.000Z</time>
</trkpt>
<trkpt lat="31.2662020" lon="35.3363330">
<ele>6.000000</ele>
<time>2010-01-01T03:12:20.000Z</time>
</trkpt>
<trkpt lat="31.2663530" lon="35.3370230">
<ele>7.000000</ele>
<time>2010-01-01T03:12:44.000Z</time>
</trkpt>
<trkpt lat="31.2663830" lon="35.3371320">
<ele>7.000000</ele>
<time>2010-01-01T03:12:48.000Z</time>
</trkpt>
<trkpt lat="31.2664320" lon="35.3372370">
<ele>8.000000</ele>
<time>2010-01-01T03:12:52.000Z</time>
</trkpt>
<trkpt lat="31.2664730" lon="35.3372850">
<ele>8.000000</ele>
<time>2010-01-01T03:12:55.000Z</time>
</trkpt>
<trkpt lat="31.2666050" lon="35.3373320">
<ele>9.000000</ele>
<time>2010-01-01T03:13:00.000Z</time>
</trkpt>
<trkpt lat="31.2668350" lon="35.3372820">
<ele>10.000000</ele>
<time>2010-01-01T03:13:09.000Z</time>
</trkpt>
<trkpt lat="31.2669570" lon="35.3372630">
<ele>10.999999</ele>
<time>2010-01-01T03:13:14.000Z</time>
</trkpt>
<trkpt lat="31.2671250" lon="35.3372720">
<ele>10.999999</ele>
<time>2010-01-01T03:13:21.000Z</time>
</trkpt>
<trkpt lat="31.2671980" lon="35.3372980">
<ele>10.999999</ele>
<time>2010-01-01T03:13:24.000Z</time>
</trkpt>
<trkpt lat="31.2673230" lon="35.3373950">
<ele>12.000000</ele>
<time>2010-01-01T03:13:30.000Z</time>
</trkpt>
<trkpt lat="31.2674070" lon="35.3374570">
<ele>12.000000</ele>
<time>2010-01-01T03:13:34.000Z</time>
</trkpt>
<trkpt lat="31.2674680" lon="35.3374820">
<ele>12.000000</ele>
<time>2010-01-01T03:13:37.000Z</time>
</trkpt>
<trkpt lat="31.2676300" lon="35.3375770">
<ele>10.000000</ele>
<time>2010-01-01T03:13:44.000Z</time>
</trkpt>
<trkpt lat="31.2677620" lon="35.3377000">
<ele>9.000000</ele>
<time>2010-01-01T03:13:51.000Z</time>
</trkpt>
<trkpt lat="31.2678130" lon="35.3377920">
<ele>8.000000</ele>
<time>2010-01-01T03:13:54.000Z</time>
</trkpt>
<trkpt lat="31.2678730" lon="35.3379970">
<ele>5.000000</ele>
<time>2010-01-01T03:14:02.000Z</time>
</trkpt>
<trkpt lat="31.2679450" lon="35.3381570">
<ele>3.000000</ele>
<time>2010-01-01T03:14:08.000Z</time>
</trkpt>
<trkpt lat="31.2680500" lon="35.3382950">
<ele>2.000000</ele>
<time>2010-01-01T03:14:14.000Z</time>
</trkpt>
<trkpt lat="31.2681130" lon="35.3383750">
<ele>1.000000</ele>
<time>2010-01-01T03:14:18.000Z</time>
</trkpt>
<trkpt lat="31.2681430" lon="35.3384220">
<ele>1.000000</ele>
<time>2010-01-01T03:14:20.000Z</time>
</trkpt>
<trkpt lat="31.2681770" lon="35.3384730">
<ele>1.000000</ele>
<time>2010-01-01T03:14:22.000Z</time>
</trkpt>
<trkpt lat="31.2682670" lon="35.3386670">
<ele>0.000000</ele>
<time>2010-01-01T03:14:30.000Z</time>
</trkpt>
<trkpt lat="31.2684030" lon="35.3388930">
<ele>0.000000</ele>
<time>2010-01-01T03:14:39.000Z</time>
</trkpt>
<trkpt lat="31.2685100" lon="35.3391120">
<ele>0.000000</ele>
<time>2010-01-01T03:14:48.000Z</time>
</trkpt>
<trkpt lat="31.2685330" lon="35.3391530">
<ele>0.000000</ele>
<time>2010-01-01T03:14:50.000Z</time>
</trkpt>
<trkpt lat="31.2686970" lon="35.3393400">
<ele>-1.000000</ele>
<time>2010-01-01T03:14:59.000Z</time>
</trkpt>
<trkpt lat="31.2687750" lon="35.3394000">
<ele>-2.000000</ele>
<time>2010-01-01T03:15:03.000Z</time>
</trkpt>
<trkpt lat="31.2690330" lon="35.3395250">
<ele>-3.000000</ele>
<time>2010-01-01T03:15:14.000Z</time>
</trkpt>
<trkpt lat="31.2690770" lon="35.3395580">
<ele>-3.000000</ele>
<time>2010-01-01T03:15:16.000Z</time>
</trkpt>
<trkpt lat="31.2691000" lon="35.3395830">
<ele>-3.000000</ele>
<time>2010-01-01T03:15:17.000Z</time>
</trkpt>
<trkpt lat="31.2692670" lon="35.3397830">
<ele>-5.000000</ele>
<time>2010-01-01T03:15:27.000Z</time>
</trkpt>
<trkpt lat="31.2693380" lon="35.3398530">
<ele>-6.000000</ele>
<time>2010-01-01T03:15:30.000Z</time>
</trkpt>
<trkpt lat="31.2694320" lon="35.3399530">
<ele>-7.000000</ele>
<time>2010-01-01T03:15:35.000Z</time>
</trkpt>
<trkpt lat="31.2695450" lon="35.3400480">
<ele>-9.000000</ele>
<time>2010-01-01T03:15:41.000Z</time>
</trkpt>
<trkpt lat="31.2696270" lon="35.3400800">
<ele>-9.000000</ele>
<time>2010-01-01T03:15:45.000Z</time>
</trkpt>
<trkpt lat="31.2702800" lon="35.3401770">
<ele>-14.000000</ele>
<time>2010-01-01T03:16:11.000Z</time>
</trkpt>
<trkpt lat="31.2704820" lon="35.3402720">
<ele>-15.000000</ele>
<time>2010-01-01T03:16:20.000Z</time>
</trkpt>
<trkpt lat="31.2708200" lon="35.3402030">
<ele>-17.000000</ele>
<time>2010-01-01T03:16:33.000Z</time>
</trkpt>
<trkpt lat="31.2712020" lon="35.3400680">
<ele>-16.000000</ele>
<time>2010-01-01T03:16:49.000Z</time>
</trkpt>
<trkpt lat="31.2713350" lon="35.3401230">
<ele>-17.000000</ele>
<time>2010-01-01T03:16:55.000Z</time>
</trkpt>
<trkpt lat="31.2713530" lon="35.3401520">
<ele>-17.000000</ele>
<time>2010-01-01T03:16:56.000Z</time>
</trkpt>
<trkpt lat="31.2713950" lon="35.3402130">
<ele>-18.000000</ele>
<time>2010-01-01T03:16:59.000Z</time>
</trkpt>
<trkpt lat="31.2714080" lon="35.3402550">
<ele>-18.000000</ele>
<time>2010-01-01T03:17:00.000Z</time>
</trkpt>
<trkpt lat="31.2714920" lon="35.3404320">
<ele>-21.000000</ele>
<time>2010-01-01T03:17:07.000Z</time>
</trkpt>
<trkpt lat="31.2716550" lon="35.3404480">
<ele>-21.999998</ele>
<time>2010-01-01T03:17:14.000Z</time>
</trkpt>
<trkpt lat="31.2717130" lon="35.3405070">
<ele>-24.000000</ele>
<time>2010-01-01T03:17:17.000Z</time>
</trkpt>
<trkpt lat="31.2717520" lon="35.3405270">
<ele>-25.000000</ele>
<time>2010-01-01T03:17:19.000Z</time>
</trkpt>
<trkpt lat="31.2719820" lon="35.3405200">
<ele>-25.999998</ele>
<time>2010-01-01T03:17:28.000Z</time>
</trkpt>
<trkpt lat="31.2721370" lon="35.3405880">
<ele>-30.000000</ele>
<time>2010-01-01T03:17:34.000Z</time>
</trkpt>
<trkpt lat="31.2724880" lon="35.3406480">
<ele>-36.000000</ele>
<time>2010-01-01T03:17:49.000Z</time>
</trkpt>
<trkpt lat="31.2727470" lon="35.3406770">
<ele>-39.000000</ele>
<time>2010-01-01T03:17:59.000Z</time>
</trkpt>
<trkpt lat="31.2728580" lon="35.3406700">
<ele>-40.000000</ele>
<time>2010-01-01T03:18:04.000Z</time>
</trkpt>
<trkpt lat="31.2730000" lon="35.3407150">
<ele>-42.000000</ele>
<time>2010-01-01T03:18:09.000Z</time>
</trkpt>
<trkpt lat="31.2730320" lon="35.3407480">
<ele>-43.000000</ele>
<time>2010-01-01T03:18:11.000Z</time>
</trkpt>
<trkpt lat="31.2730670" lon="35.3408520">
<ele>-45.000004</ele>
<time>2010-01-01T03:18:15.000Z</time>
</trkpt>
<trkpt lat="31.2730200" lon="35.3411130">
<ele>-46.000000</ele>
<time>2010-01-01T03:18:24.000Z</time>
</trkpt>
<trkpt lat="31.2729600" lon="35.3412270">
<ele>-48.000000</ele>
<time>2010-01-01T03:18:29.000Z</time>
</trkpt>
<trkpt lat="31.2728720" lon="35.3413030">
<ele>-50.000000</ele>
<time>2010-01-01T03:18:33.000Z</time>
</trkpt>
<trkpt lat="31.2727250" lon="35.3413780">
<ele>-51.000000</ele>
<time>2010-01-01T03:18:39.000Z</time>
</trkpt>
<trkpt lat="31.2726570" lon="35.3414300">
<ele>-51.999996</ele>
<time>2010-01-01T03:18:43.000Z</time>
</trkpt>
<trkpt lat="31.2726250" lon="35.3414600">
<ele>-53.000004</ele>
<time>2010-01-01T03:18:44.000Z</time>
</trkpt>
<trkpt lat="31.2726000" lon="35.3415270">
<ele>-54.000000</ele>
<time>2010-01-01T03:18:47.000Z</time>
</trkpt>
<trkpt lat="31.2726050" lon="35.3415670">
<ele>-55.000000</ele>
<time>2010-01-01T03:18:48.000Z</time>
</trkpt>
<trkpt lat="31.2726730" lon="35.3416950">
<ele>-59.000000</ele>
<time>2010-01-01T03:18:53.000Z</time>
</trkpt>
<trkpt lat="31.2729070" lon="35.3419200">
<ele>-62.000000</ele>
<time>2010-01-01T03:19:06.000Z</time>
</trkpt>
<trkpt lat="31.2732750" lon="35.3421880">
<ele>-65.000000</ele>
<time>2010-01-01T03:19:23.000Z</time>
</trkpt>
<trkpt lat="31.2734270" lon="35.3423600">
<ele>-68.000000</ele>
<time>2010-01-01T03:19:31.000Z</time>
</trkpt>
<trkpt lat="31.2735520" lon="35.3424770">
<ele>-70.000000</ele>
<time>2010-01-01T03:19:38.000Z</time>
</trkpt>
<trkpt lat="31.2738300" lon="35.3426280">
<ele>-74.000000</ele>
<time>2010-01-01T03:19:50.000Z</time>
</trkpt>
<trkpt lat="31.2738870" lon="35.3427120">
<ele>-76.000000</ele>
<time>2010-01-01T03:19:54.000Z</time>
</trkpt>
<trkpt lat="31.2740130" lon="35.3427500">
<ele>-77.000000</ele>
<time>2010-01-01T03:19:59.000Z</time>
</trkpt>
<trkpt lat="31.2740570" lon="35.3427470">
<ele>-77.000000</ele>
<time>2010-01-01T03:20:01.000Z</time>
</trkpt>
<trkpt lat="31.2740680" lon="35.3427380">
<ele>-77.000000</ele>
<time>2010-01-01T03:20:01.000Z</time>
</trkpt>
<trkpt lat="31.2741829" lon="35.3426915">
<ele>-77.000000</ele>
<time>2010-01-01T03:20:06.000Z</time>
</trkpt>
<trkpt lat="31.2743870" lon="35.3425570">
<ele>-77.000000</ele>
<time>2010-01-01T03:20:15.000Z</time>
</trkpt>
<trkpt lat="31.2747050" lon="35.3425380">
<ele>-79.000000</ele>
<time>2010-01-01T03:20:28.000Z</time>
</trkpt>
<trkpt lat="31.2751350" lon="35.3426850">
<ele>-80.000000</ele>
<time>2010-01-01T03:20:46.000Z</time>
</trkpt>
<trkpt lat="31.2756630" lon="35.3428270">
<ele>-82.000000</ele>
<time>2010-01-01T03:21:08.000Z</time>
</trkpt>
<trkpt lat="31.2757480" lon="35.3428700">
<ele>-82.000000</ele>
<time>2010-01-01T03:21:11.000Z</time>
</trkpt>
<trkpt lat="31.2758870" lon="35.3430080">
<ele>-84.000000</ele>
<time>2010-01-01T03:21:19.000Z</time>
</trkpt>
<trkpt lat="31.2761450" lon="35.3430900">
<ele>-86.000000</ele>
<time>2010-01-01T03:21:29.000Z</time>
</trkpt>
<trkpt lat="31.2761730" lon="35.3431100">
<ele>-86.000000</ele>
<time>2010-01-01T03:21:31.000Z</time>
</trkpt>
<trkpt lat="31.2762200" lon="35.3431630">
<ele>-87.000000</ele>
<time>2010-01-01T03:21:33.000Z</time>
</trkpt>
<trkpt lat="31.2762830" lon="35.3433300">
<ele>-87.999992</ele>
<time>2010-01-01T03:21:40.000Z</time>
</trkpt>
<trkpt lat="31.2762950" lon="35.3433570">
<ele>-87.999992</ele>
<time>2010-01-01T03:21:41.000Z</time>
</trkpt>
<trkpt lat="31.2763200" lon="35.3433730">
<ele>-87.999992</ele>
<time>2010-01-01T03:21:42.000Z</time>
</trkpt>
<trkpt lat="31.2763520" lon="35.3433880">
<ele>-89.000000</ele>
<time>2010-01-01T03:21:43.000Z</time>
</trkpt>
<trkpt lat="31.2765580" lon="35.3433930">
<ele>-90.000008</ele>
<time>2010-01-01T03:21:51.000Z</time>
</trkpt>
<trkpt lat="31.2765900" lon="35.3434070">
<ele>-90.000008</ele>
<time>2010-01-01T03:21:53.000Z</time>
</trkpt>
<trkpt lat="31.2766270" lon="35.3435130">
<ele>-91.000000</ele>
<time>2010-01-01T03:21:57.000Z</time>
</trkpt>
<trkpt lat="31.2766150" lon="35.3435770">
<ele>-91.000000</ele>
<time>2010-01-01T03:21:59.000Z</time>
</trkpt>
<trkpt lat="31.2766600" lon="35.3438330">
<ele>-93.000000</ele>
<time>2010-01-01T03:22:08.000Z</time>
</trkpt>
<trkpt lat="31.2765600" lon="35.3440370">
<ele>-93.000000</ele>
<time>2010-01-01T03:22:16.000Z</time>
</trkpt>
<trkpt lat="31.2765420" lon="35.3442520">
<ele>-94.000000</ele>
<time>2010-01-01T03:22:23.000Z</time>
</trkpt>
<trkpt lat="31.2765630" lon="35.3445250">
<ele>-92.000000</ele>
<time>2010-01-01T03:22:33.000Z</time>
</trkpt>
<trkpt lat="31.2765780" lon="35.3446250">
<ele>-92.000000</ele>
<time>2010-01-01T03:22:36.000Z</time>
</trkpt>
<trkpt lat="31.2765980" lon="35.3447130">
<ele>-91.000000</ele>
<time>2010-01-01T03:22:39.000Z</time>
</trkpt>
<trkpt lat="31.2766380" lon="35.3447880">
<ele>-91.000000</ele>
<time>2010-01-01T03:22:42.000Z</time>
</trkpt>
<trkpt lat="31.2766920" lon="35.3448520">
<ele>-90.000008</ele>
<time>2010-01-01T03:22:45.000Z</time>
</trkpt>
<trkpt lat="31.2767120" lon="35.3448730">
<ele>-90.000008</ele>
<time>2010-01-01T03:22:47.000Z</time>
</trkpt>
<trkpt lat="31.2767320" lon="35.3448950">
<ele>-91.000000</ele>
<time>2010-01-01T03:22:48.000Z</time>
</trkpt>
<trkpt lat="31.2767920" lon="35.3449430">
<ele>-91.000000</ele>
<time>2010-01-01T03:22:51.000Z</time>
</trkpt>
<trkpt lat="31.2770030" lon="35.3450670">
<ele>-93.000000</ele>
<time>2010-01-01T03:23:00.000Z</time>
</trkpt>
<trkpt lat="31.2771650" lon="35.3451420">
<ele>-95.000000</ele>
<time>2010-01-01T03:23:07.000Z</time>
</trkpt>
<trkpt lat="31.2775150" lon="35.3453450">
<ele>-98.000000</ele>
<time>2010-01-01T03:23:23.000Z</time>
</trkpt>
<trkpt lat="31.2775900" lon="35.3453900">
<ele>-98.000000</ele>
<time>2010-01-01T03:23:26.000Z</time>
</trkpt>
<trkpt lat="31.2779030" lon="35.3454670">
<ele>-101.000000</ele>
<time>2010-01-01T03:23:39.000Z</time>
</trkpt>
<trkpt lat="31.2780280" lon="35.3455200">
<ele>-102.000000</ele>
<time>2010-01-01T03:23:44.000Z</time>
</trkpt>
<trkpt lat="31.2782220" lon="35.3456450">
<ele>-106.000008</ele>
<time>2010-01-01T03:23:53.000Z</time>
</trkpt>
<trkpt lat="31.2784320" lon="35.3458870">
<ele>-109.000000</ele>
<time>2010-01-01T03:24:05.000Z</time>
</trkpt>
<trkpt lat="31.2785520" lon="35.3460050">
<ele>-110.000000</ele>
<time>2010-01-01T03:24:11.000Z</time>
</trkpt>
<trkpt lat="31.2786520" lon="35.3461200">
<ele>-111.000000</ele>
<time>2010-01-01T03:24:17.000Z</time>
</trkpt>
<trkpt lat="31.2788130" lon="35.3463330">
<ele>-111.000000</ele>
<time>2010-01-01T03:24:26.000Z</time>
</trkpt>
<trkpt lat="31.2788420" lon="35.3463720">
<ele>-110.000000</ele>
<time>2010-01-01T03:24:28.000Z</time>
</trkpt>
<trkpt lat="31.2789180" lon="35.3464680">
<ele>-110.000000</ele>
<time>2010-01-01T03:24:33.000Z</time>
</trkpt>
<trkpt lat="31.2789730" lon="35.3465420">
<ele>-110.000000</ele>
<time>2010-01-01T03:24:36.000Z</time>
</trkpt>
<trkpt lat="31.2790980" lon="35.3467050">
<ele>-110.000000</ele>
<time>2010-01-01T03:24:43.000Z</time>
</trkpt>
<trkpt lat="31.2791320" lon="35.3467470">
<ele>-110.000000</ele>
<time>2010-01-01T03:24:45.000Z</time>
</trkpt>
<trkpt lat="31.2793150" lon="35.3470180">
<ele>-111.000000</ele>
<time>2010-01-01T03:24:57.000Z</time>
</trkpt>
<trkpt lat="31.2795150" lon="35.3473370">
<ele>-112.000000</ele>
<time>2010-01-01T03:25:11.000Z</time>
</trkpt>
<trkpt lat="31.2799270" lon="35.3481820">
<ele>-112.000000</ele>
<time>2010-01-01T03:25:44.000Z</time>
</trkpt>
<trkpt lat="31.2799780" lon="35.3482630">
<ele>-112.000000</ele>
<time>2010-01-01T03:25:48.000Z</time>
</trkpt>
<trkpt lat="31.2801280" lon="35.3485470">
<ele>-111.000000</ele>
<time>2010-01-01T03:25:59.000Z</time>
</trkpt>
<trkpt lat="31.2801580" lon="35.3485980">
<ele>-111.000000</ele>
<time>2010-01-01T03:26:01.000Z</time>
</trkpt>
<trkpt lat="31.2803100" lon="35.3488120">
<ele>-112.999992</ele>
<time>2010-01-01T03:26:11.000Z</time>
</trkpt>
<trkpt lat="31.2803530" lon="35.3488770">
<ele>-114.000000</ele>
<time>2010-01-01T03:26:13.000Z</time>
</trkpt>
<trkpt lat="31.2803980" lon="35.3489430">
<ele>-114.000000</ele>
<time>2010-01-01T03:26:16.000Z</time>
</trkpt>
<trkpt lat="31.2804600" lon="35.3490070">
<ele>-115.000000</ele>
<time>2010-01-01T03:26:20.000Z</time>
</trkpt>
<trkpt lat="31.2805380" lon="35.3490620">
<ele>-116.000000</ele>
<time>2010-01-01T03:26:23.000Z</time>
</trkpt>
<trkpt lat="31.2806800" lon="35.3491150">
<ele>-117.000000</ele>
<time>2010-01-01T03:26:29.000Z</time>
</trkpt>
<trkpt lat="31.2812670" lon="35.3492580">
<ele>-120.000000</ele>
<time>2010-01-01T03:26:53.000Z</time>
</trkpt>
<trkpt lat="31.2815730" lon="35.3493920">
<ele>-122.000008</ele>
<time>2010-01-01T03:27:06.000Z</time>
</trkpt>
<trkpt lat="31.2819930" lon="35.3494420">
<ele>-124.000000</ele>
<time>2010-01-01T03:27:23.000Z</time>
</trkpt>
<trkpt lat="31.2820620" lon="35.3494580">
<ele>-124.000000</ele>
<time>2010-01-01T03:27:26.000Z</time>
</trkpt>
<trkpt lat="31.2822080" lon="35.3495570">
<ele>-125.000000</ele>
<time>2010-01-01T03:27:33.000Z</time>
</trkpt>
<trkpt lat="31.2823970" lon="35.3495870">
<ele>-126.000000</ele>
<time>2010-01-01T03:27:40.000Z</time>
</trkpt>
<trkpt lat="31.2828980" lon="35.3497180">
<ele>-125.000000</ele>
<time>2010-01-01T03:28:01.000Z</time>
</trkpt>
<trkpt lat="31.2832880" lon="35.3497670">
<ele>-126.000000</ele>
<time>2010-01-01T03:28:17.000Z</time>
</trkpt>
<trkpt lat="31.2834670" lon="35.3498570">
<ele>-127.000000</ele>
<time>2010-01-01T03:28:24.000Z</time>
</trkpt>
<trkpt lat="31.2835930" lon="35.3500300">
<ele>-128.000000</ele>
<time>2010-01-01T03:28:32.000Z</time>
</trkpt>
<trkpt lat="31.2836320" lon="35.3501080">
<ele>-128.000000</ele>
<time>2010-01-01T03:28:35.000Z</time>
</trkpt>
<trkpt lat="31.2836720" lon="35.3502320">
<ele>-128.000000</ele>
<time>2010-01-01T03:28:40.000Z</time>
</trkpt>
<trkpt lat="31.2837480" lon="35.3503820">
<ele>-128.000000</ele>
<time>2010-01-01T03:28:46.000Z</time>
</trkpt>
<trkpt lat="31.2837770" lon="35.3504150">
<ele>-128.000000</ele>
<time>2010-01-01T03:28:47.000Z</time>
</trkpt>
<trkpt lat="31.2839330" lon="35.3506030">
<ele>-129.000000</ele>
<time>2010-01-01T03:28:56.000Z</time>
</trkpt>
<trkpt lat="31.2841030" lon="35.3508320">
<ele>-129.000000</ele>
<time>2010-01-01T03:29:07.000Z</time>
</trkpt>
<trkpt lat="31.2841250" lon="35.3508570">
<ele>-129.000000</ele>
<time>2010-01-01T03:29:08.000Z</time>
</trkpt>
<trkpt lat="31.2841680" lon="35.3509220">
<ele>-129.000000</ele>
<time>2010-01-01T03:29:11.000Z</time>
</trkpt>
<trkpt lat="31.2842150" lon="35.3510370">
<ele>-129.000000</ele>
<time>2010-01-01T03:29:15.000Z</time>
</trkpt>
<trkpt lat="31.2842530" lon="35.3513230">
<ele>-130.000000</ele>
<time>2010-01-01T03:29:25.000Z</time>
</trkpt>
<trkpt lat="31.2841900" lon="35.3520220">
<ele>-132.000000</ele>
<time>2010-01-01T03:29:49.000Z</time>
</trkpt>
<trkpt lat="31.2841430" lon="35.3523000">
<ele>-133.000000</ele>
<time>2010-01-01T03:29:59.000Z</time>
</trkpt>
<trkpt lat="31.2841280" lon="35.3524600">
<ele>-133.000000</ele>
<time>2010-01-01T03:30:04.000Z</time>
</trkpt>
<trkpt lat="31.2841270" lon="35.3526000">
<ele>-133.000000</ele>
<time>2010-01-01T03:30:09.000Z</time>
</trkpt>
<trkpt lat="31.2841400" lon="35.3526500">
<ele>-132.000000</ele>
<time>2010-01-01T03:30:11.000Z</time>
</trkpt>
<trkpt lat="31.2841700" lon="35.3526950">
<ele>-132.000000</ele>
<time>2010-01-01T03:30:13.000Z</time>
</trkpt>
<trkpt lat="31.2843430" lon="35.3528070">
<ele>-132.000000</ele>
<time>2010-01-01T03:30:21.000Z</time>
</trkpt>
<trkpt lat="31.2845420" lon="35.3528830">
<ele>-131.000000</ele>
<time>2010-01-01T03:30:29.000Z</time>
</trkpt>
<trkpt lat="31.2846400" lon="35.3529200">
<ele>-130.000000</ele>
<time>2010-01-01T03:30:33.000Z</time>
</trkpt>
<trkpt lat="31.2847680" lon="35.3529980">
<ele>-129.000000</ele>
<time>2010-01-01T03:30:39.000Z</time>
</trkpt>
<trkpt lat="31.2848150" lon="35.3530670">
<ele>-129.000000</ele>
<time>2010-01-01T03:30:42.000Z</time>
</trkpt>
<trkpt lat="31.2849280" lon="35.3534780">
<ele>-128.000000</ele>
<time>2010-01-01T03:30:57.000Z</time>
</trkpt>
<trkpt lat="31.2849530" lon="35.3535250">
<ele>-128.000000</ele>
<time>2010-01-01T03:30:59.000Z</time>
</trkpt>
<trkpt lat="31.2849906" lon="35.3536402">
<ele>-127.000000</ele>
<time>2010-01-01T03:31:03.000Z</time>
</trkpt>
<trkpt lat="31.2850548" lon="35.3537046">
<ele>-127.000000</ele>
<time>2010-01-01T03:31:06.000Z</time>
</trkpt>
<trkpt lat="31.2851950" lon="35.3537370">
<ele>-126.000000</ele>
<time>2010-01-01T03:31:12.000Z</time>
</trkpt>
<trkpt lat="31.2853680" lon="35.3537920">
<ele>-125.000000</ele>
<time>2010-01-01T03:31:19.000Z</time>
</trkpt>
<trkpt lat="31.2856970" lon="35.3537420">
<ele>-124.000000</ele>
<time>2010-01-01T03:31:33.000Z</time>
</trkpt>
<trkpt lat="31.2857480" lon="35.3537700">
<ele>-124.000000</ele>
<time>2010-01-01T03:31:35.000Z</time>
</trkpt>
<trkpt lat="31.2858700" lon="35.3538800">
<ele>-124.000000</ele>
<time>2010-01-01T03:31:41.000Z</time>
</trkpt>
<trkpt lat="31.2859050" lon="35.3539280">
<ele>-124.000000</ele>
<time>2010-01-01T03:31:43.000Z</time>
</trkpt>
<trkpt lat="31.2859220" lon="35.3539930">
<ele>-124.000000</ele>
<time>2010-01-01T03:31:45.000Z</time>
</trkpt>
<trkpt lat="31.2859100" lon="35.3540600">
<ele>-124.000000</ele>
<time>2010-01-01T03:31:48.000Z</time>
</trkpt>
<trkpt lat="31.2856950" lon="35.3541630">
<ele>-123.000000</ele>
<time>2010-01-01T03:31:57.000Z</time>
</trkpt>
<trkpt lat="31.2856600" lon="35.3542020">
<ele>-123.000000</ele>
<time>2010-01-01T03:31:59.000Z</time>
</trkpt>
<trkpt lat="31.2856470" lon="35.3542250">
<ele>-122.000008</ele>
<time>2010-01-01T03:32:00.000Z</time>
</trkpt>
<trkpt lat="31.2855650" lon="35.3543420">
<ele>-121.000000</ele>
<time>2010-01-01T03:32:05.000Z</time>
</trkpt>
<trkpt lat="31.2853720" lon="35.3544930">
<ele>-119.000000</ele>
<time>2010-01-01T03:32:14.000Z</time>
</trkpt>
<trkpt lat="31.2852850" lon="35.3545470">
<ele>-118.000000</ele>
<time>2010-01-01T03:32:18.000Z</time>
</trkpt>
<trkpt lat="31.2851380" lon="35.3546070">
<ele>-119.000000</ele>
<time>2010-01-01T03:32:25.000Z</time>
</trkpt>
<trkpt lat="31.2850800" lon="35.3546530">
<ele>-119.000000</ele>
<time>2010-01-01T03:32:27.000Z</time>
</trkpt>
<trkpt lat="31.2850370" lon="35.3547430">
<ele>-118.000000</ele>
<time>2010-01-01T03:32:31.000Z</time>
</trkpt>
<trkpt lat="31.2850600" lon="35.3549670">
<ele>-115.000000</ele>
<time>2010-01-01T03:32:39.000Z</time>
</trkpt>
<trkpt lat="31.2850750" lon="35.3550030">
<ele>-115.000000</ele>
<time>2010-01-01T03:32:40.000Z</time>
</trkpt>
<trkpt lat="31.2850970" lon="35.3550330">
<ele>-115.000000</ele>
<time>2010-01-01T03:32:41.000Z</time>
</trkpt>
<trkpt lat="31.2851400" lon="35.3550880">
<ele>-114.000000</ele>
<time>2010-01-01T03:32:44.000Z</time>
</trkpt>
<trkpt lat="31.2851780" lon="35.3551150">
<ele>-114.000000</ele>
<time>2010-01-01T03:32:46.000Z</time>
</trkpt>
<trkpt lat="31.2853530" lon="35.3551600">
<ele>-112.999992</ele>
<time>2010-01-01T03:32:53.000Z</time>
</trkpt>
<trkpt lat="31.2854280" lon="35.3552000">
<ele>-114.000000</ele>
<time>2010-01-01T03:32:56.000Z</time>
</trkpt>
<trkpt lat="31.2855570" lon="35.3552970">
<ele>-114.000000</ele>
<time>2010-01-01T03:33:02.000Z</time>
</trkpt>
<trkpt lat="31.2857050" lon="35.3553680">
<ele>-115.000000</ele>
<time>2010-01-01T03:33:09.000Z</time>
</trkpt>
<trkpt lat="31.2859850" lon="35.3553850">
<ele>-115.000000</ele>
<time>2010-01-01T03:33:20.000Z</time>
</trkpt>
<trkpt lat="31.2860170" lon="35.3553750">
<ele>-115.000000</ele>
<time>2010-01-01T03:33:21.000Z</time>
</trkpt>
<trkpt lat="31.2862530" lon="35.3553680">
<ele>-116.000000</ele>
<time>2010-01-01T03:33:31.000Z</time>
</trkpt>
<trkpt lat="31.2864170" lon="35.3554100">
<ele>-116.000000</ele>
<time>2010-01-01T03:33:37.000Z</time>
</trkpt>
<trkpt lat="31.2868000" lon="35.3556920">
<ele>-112.000000</ele>
<time>2010-01-01T03:33:56.000Z</time>
</trkpt>
<trkpt lat="31.2868730" lon="35.3557400">
<ele>-112.000000</ele>
<time>2010-01-01T03:33:59.000Z</time>
</trkpt>
<trkpt lat="31.2869880" lon="35.3558430">
<ele>-112.000000</ele>
<time>2010-01-01T03:34:05.000Z</time>
</trkpt>
<trkpt lat="31.2870350" lon="35.3558900">
<ele>-112.000000</ele>
<time>2010-01-01T03:34:07.000Z</time>
</trkpt>
<trkpt lat="31.2871970" lon="35.3559880">
<ele>-112.999992</ele>
<time>2010-01-01T03:34:14.000Z</time>
</trkpt>
<trkpt lat="31.2873030" lon="35.3559880">
<ele>-112.000000</ele>
<time>2010-01-01T03:34:19.000Z</time>
</trkpt>
<trkpt lat="31.2874250" lon="35.3559350">
<ele>-112.000000</ele>
<time>2010-01-01T03:34:24.000Z</time>
</trkpt>
<trkpt lat="31.2875020" lon="35.3558720">
<ele>-112.000000</ele>
<time>2010-01-01T03:34:28.000Z</time>
</trkpt>
<trkpt lat="31.2875230" lon="35.3558430">
<ele>-111.000000</ele>
<time>2010-01-01T03:34:29.000Z</time>
</trkpt>
<trkpt lat="31.2875350" lon="35.3558300">
<ele>-111.000000</ele>
<time>2010-01-01T03:34:30.000Z</time>
</trkpt>
<trkpt lat="31.2876970" lon="35.3556050">
<ele>-107.000000</ele>
<time>2010-01-01T03:34:40.000Z</time>
</trkpt>
<trkpt lat="31.2877300" lon="35.3555820">
<ele>-106.000008</ele>
<time>2010-01-01T03:34:41.000Z</time>
</trkpt>
<trkpt lat="31.2877570" lon="35.3555580">
<ele>-106.000008</ele>
<time>2010-01-01T03:34:43.000Z</time>
</trkpt>
<trkpt lat="31.2877900" lon="35.3555150">
<ele>-105.000000</ele>
<time>2010-01-01T03:34:45.000Z</time>
</trkpt>
<trkpt lat="31.2878920" lon="35.3554370">
<ele>-103.000000</ele>
<time>2010-01-01T03:34:49.000Z</time>
</trkpt>
<trkpt lat="31.2880350" lon="35.3553580">
<ele>-102.000000</ele>
<time>2010-01-01T03:34:56.000Z</time>
</trkpt>
<trkpt lat="31.2881620" lon="35.3552670">
<ele>-100.000000</ele>
<time>2010-01-01T03:35:02.000Z</time>
</trkpt>
<trkpt lat="31.2882180" lon="35.3552170">
<ele>-99.000000</ele>
<time>2010-01-01T03:35:05.000Z</time>
</trkpt>
<trkpt lat="31.2885320" lon="35.3550650">
<ele>-96.999992</ele>
<time>2010-01-01T03:35:18.000Z</time>
</trkpt>
<trkpt lat="31.2887980" lon="35.3549970">
<ele>-96.000000</ele>
<time>2010-01-01T03:35:29.000Z</time>
</trkpt>
<trkpt lat="31.2890600" lon="35.3549030">
<ele>-95.000000</ele>
<time>2010-01-01T03:35:40.000Z</time>
</trkpt>
<trkpt lat="31.2891050" lon="35.3549270">
<ele>-95.000000</ele>
<time>2010-01-01T03:35:42.000Z</time>
</trkpt>
<trkpt lat="31.2892380" lon="35.3549380">
<ele>-94.000000</ele>
<time>2010-01-01T03:35:47.000Z</time>
</trkpt>
<trkpt lat="31.2893350" lon="35.3549850">
<ele>-94.000000</ele>
<time>2010-01-01T03:35:52.000Z</time>
</trkpt>
<trkpt lat="31.2894350" lon="35.3549980">
<ele>-94.000000</ele>
<time>2010-01-01T03:35:56.000Z</time>
</trkpt>
<trkpt lat="31.2896400" lon="35.3549800">
<ele>-91.000000</ele>
<time>2010-01-01T03:36:04.000Z</time>
</trkpt>
<trkpt lat="31.2896700" lon="35.3549600">
<ele>-91.000000</ele>
<time>2010-01-01T03:36:05.000Z</time>
</trkpt>
<trkpt lat="31.2897280" lon="35.3548930">
<ele>-90.000008</ele>
<time>2010-01-01T03:36:08.000Z</time>
</trkpt>
<trkpt lat="31.2897570" lon="35.3546900">
<ele>-87.999992</ele>
<time>2010-01-01T03:36:15.000Z</time>
</trkpt>
<trkpt lat="31.2897700" lon="35.3546520">
<ele>-87.999992</ele>
<time>2010-01-01T03:36:17.000Z</time>
</trkpt>
<trkpt lat="31.2898000" lon="35.3546050">
<ele>-87.999992</ele>
<time>2010-01-01T03:36:19.000Z</time>
</trkpt>
<trkpt lat="31.2898530" lon="35.3545870">
<ele>-87.000000</ele>
<time>2010-01-01T03:36:21.000Z</time>
</trkpt>
<trkpt lat="31.2900470" lon="35.3544520">
<ele>-85.000000</ele>
<time>2010-01-01T03:36:30.000Z</time>
</trkpt>
<trkpt lat="31.2900820" lon="35.3544380">
<ele>-86.000000</ele>
<time>2010-01-01T03:36:32.000Z</time>
</trkpt>
<trkpt lat="31.2900980" lon="35.3544570">
<ele>-85.000000</ele>
<time>2010-01-01T03:36:33.000Z</time>
</trkpt>
<trkpt lat="31.2905170" lon="35.3543750">
<ele>-85.000000</ele>
<time>2010-01-01T03:36:50.000Z</time>
</trkpt>
<trkpt lat="31.2906230" lon="35.3543300">
<ele>-84.000000</ele>
<time>2010-01-01T03:36:54.000Z</time>
</trkpt>
<trkpt lat="31.2907450" lon="35.3542530">
<ele>-84.000000</ele>
<time>2010-01-01T03:37:00.000Z</time>
</trkpt>
<trkpt lat="31.2908770" lon="35.3541430">
<ele>-82.000000</ele>
<time>2010-01-01T03:37:06.000Z</time>
</trkpt>
<trkpt lat="31.2909670" lon="35.3540550">
<ele>-80.999992</ele>
<time>2010-01-01T03:37:11.000Z</time>
</trkpt>
<trkpt lat="31.2911100" lon="35.3539380">
<ele>-79.000000</ele>
<time>2010-01-01T03:37:18.000Z</time>
</trkpt>
<trkpt lat="31.2912450" lon="35.3538750">
<ele>-79.000000</ele>
<time>2010-01-01T03:37:24.000Z</time>
</trkpt>
<trkpt lat="31.2917230" lon="35.3537180">
<ele>-78.000000</ele>
<time>2010-01-01T03:37:43.000Z</time>
</trkpt>
<trkpt lat="31.2918780" lon="35.3536550">
<ele>-79.000000</ele>
<time>2010-01-01T03:37:50.000Z</time>
</trkpt>
<trkpt lat="31.2919630" lon="35.3536130">
<ele>-80.000000</ele>
<time>2010-01-01T03:37:54.000Z</time>
</trkpt>
<trkpt lat="31.2920450" lon="35.3535500">
<ele>-80.000000</ele>
<time>2010-01-01T03:37:58.000Z</time>
</trkpt>
<trkpt lat="31.2920780" lon="35.3535030">
<ele>-80.999992</ele>
<time>2010-01-01T03:38:00.000Z</time>
</trkpt>
<trkpt lat="31.2921330" lon="35.3533950">
<ele>-82.000000</ele>
<time>2010-01-01T03:38:04.000Z</time>
</trkpt>
<trkpt lat="31.2923950" lon="35.3526220">
<ele>-82.000000</ele>
<time>2010-01-01T03:38:32.000Z</time>
</trkpt>
<trkpt lat="31.2925030" lon="35.3522330">
<ele>-82.000000</ele>
<time>2010-01-01T03:38:46.000Z</time>
</trkpt>
<trkpt lat="31.2926380" lon="35.3516100">
<ele>-79.000000</ele>
<time>2010-01-01T03:39:08.000Z</time>
</trkpt>
<trkpt lat="31.2928500" lon="35.3507730">
<ele>-74.000000</ele>
<time>2010-01-01T03:39:38.000Z</time>
</trkpt>
<trkpt lat="31.2928970" lon="35.3506570">
<ele>-75.000000</ele>
<time>2010-01-01T03:39:43.000Z</time>
</trkpt>
<trkpt lat="31.2930130" lon="35.3504280">
<ele>-74.000000</ele>
<time>2010-01-01T03:39:52.000Z</time>
</trkpt>
<trkpt lat="31.2930850" lon="35.3502530">
<ele>-72.000000</ele>
<time>2010-01-01T03:39:58.000Z</time>
</trkpt>
<trkpt lat="31.2933030" lon="35.3498050">
<ele>-73.000000</ele>
<time>2010-01-01T03:40:16.000Z</time>
</trkpt>
<trkpt lat="31.2935350" lon="35.3493000">
<ele>-74.000000</ele>
<time>2010-01-01T03:40:36.000Z</time>
</trkpt>
<trkpt lat="31.2936970" lon="35.3489120">
<ele>-73.000000</ele>
<time>2010-01-01T03:40:50.000Z</time>
</trkpt>
<trkpt lat="31.2940420" lon="35.3480150">
<ele>-70.000000</ele>
<time>2010-01-01T03:41:24.000Z</time>
</trkpt>
<trkpt lat="31.2941180" lon="35.3477730">
<ele>-68.000000</ele>
<time>2010-01-01T03:41:33.000Z</time>
</trkpt>
<trkpt lat="31.2943380" lon="35.3472170">
<ele>-66.000000</ele>
<time>2010-01-01T03:41:54.000Z</time>
</trkpt>
<trkpt lat="31.2944330" lon="35.3468700">
<ele>-66.000000</ele>
<time>2010-01-01T03:42:06.000Z</time>
</trkpt>
<trkpt lat="31.2945750" lon="35.3465070">
<ele>-66.000000</ele>
<time>2010-01-01T03:42:20.000Z</time>
</trkpt>
<trkpt lat="31.2946650" lon="35.3462520">
<ele>-65.000000</ele>
<time>2010-01-01T03:42:29.000Z</time>
</trkpt>
<trkpt lat="31.2947470" lon="35.3461430">
<ele>-65.000000</ele>
<time>2010-01-01T03:42:34.000Z</time>
</trkpt>
<trkpt lat="31.2947970" lon="35.3461080">
<ele>-64.000000</ele>
<time>2010-01-01T03:42:37.000Z</time>
</trkpt>
<trkpt lat="31.2951030" lon="35.3460100">
<ele>-65.000000</ele>
<time>2010-01-01T03:42:49.000Z</time>
</trkpt>
<trkpt lat="31.2951830" lon="35.3459570">
<ele>-65.000000</ele>
<time>2010-01-01T03:42:53.000Z</time>
</trkpt>
<trkpt lat="31.2953030" lon="35.3458270">
<ele>-65.000000</ele>
<time>2010-01-01T03:43:00.000Z</time>
</trkpt>
<trkpt lat="31.2953830" lon="35.3457670">
<ele>-65.000000</ele>
<time>2010-01-01T03:43:03.000Z</time>
</trkpt>
<trkpt lat="31.2956530" lon="35.3456770">
<ele>-66.000000</ele>
<time>2010-01-01T03:43:15.000Z</time>
</trkpt>
<trkpt lat="31.2963220" lon="35.3453670">
<ele>-63.000000</ele>
<time>2010-01-01T03:43:44.000Z</time>
</trkpt>
<trkpt lat="31.2965780" lon="35.3452620">
<ele>-62.000000</ele>
<time>2010-01-01T03:43:54.000Z</time>
</trkpt>
<trkpt lat="31.2966470" lon="35.3451670">
<ele>-61.000004</ele>
<time>2010-01-01T03:43:59.000Z</time>
</trkpt>
<trkpt lat="31.2967980" lon="35.3448650">
<ele>-58.000000</ele>
<time>2010-01-01T03:44:11.000Z</time>
</trkpt>
<trkpt lat="31.2968750" lon="35.3447820">
<ele>-57.000000</ele>
<time>2010-01-01T03:44:15.000Z</time>
</trkpt>
<trkpt lat="31.2968930" lon="35.3447680">
<ele>-57.000000</ele>
<time>2010-01-01T03:44:16.000Z</time>
</trkpt>
<trkpt lat="31.2969800" lon="35.3446930">
<ele>-56.000000</ele>
<time>2010-01-01T03:44:20.000Z</time>
</trkpt>
<trkpt lat="31.2971320" lon="35.3445930">
<ele>-54.000000</ele>
<time>2010-01-01T03:44:27.000Z</time>
</trkpt>
<trkpt lat="31.2972620" lon="35.3444480">
<ele>-53.000004</ele>
<time>2010-01-01T03:44:34.000Z</time>
</trkpt>
<trkpt lat="31.2972530" lon="35.3444600">
<ele>-53.000004</ele>
<time>2010-01-01T03:44:35.000Z</time>
</trkpt>
<trkpt lat="31.2973050" lon="35.3443950">
<ele>-53.000004</ele>
<time>2010-01-01T03:44:38.000Z</time>
</trkpt>
<trkpt lat="31.2973380" lon="35.3443720">
<ele>-53.000004</ele>
<time>2010-01-01T03:44:39.000Z</time>
</trkpt>
<trkpt lat="31.2973720" lon="35.3443470">
<ele>-53.000004</ele>
<time>2010-01-01T03:44:41.000Z</time>
</trkpt>
<trkpt lat="31.2973900" lon="35.3443230">
<ele>-53.000004</ele>
<time>2010-01-01T03:44:42.000Z</time>
</trkpt>
<trkpt lat="31.2974070" lon="35.3443070">
<ele>-53.000004</ele>
<time>2010-01-01T03:44:43.000Z</time>
</trkpt>
<trkpt lat="31.2974180" lon="35.3442920">
<ele>-51.999996</ele>
<time>2010-01-01T03:44:44.000Z</time>
</trkpt>
<trkpt lat="31.2974780" lon="35.3442250">
<ele>-51.999996</ele>
<time>2010-01-01T03:44:47.000Z</time>
</trkpt>
<trkpt lat="31.2975200" lon="35.3441920">
<ele>-51.999996</ele>
<time>2010-01-01T03:44:49.000Z</time>
</trkpt>
<trkpt lat="31.2976020" lon="35.3440820">
<ele>-51.000000</ele>
<time>2010-01-01T03:44:54.000Z</time>
</trkpt>
<trkpt lat="31.2977780" lon="35.3438050">
<ele>-48.000000</ele>
<time>2010-01-01T03:45:06.000Z</time>
</trkpt>
<trkpt lat="31.2978230" lon="35.3436800">
<ele>-48.000000</ele>
<time>2010-01-01T03:45:10.000Z</time>
</trkpt>
<trkpt lat="31.2978370" lon="35.3435970">
<ele>-47.000000</ele>
<time>2010-01-01T03:45:13.000Z</time>
</trkpt>
<trkpt lat="31.2978520" lon="35.3435570">
<ele>-47.000000</ele>
<time>2010-01-01T03:45:15.000Z</time>
</trkpt>
<trkpt lat="31.2978750" lon="35.3435250">
<ele>-47.000000</ele>
<time>2010-01-01T03:45:16.000Z</time>
</trkpt>
<trkpt lat="31.2978830" lon="35.3434430">
<ele>-47.000000</ele>
<time>2010-01-01T03:45:19.000Z</time>
</trkpt>
<trkpt lat="31.2979530" lon="35.3433280">
<ele>-48.000000</ele>
<time>2010-01-01T03:45:24.000Z</time>
</trkpt>
<trkpt lat="31.2979700" lon="35.3433120">
<ele>-48.000000</ele>
<time>2010-01-01T03:45:25.000Z</time>
</trkpt>
<trkpt lat="31.2980050" lon="35.3432600">
<ele>-48.000000</ele>
<time>2010-01-01T03:45:27.000Z</time>
</trkpt>
<trkpt lat="31.2980530" lon="35.3432200">
<ele>-48.000000</ele>
<time>2010-01-01T03:45:29.000Z</time>
</trkpt>
<trkpt lat="31.2980680" lon="35.3432080">
<ele>-47.000000</ele>
<time>2010-01-01T03:45:30.000Z</time>
</trkpt>
<trkpt lat="31.2981130" lon="35.3431500">
<ele>-47.000000</ele>
<time>2010-01-01T03:45:33.000Z</time>
</trkpt>
<trkpt lat="31.2981970" lon="35.3430730">
<ele>-47.000000</ele>
<time>2010-01-01T03:45:37.000Z</time>
</trkpt>
<trkpt lat="31.2982380" lon="35.3430250">
<ele>-47.000000</ele>
<time>2010-01-01T03:45:39.000Z</time>
</trkpt>
<trkpt lat="31.2983030" lon="35.3429820">
<ele>-47.000000</ele>
<time>2010-01-01T03:45:42.000Z</time>
</trkpt>
<trkpt lat="31.2983900" lon="35.3429180">
<ele>-47.000000</ele>
<time>2010-01-01T03:45:46.000Z</time>
</trkpt>
<trkpt lat="31.2985430" lon="35.3428280">
<ele>-47.000000</ele>
<time>2010-01-01T03:45:53.000Z</time>
</trkpt>
<trkpt lat="31.2987030" lon="35.3427150">
<ele>-45.000004</ele>
<time>2010-01-01T03:46:01.000Z</time>
</trkpt>
<trkpt lat="31.2987780" lon="35.3426450">
<ele>-45.000004</ele>
<time>2010-01-01T03:46:05.000Z</time>
</trkpt>
<trkpt lat="31.2989220" lon="35.3424600">
<ele>-43.000000</ele>
<time>2010-01-01T03:46:13.000Z</time>
</trkpt>
<trkpt lat="31.2990470" lon="35.3423650">
<ele>-42.000000</ele>
<time>2010-01-01T03:46:19.000Z</time>
</trkpt>
<trkpt lat="31.2991130" lon="35.3423230">
<ele>-42.000000</ele>
<time>2010-01-01T03:46:22.000Z</time>
</trkpt>
<trkpt lat="31.2992180" lon="35.3422680">
<ele>-42.000000</ele>
<time>2010-01-01T03:46:27.000Z</time>
</trkpt>
<trkpt lat="31.2992950" lon="35.3422570">
<ele>-42.000000</ele>
<time>2010-01-01T03:46:30.000Z</time>
</trkpt>
<trkpt lat="31.3000000" lon="35.3424870">
<ele>-41.000000</ele>
<time>2010-01-01T03:46:59.000Z</time>
</trkpt>
<trkpt lat="31.3001500" lon="35.3424820">
<ele>-40.000000</ele>
<time>2010-01-01T03:47:05.000Z</time>
</trkpt>
<trkpt lat="31.3003870" lon="35.3424080">
<ele>-38.000000</ele>
<time>2010-01-01T03:47:15.000Z</time>
</trkpt>
<trkpt lat="31.3009530" lon="35.3422830">
<ele>-37.000000</ele>
<time>2010-01-01T03:47:38.000Z</time>
</trkpt>
<trkpt lat="31.3010420" lon="35.3422350">
<ele>-37.000000</ele>
<time>2010-01-01T03:47:42.000Z</time>
</trkpt>
<trkpt lat="31.3012970" lon="35.3421980">
<ele>-36.000000</ele>
<time>2010-01-01T03:47:52.000Z</time>
</trkpt>
<trkpt lat="31.3014270" lon="35.3421580">
<ele>-36.000000</ele>
<time>2010-01-01T03:47:58.000Z</time>
</trkpt>
<trkpt lat="31.3016650" lon="35.3419700">
<ele>-35.000000</ele>
<time>2010-01-01T03:48:09.000Z</time>
</trkpt>
<trkpt lat="31.3017800" lon="35.3419100">
<ele>-34.000000</ele>
<time>2010-01-01T03:48:14.000Z</time>
</trkpt>
<trkpt lat="31.3018520" lon="35.3418650">
<ele>-33.000000</ele>
<time>2010-01-01T03:48:17.000Z</time>
</trkpt>
<trkpt lat="31.3019050" lon="35.3418120">
<ele>-33.000000</ele>
<time>2010-01-01T03:48:20.000Z</time>
</trkpt>
<trkpt lat="31.3019200" lon="35.3417900">
<ele>-32.000000</ele>
<time>2010-01-01T03:48:21.000Z</time>
</trkpt>
<trkpt lat="31.3019520" lon="35.3417430">
<ele>-32.000000</ele>
<time>2010-01-01T03:48:23.000Z</time>
</trkpt>
<trkpt lat="31.3020030" lon="35.3416630">
<ele>-31.000000</ele>
<time>2010-01-01T03:48:27.000Z</time>
</trkpt>
<trkpt lat="31.3020630" lon="35.3415850">
<ele>-31.000000</ele>
<time>2010-01-01T03:48:30.000Z</time>
</trkpt>
<trkpt lat="31.3021450" lon="35.3414380">
<ele>-31.000000</ele>
<time>2010-01-01T03:48:36.000Z</time>
</trkpt>
<trkpt lat="31.3022480" lon="35.3411820">
<ele>-29.000000</ele>
<time>2010-01-01T03:48:46.000Z</time>
</trkpt>
<trkpt lat="31.3022570" lon="35.3411570">
<ele>-29.000000</ele>
<time>2010-01-01T03:48:47.000Z</time>
</trkpt>
<trkpt lat="31.3023150" lon="35.3410770">
<ele>-29.000000</ele>
<time>2010-01-01T03:48:50.000Z</time>
</trkpt>
<trkpt lat="31.3024500" lon="35.3410020">
<ele>-29.000000</ele>
<time>2010-01-01T03:48:56.000Z</time>
</trkpt>
<trkpt lat="31.3026500" lon="35.3410050">
<ele>-30.000000</ele>
<time>2010-01-01T03:49:04.000Z</time>
</trkpt>
<trkpt lat="31.3027150" lon="35.3409820">
<ele>-30.000000</ele>
<time>2010-01-01T03:49:07.000Z</time>
</trkpt>
<trkpt lat="31.3028720" lon="35.3409030">
<ele>-29.000000</ele>
<time>2010-01-01T03:49:14.000Z</time>
</trkpt>
<trkpt lat="31.3030150" lon="35.3408030">
<ele>-27.000000</ele>
<time>2010-01-01T03:49:21.000Z</time>
</trkpt>
<trkpt lat="31.3030300" lon="35.3407920">
<ele>-27.000000</ele>
<time>2010-01-01T03:49:21.000Z</time>
</trkpt>
<trkpt lat="31.3030570" lon="35.3407630">
<ele>-25.999998</ele>
<time>2010-01-01T03:49:23.000Z</time>
</trkpt>
<trkpt lat="31.3030680" lon="35.3407500">
<ele>-25.999998</ele>
<time>2010-01-01T03:49:23.000Z</time>
</trkpt>
<trkpt lat="31.3031220" lon="35.3406470">
<ele>-25.999998</ele>
<time>2010-01-01T03:49:28.000Z</time>
</trkpt>
<trkpt lat="31.3031270" lon="35.3405130">
<ele>-25.999998</ele>
<time>2010-01-01T03:49:32.000Z</time>
</trkpt>
<trkpt lat="31.3030570" lon="35.3398520">
<ele>-25.000000</ele>
<time>2010-01-01T03:49:55.000Z</time>
</trkpt>
<trkpt lat="31.3030780" lon="35.3393150">
<ele>-23.000000</ele>
<time>2010-01-01T03:50:13.000Z</time>
</trkpt>
<trkpt lat="31.3030280" lon="35.3384650">
<ele>-21.999998</ele>
<time>2010-01-01T03:50:42.000Z</time>
</trkpt>
<trkpt lat="31.3030670" lon="35.3376720">
<ele>-21.999998</ele>
<time>2010-01-01T03:51:10.000Z</time>
</trkpt>
<trkpt lat="31.3031030" lon="35.3375580">
<ele>-21.999998</ele>
<time>2010-01-01T03:51:14.000Z</time>
</trkpt>
<trkpt lat="31.3032170" lon="35.3373480">
<ele>-21.000000</ele>
<time>2010-01-01T03:51:22.000Z</time>
</trkpt>
<trkpt lat="31.3032750" lon="35.3372120">
<ele>-20.000000</ele>
<time>2010-01-01T03:51:27.000Z</time>
</trkpt>
<trkpt lat="31.3033250" lon="35.3371420">
<ele>-19.000000</ele>
<time>2010-01-01T03:51:31.000Z</time>
</trkpt>
<trkpt lat="31.3033650" lon="35.3371100">
<ele>-19.000000</ele>
<time>2010-01-01T03:51:33.000Z</time>
</trkpt>
<trkpt lat="31.3034320" lon="35.3370800">
<ele>-18.000000</ele>
<time>2010-01-01T03:51:35.000Z</time>
</trkpt>
<trkpt lat="31.3035730" lon="35.3370900">
<ele>-18.000000</ele>
<time>2010-01-01T03:51:41.000Z</time>
</trkpt>
<trkpt lat="31.3038780" lon="35.3369980">
<ele>-17.000000</ele>
<time>2010-01-01T03:51:54.000Z</time>
</trkpt>
<trkpt lat="31.3039250" lon="35.3369700">
<ele>-17.000000</ele>
<time>2010-01-01T03:51:56.000Z</time>
</trkpt>
<trkpt lat="31.3039870" lon="35.3369100">
<ele>-17.000000</ele>
<time>2010-01-01T03:51:59.000Z</time>
</trkpt>
<trkpt lat="31.3040900" lon="35.3367920">
<ele>-16.000000</ele>
<time>2010-01-01T03:52:05.000Z</time>
</trkpt>
<trkpt lat="31.3041530" lon="35.3367030">
<ele>-16.000000</ele>
<time>2010-01-01T03:52:09.000Z</time>
</trkpt>
<trkpt lat="31.3041820" lon="35.3366700">
<ele>-15.000000</ele>
<time>2010-01-01T03:52:10.000Z</time>
</trkpt>
<trkpt lat="31.3042520" lon="35.3366050">
<ele>-14.000000</ele>
<time>2010-01-01T03:52:14.000Z</time>
</trkpt>
<trkpt lat="31.3043070" lon="35.3365730">
<ele>-12.999999</ele>
<time>2010-01-01T03:52:16.000Z</time>
</trkpt>
<trkpt lat="31.3044070" lon="35.3365500">
<ele>-12.000000</ele>
<time>2010-01-01T03:52:20.000Z</time>
</trkpt>
<trkpt lat="31.3044950" lon="35.3365900">
<ele>-12.000000</ele>
<time>2010-01-01T03:52:24.000Z</time>
</trkpt>
<trkpt lat="31.3045600" lon="35.3366580">
<ele>-12.999999</ele>
<time>2010-01-01T03:52:28.000Z</time>
</trkpt>
<trkpt lat="31.3045750" lon="35.3367080">
<ele>-12.999999</ele>
<time>2010-01-01T03:52:30.000Z</time>
</trkpt>
<trkpt lat="31.3046450" lon="35.3368430">
<ele>-14.000000</ele>
<time>2010-01-01T03:52:35.000Z</time>
</trkpt>
<trkpt lat="31.3046720" lon="35.3368700">
<ele>-14.000000</ele>
<time>2010-01-01T03:52:36.000Z</time>
</trkpt>
<trkpt lat="31.3047450" lon="35.3369530">
<ele>-14.000000</ele>
<time>2010-01-01T03:52:40.000Z</time>
</trkpt>
<trkpt lat="31.3047780" lon="35.3369850">
<ele>-14.000000</ele>
<time>2010-01-01T03:52:42.000Z</time>
</trkpt>
<trkpt lat="31.3048080" lon="35.3370180">
<ele>-14.000000</ele>
<time>2010-01-01T03:52:44.000Z</time>
</trkpt>
<trkpt lat="31.3049020" lon="35.3370530">
<ele>-14.000000</ele>
<time>2010-01-01T03:52:48.000Z</time>
</trkpt>
<trkpt lat="31.3050470" lon="35.3370770">
<ele>-12.999999</ele>
<time>2010-01-01T03:52:54.000Z</time>
</trkpt>
<trkpt lat="31.3059100" lon="35.3370550">
<ele>-10.000000</ele>
<time>2010-01-01T03:53:28.000Z</time>
</trkpt>
<trkpt lat="31.3061900" lon="35.3369620">
<ele>-8.000000</ele>
<time>2010-01-01T03:53:40.000Z</time>
</trkpt>
<trkpt lat="31.3062130" lon="35.3369480">
<ele>-7.000000</ele>
<time>2010-01-01T03:53:41.000Z</time>
</trkpt>
<trkpt lat="31.3062380" lon="35.3369320">
<ele>-7.000000</ele>
<time>2010-01-01T03:53:42.000Z</time>
</trkpt>
<trkpt lat="31.3063030" lon="35.3368470">
<ele>-5.000000</ele>
<time>2010-01-01T03:53:46.000Z</time>
</trkpt>
<trkpt lat="31.3063250" lon="35.3368130">
<ele>-5.000000</ele>
<time>2010-01-01T03:53:47.000Z</time>
</trkpt>
<trkpt lat="31.3063550" lon="35.3367580">
<ele>-4.000000</ele>
<time>2010-01-01T03:53:50.000Z</time>
</trkpt>
<trkpt lat="31.3064400" lon="35.3366570">
<ele>-3.000000</ele>
<time>2010-01-01T03:53:54.000Z</time>
</trkpt>
<trkpt lat="31.3064700" lon="35.3366250">
<ele>-3.000000</ele>
<time>2010-01-01T03:53:56.000Z</time>
</trkpt>
<trkpt lat="31.3065700" lon="35.3365700">
<ele>-2.000000</ele>
<time>2010-01-01T03:54:00.000Z</time>
</trkpt>
<trkpt lat="31.3068680" lon="35.3365000">
<ele>-1.000000</ele>
<time>2010-01-01T03:54:13.000Z</time>
</trkpt>
<trkpt lat="31.3069980" lon="35.3365030">
<ele>0.000000</ele>
<time>2010-01-01T03:54:18.000Z</time>
</trkpt>
<trkpt lat="31.3072170" lon="35.3365630">
<ele>0.000000</ele>
<time>2010-01-01T03:54:27.000Z</time>
</trkpt>
<trkpt lat="31.3073850" lon="35.3366230">
<ele>0.000000</ele>
<time>2010-01-01T03:54:34.000Z</time>
</trkpt>
<trkpt lat="31.3075050" lon="35.3367050">
<ele>1.000000</ele>
<time>2010-01-01T03:54:39.000Z</time>
</trkpt>
<trkpt lat="31.3076480" lon="35.3368800">
<ele>2.000000</ele>
<time>2010-01-01T03:54:48.000Z</time>
</trkpt>
<trkpt lat="31.3077300" lon="35.3369330">
<ele>3.000000</ele>
<time>2010-01-01T03:54:51.000Z</time>
</trkpt>
<trkpt lat="31.3078020" lon="35.3369900">
<ele>4.000000</ele>
<time>2010-01-01T03:54:55.000Z</time>
</trkpt>
<trkpt lat="31.3078930" lon="35.3370500">
<ele>4.000000</ele>
<time>2010-01-01T03:54:59.000Z</time>
</trkpt>
<trkpt lat="31.3079220" lon="35.3370780">
<ele>4.000000</ele>
<time>2010-01-01T03:55:01.000Z</time>
</trkpt>
<trkpt lat="31.3080530" lon="35.3371680">
<ele>3.000000</ele>
<time>2010-01-01T03:55:07.000Z</time>
</trkpt>
<trkpt lat="31.3082080" lon="35.3372570">
<ele>2.000000</ele>
<time>2010-01-01T03:55:14.000Z</time>
</trkpt>
<trkpt lat="31.3084920" lon="35.3374500">
<ele>1.000000</ele>
<time>2010-01-01T03:55:27.000Z</time>
</trkpt>
<trkpt lat="31.3085250" lon="35.3374820">
<ele>1.000000</ele>
<time>2010-01-01T03:55:29.000Z</time>
</trkpt>
<trkpt lat="31.3086220" lon="35.3376130">
<ele>2.000000</ele>
<time>2010-01-01T03:55:34.000Z</time>
</trkpt>
<trkpt lat="31.3087070" lon="35.3377080">
<ele>4.000000</ele>
<time>2010-01-01T03:55:39.000Z</time>
</trkpt>
<trkpt lat="31.3087630" lon="35.3377900">
<ele>5.000000</ele>
<time>2010-01-01T03:55:43.000Z</time>
</trkpt>
<trkpt lat="31.3088930" lon="35.3379330">
<ele>6.000000</ele>
<time>2010-01-01T03:55:50.000Z</time>
</trkpt>
<trkpt lat="31.3089580" lon="35.3380180">
<ele>6.000000</ele>
<time>2010-01-01T03:55:54.000Z</time>
</trkpt>
<trkpt lat="31.3090330" lon="35.3380950">
<ele>6.000000</ele>
<time>2010-01-01T03:55:58.000Z</time>
</trkpt>
<trkpt lat="31.3091120" lon="35.3382300">
<ele>6.000000</ele>
<time>2010-01-01T03:56:03.000Z</time>
</trkpt>
<trkpt lat="31.3091900" lon="35.3383470">
<ele>6.000000</ele>
<time>2010-01-01T03:56:08.000Z</time>
</trkpt>
<trkpt lat="31.3093120" lon="35.3385500">
<ele>6.000000</ele>
<time>2010-01-01T03:56:17.000Z</time>
</trkpt>
<trkpt lat="31.3093400" lon="35.3385830">
<ele>6.000000</ele>
<time>2010-01-01T03:56:19.000Z</time>
</trkpt>
<trkpt lat="31.3094170" lon="35.3386470">
<ele>6.000000</ele>
<time>2010-01-01T03:56:22.000Z</time>
</trkpt>
<trkpt lat="31.3095380" lon="35.3387130">
<ele>8.000000</ele>
<time>2010-01-01T03:56:28.000Z</time>
</trkpt>
<trkpt lat="31.3097200" lon="35.3387630">
<ele>9.000000</ele>
<time>2010-01-01T03:56:35.000Z</time>
</trkpt>
<trkpt lat="31.3099080" lon="35.3387300">
<ele>12.000000</ele>
<time>2010-01-01T03:56:43.000Z</time>
</trkpt>
<trkpt lat="31.3099380" lon="35.3386980">
<ele>12.999999</ele>
<time>2010-01-01T03:56:44.000Z</time>
</trkpt>
<trkpt lat="31.3099930" lon="35.3385900">
<ele>12.999999</ele>
<time>2010-01-01T03:56:49.000Z</time>
</trkpt>
<trkpt lat="31.3100750" lon="35.3384720">
<ele>14.000000</ele>
<time>2010-01-01T03:56:54.000Z</time>
</trkpt>
<trkpt lat="31.3100920" lon="35.3384480">
<ele>14.000000</ele>
<time>2010-01-01T03:56:55.000Z</time>
</trkpt>
<trkpt lat="31.3101180" lon="35.3384100">
<ele>14.000000</ele>
<time>2010-01-01T03:56:57.000Z</time>
</trkpt>
<trkpt lat="31.3101430" lon="35.3383820">
<ele>15.000000</ele>
<time>2010-01-01T03:56:58.000Z</time>
</trkpt>
<trkpt lat="31.3101770" lon="35.3383580">
<ele>15.000000</ele>
<time>2010-01-01T03:57:00.000Z</time>
</trkpt>
<trkpt lat="31.3102400" lon="35.3382880">
<ele>16.000000</ele>
<time>2010-01-01T03:57:03.000Z</time>
</trkpt>
<trkpt lat="31.3103730" lon="35.3382200">
<ele>18.000000</ele>
<time>2010-01-01T03:57:09.000Z</time>
</trkpt>
<trkpt lat="31.3107170" lon="35.3380970">
<ele>23.000000</ele>
<time>2010-01-01T03:57:23.000Z</time>
</trkpt>
<trkpt lat="31.3107630" lon="35.3380000">
<ele>23.000000</ele>
<time>2010-01-01T03:57:27.000Z</time>
</trkpt>
<trkpt lat="31.3107830" lon="35.3378870">
<ele>23.000000</ele>
<time>2010-01-01T03:57:31.000Z</time>
</trkpt>
<trkpt lat="31.3108670" lon="35.3376530">
<ele>21.999998</ele>
<time>2010-01-01T03:57:40.000Z</time>
</trkpt>
<trkpt lat="31.3109270" lon="35.3375450">
<ele>23.000000</ele>
<time>2010-01-01T03:57:44.000Z</time>
</trkpt>
<trkpt lat="31.3109800" lon="35.3374780">
<ele>23.000000</ele>
<time>2010-01-01T03:57:47.000Z</time>
</trkpt>
<trkpt lat="31.3111220" lon="35.3373550">
<ele>24.000000</ele>
<time>2010-01-01T03:57:54.000Z</time>
</trkpt>
<trkpt lat="31.3112150" lon="35.3372950">
<ele>24.000000</ele>
<time>2010-01-01T03:57:59.000Z</time>
</trkpt>
<trkpt lat="31.3115250" lon="35.3372620">
<ele>25.000000</ele>
<time>2010-01-01T03:58:11.000Z</time>
</trkpt>
<trkpt lat="31.3115670" lon="35.3372400">
<ele>25.000000</ele>
<time>2010-01-01T03:58:13.000Z</time>
</trkpt>
<trkpt lat="31.3116130" lon="35.3372030">
<ele>25.000000</ele>
<time>2010-01-01T03:58:15.000Z</time>
</trkpt>
<trkpt lat="31.3117070" lon="35.3371570">
<ele>25.000000</ele>
<time>2010-01-01T03:58:19.000Z</time>
</trkpt>
<trkpt lat="31.3119080" lon="35.3371880">
<ele>28.000000</ele>
<time>2010-01-01T03:58:27.000Z</time>
</trkpt>
<trkpt lat="31.3121520" lon="35.3371570">
<ele>31.000000</ele>
<time>2010-01-01T03:58:37.000Z</time>
</trkpt>
<trkpt lat="31.3123050" lon="35.3371970">
<ele>34.000000</ele>
<time>2010-01-01T03:58:43.000Z</time>
</trkpt>
<trkpt lat="31.3123870" lon="35.3372000">
<ele>35.000000</ele>
<time>2010-01-01T03:58:47.000Z</time>
</trkpt>
<trkpt lat="31.3124270" lon="35.3371780">
<ele>36.000000</ele>
<time>2010-01-01T03:58:48.000Z</time>
</trkpt>
<trkpt lat="31.3124870" lon="35.3371080">
<ele>36.000000</ele>
<time>2010-01-01T03:58:52.000Z</time>
</trkpt>
<trkpt lat="31.3125830" lon="35.3369720">
<ele>37.000000</ele>
<time>2010-01-01T03:58:58.000Z</time>
</trkpt>
<trkpt lat="31.3125920" lon="35.3369600">
<ele>37.000000</ele>
<time>2010-01-01T03:58:58.000Z</time>
</trkpt>
<trkpt lat="31.3126220" lon="35.3369320">
<ele>38.000000</ele>
<time>2010-01-01T03:59:00.000Z</time>
</trkpt>
<trkpt lat="31.3126820" lon="35.3368830">
<ele>39.000000</ele>
<time>2010-01-01T03:59:03.000Z</time>
</trkpt>
<trkpt lat="31.3127630" lon="35.3368530">
<ele>41.000000</ele>
<time>2010-01-01T03:59:06.000Z</time>
</trkpt>
<trkpt lat="31.3128500" lon="35.3368920">
<ele>42.000000</ele>
<time>2010-01-01T03:59:10.000Z</time>
</trkpt>
<trkpt lat="31.3129200" lon="35.3369950">
<ele>43.999996</ele>
<time>2010-01-01T03:59:14.000Z</time>
</trkpt>
<trkpt lat="31.3129530" lon="35.3370720">
<ele>45.000004</ele>
<time>2010-01-01T03:59:17.000Z</time>
</trkpt>
<trkpt lat="31.3129720" lon="35.3371020">
<ele>45.000004</ele>
<time>2010-01-01T03:59:19.000Z</time>
</trkpt>
<trkpt lat="31.3129850" lon="35.3371820">
<ele>46.000000</ele>
<time>2010-01-01T03:59:21.000Z</time>
</trkpt>
<trkpt lat="31.3130920" lon="35.3373480">
<ele>48.000000</ele>
<time>2010-01-01T03:59:29.000Z</time>
</trkpt>
<trkpt lat="31.3131420" lon="35.3374200">
<ele>48.000000</ele>
<time>2010-01-01T03:59:32.000Z</time>
</trkpt>
<trkpt lat="31.3132250" lon="35.3374830">
<ele>49.000000</ele>
<time>2010-01-01T03:59:36.000Z</time>
</trkpt>
<trkpt lat="31.3132350" lon="35.3374980">
<ele>49.000000</ele>
<time>2010-01-01T03:59:36.000Z</time>
</trkpt>
<trkpt lat="31.3132980" lon="35.3375570">
<ele>50.000000</ele>
<time>2010-01-01T03:59:40.000Z</time>
</trkpt>
<trkpt lat="31.3133180" lon="35.3375800">
<ele>50.000000</ele>
<time>2010-01-01T03:59:41.000Z</time>
</trkpt>
<trkpt lat="31.3134050" lon="35.3377170">
<ele>51.000000</ele>
<time>2010-01-01T03:59:47.000Z</time>
</trkpt>
<trkpt lat="31.3134250" lon="35.3377370">
<ele>51.999996</ele>
<time>2010-01-01T03:59:48.000Z</time>
</trkpt>
<trkpt lat="31.3135550" lon="35.3377970">
<ele>54.000000</ele>
<time>2010-01-01T03:59:53.000Z</time>
</trkpt>
<trkpt lat="31.3136130" lon="35.3378420">
<ele>56.000000</ele>
<time>2010-01-01T03:59:56.000Z</time>
</trkpt>
<trkpt lat="31.3136900" lon="35.3379680">
<ele>59.000000</ele>
<time>2010-01-01T04:00:01.000Z</time>
</trkpt>
<trkpt lat="31.3137230" lon="35.3381030">
<ele>60.000000</ele>
<time>2010-01-01T04:00:06.000Z</time>
</trkpt>
<trkpt lat="31.3137420" lon="35.3381600">
<ele>61.000004</ele>
<time>2010-01-01T04:00:08.000Z</time>
</trkpt>
<trkpt lat="31.3137720" lon="35.3381830">
<ele>62.000000</ele>
<time>2010-01-01T04:00:10.000Z</time>
</trkpt>
<trkpt lat="31.3138130" lon="35.3382230">
<ele>62.000000</ele>
<time>2010-01-01T04:00:12.000Z</time>
</trkpt>
<trkpt lat="31.3139320" lon="35.3382680">
<ele>63.000000</ele>
<time>2010-01-01T04:00:17.000Z</time>
</trkpt>
<trkpt lat="31.3141730" lon="35.3382870">
<ele>63.000000</ele>
<time>2010-01-01T04:00:26.000Z</time>
</trkpt>
<trkpt lat="31.3142020" lon="35.3382870">
<ele>63.000000</ele>
<time>2010-01-01T04:00:28.000Z</time>
</trkpt>
<trkpt lat="31.3142380" lon="35.3382570">
<ele>63.000000</ele>
<time>2010-01-01T04:00:29.000Z</time>
</trkpt>
<trkpt lat="31.3143000" lon="35.3382700">
<ele>62.000000</ele>
<time>2010-01-01T04:00:32.000Z</time>
</trkpt>
<trkpt lat="31.3144020" lon="35.3382400">
<ele>61.000004</ele>
<time>2010-01-01T04:00:36.000Z</time>
</trkpt>
<trkpt lat="31.3149030" lon="35.3382580">
<ele>59.000000</ele>
<time>2010-01-01T04:00:56.000Z</time>
</trkpt>
<trkpt lat="31.3150320" lon="35.3382850">
<ele>59.000000</ele>
<time>2010-01-01T04:01:01.000Z</time>
</trkpt>
<trkpt lat="31.3150950" lon="35.3383250">
<ele>59.000000</ele>
<time>2010-01-01T04:01:04.000Z</time>
</trkpt>
<trkpt lat="31.3151400" lon="35.3384120">
<ele>59.000000</ele>
<time>2010-01-01T04:01:08.000Z</time>
</trkpt>
<trkpt lat="31.3152030" lon="35.3384580">
<ele>58.000000</ele>
<time>2010-01-01T04:01:11.000Z</time>
</trkpt>
<trkpt lat="31.3152750" lon="35.3384920">
<ele>58.000000</ele>
<time>2010-01-01T04:01:14.000Z</time>
</trkpt>
<trkpt lat="31.3153620" lon="35.3385730">
<ele>57.000000</ele>
<time>2010-01-01T04:01:18.000Z</time>
</trkpt>
<trkpt lat="31.3153970" lon="35.3386400">
<ele>57.000000</ele>
<time>2010-01-01T04:01:21.000Z</time>
</trkpt>
<trkpt lat="31.3155900" lon="35.3395370">
<ele>49.000000</ele>
<time>2010-01-01T04:01:53.000Z</time>
</trkpt>
<trkpt lat="31.3155900" lon="35.3396020">
<ele>49.000000</ele>
<time>2010-01-01T04:01:55.000Z</time>
</trkpt>
<trkpt lat="31.3155500" lon="35.3397800">
<ele>47.000000</ele>
<time>2010-01-01T04:02:01.000Z</time>
</trkpt>
<trkpt lat="31.3152850" lon="35.3402970">
<ele>42.000000</ele>
<time>2010-01-01T04:02:22.000Z</time>
</trkpt>
<trkpt lat="31.3152620" lon="35.3404630">
<ele>41.000000</ele>
<time>2010-01-01T04:02:27.000Z</time>
</trkpt>
<trkpt lat="31.3152680" lon="35.3405500">
<ele>41.000000</ele>
<time>2010-01-01T04:02:30.000Z</time>
</trkpt>
<trkpt lat="31.3153080" lon="35.3406780">
<ele>39.000000</ele>
<time>2010-01-01T04:02:35.000Z</time>
</trkpt>
<trkpt lat="31.3153630" lon="35.3407800">
<ele>38.000000</ele>
<time>2010-01-01T04:02:39.000Z</time>
</trkpt>
<trkpt lat="31.3154680" lon="35.3408220">
<ele>38.000000</ele>
<time>2010-01-01T04:02:44.000Z</time>
</trkpt>
<trkpt lat="31.3156200" lon="35.3408020">
<ele>38.000000</ele>
<time>2010-01-01T04:02:50.000Z</time>
</trkpt>
<trkpt lat="31.3157030" lon="35.3407620">
<ele>38.000000</ele>
<time>2010-01-01T04:02:53.000Z</time>
</trkpt>
<trkpt lat="31.3158650" lon="35.3407100">
<ele>38.000000</ele>
<time>2010-01-01T04:03:00.000Z</time>
</trkpt>
<trkpt lat="31.3159380" lon="35.3406320">
<ele>39.000000</ele>
<time>2010-01-01T04:03:04.000Z</time>
</trkpt>
<trkpt lat="31.3160450" lon="35.3406180">
<ele>39.000000</ele>
<time>2010-01-01T04:03:08.000Z</time>
</trkpt>
<trkpt lat="31.3160750" lon="35.3406530">
<ele>40.000000</ele>
<time>2010-01-01T04:03:10.000Z</time>
</trkpt>
<trkpt lat="31.3160980" lon="35.3407500">
<ele>40.000000</ele>
<time>2010-01-01T04:03:14.000Z</time>
</trkpt>
<trkpt lat="31.3160820" lon="35.3408430">
<ele>40.000000</ele>
<time>2010-01-01T04:03:17.000Z</time>
</trkpt>
<trkpt lat="31.3160680" lon="35.3408900">
<ele>40.000000</ele>
<time>2010-01-01T04:03:19.000Z</time>
</trkpt>
<trkpt lat="31.3160500" lon="35.3409270">
<ele>40.000000</ele>
<time>2010-01-01T04:03:20.000Z</time>
</trkpt>
<trkpt lat="31.3160020" lon="35.3409880">
<ele>40.000000</ele>
<time>2010-01-01T04:03:23.000Z</time>
</trkpt>
<trkpt lat="31.3159480" lon="35.3411730">
<ele>39.000000</ele>
<time>2010-01-01T04:03:29.000Z</time>
</trkpt>
<trkpt lat="31.3159420" lon="35.3412770">
<ele>39.000000</ele>
<time>2010-01-01T04:03:33.000Z</time>
</trkpt>
<trkpt lat="31.3159430" lon="35.3413070">
<ele>39.000000</ele>
<time>2010-01-01T04:03:34.000Z</time>
</trkpt>
<trkpt lat="31.3159480" lon="35.3413450">
<ele>39.000000</ele>
<time>2010-01-01T04:03:35.000Z</time>
</trkpt>
<trkpt lat="31.3160000" lon="35.3414280">
<ele>40.000000</ele>
<time>2010-01-01T04:03:39.000Z</time>
</trkpt>
<trkpt lat="31.3161180" lon="35.3414870">
<ele>42.000000</ele>
<time>2010-01-01T04:03:44.000Z</time>
</trkpt>
<trkpt lat="31.3162570" lon="35.3415150">
<ele>43.999996</ele>
<time>2010-01-01T04:03:50.000Z</time>
</trkpt>
<trkpt lat="31.3165980" lon="35.3414980">
<ele>47.000000</ele>
<time>2010-01-01T04:04:03.000Z</time>
</trkpt>
<trkpt lat="31.3166750" lon="35.3414670">
<ele>48.000000</ele>
<time>2010-01-01T04:04:07.000Z</time>
</trkpt>
<trkpt lat="31.3167400" lon="35.3413920">
<ele>48.000000</ele>
<time>2010-01-01T04:04:10.000Z</time>
</trkpt>
<trkpt lat="31.3167870" lon="35.3413900">
<ele>49.000000</ele>
<time>2010-01-01T04:04:12.000Z</time>
</trkpt>
<trkpt lat="31.3169020" lon="35.3413020">
<ele>49.000000</ele>
<time>2010-01-01T04:04:18.000Z</time>
</trkpt>
<trkpt lat="31.3169600" lon="35.3411980">
<ele>51.000000</ele>
<time>2010-01-01T04:04:22.000Z</time>
</trkpt>
<trkpt lat="31.3169650" lon="35.3411870">
<ele>51.000000</ele>
<time>2010-01-01T04:04:22.000Z</time>
</trkpt>
<trkpt lat="31.3171620" lon="35.3410670">
<ele>51.999996</ele>
<time>2010-01-01T04:04:31.000Z</time>
</trkpt>
<trkpt lat="31.3173670" lon="35.3410200">
<ele>51.999996</ele>
<time>2010-01-01T04:04:40.000Z</time>
</trkpt>
<trkpt lat="31.3176020" lon="35.3410170">
<ele>51.999996</ele>
<time>2010-01-01T04:04:49.000Z</time>
</trkpt>
<trkpt lat="31.3177950" lon="35.3410550">
<ele>53.000004</ele>
<time>2010-01-01T04:04:57.000Z</time>
</trkpt>
<trkpt lat="31.3181050" lon="35.3409780">
<ele>54.000000</ele>
<time>2010-01-01T04:05:10.000Z</time>
</trkpt>
<trkpt lat="31.3184100" lon="35.3409820">
<ele>56.000000</ele>
<time>2010-01-01T04:05:22.000Z</time>
</trkpt>
<trkpt lat="31.3184980" lon="35.3409620">
<ele>57.000000</ele>
<time>2010-01-01T04:05:25.000Z</time>
</trkpt>
<trkpt lat="31.3187170" lon="35.3410000">
<ele>58.000000</ele>
<time>2010-01-01T04:05:34.000Z</time>
</trkpt>
<trkpt lat="31.3188270" lon="35.3410030">
<ele>58.000000</ele>
<time>2010-01-01T04:05:39.000Z</time>
</trkpt>
<trkpt lat="31.3194700" lon="35.3411480">
<ele>60.000000</ele>
<time>2010-01-01T04:06:05.000Z</time>
</trkpt>
<trkpt lat="31.3195020" lon="35.3411630">
<ele>61.000004</ele>
<time>2010-01-01T04:06:06.000Z</time>
</trkpt>
<trkpt lat="31.3195470" lon="35.3412050">
<ele>61.000004</ele>
<time>2010-01-01T04:06:08.000Z</time>
</trkpt>
<trkpt lat="31.3195980" lon="35.3412650">
<ele>61.000004</ele>
<time>2010-01-01T04:06:11.000Z</time>
</trkpt>
<trkpt lat="31.3196320" lon="35.3412880">
<ele>61.000004</ele>
<time>2010-01-01T04:06:13.000Z</time>
</trkpt>
<trkpt lat="31.3196520" lon="35.3413150">
<ele>61.000004</ele>
<time>2010-01-01T04:06:14.000Z</time>
</trkpt>
<trkpt lat="31.3196720" lon="35.3413270">
<ele>61.000004</ele>
<time>2010-01-01T04:06:15.000Z</time>
</trkpt>
<trkpt lat="31.3196620" lon="35.3413250">
<ele>61.000004</ele>
<time>2010-01-01T04:06:15.000Z</time>
</trkpt>
<trkpt lat="31.3199367" lon="35.3413396">
<ele>62.000000</ele>
<time>2010-01-01T04:06:26.000Z</time>
</trkpt>
<trkpt lat="31.3202300" lon="35.3411465">
<ele>63.000000</ele>
<time>2010-01-01T04:06:40.000Z</time>
</trkpt>
<trkpt lat="31.3209083" lon="35.3410821">
<ele>64.000000</ele>
<time>2010-01-01T04:07:07.000Z</time>
</trkpt>
<trkpt lat="31.3216231" lon="35.3412967">
<ele>67.000000</ele>
<time>2010-01-01T04:07:37.000Z</time>
</trkpt>
<trkpt lat="31.3224663" lon="35.3412753">
<ele>73.000000</ele>
<time>2010-01-01T04:08:10.000Z</time>
</trkpt>
<trkpt lat="31.3230712" lon="35.3415971">
<ele>74.000000</ele>
<time>2010-01-01T04:08:37.000Z</time>
</trkpt>
<trkpt lat="31.3233095" lon="35.3423696">
<ele>69.000000</ele>
<time>2010-01-01T04:09:05.000Z</time>
</trkpt>
<trkpt lat="31.3236211" lon="35.3431421">
<ele>71.000000</ele>
<time>2010-01-01T04:09:34.000Z</time>
</trkpt>
<trkpt lat="31.3245926" lon="35.3433996">
<ele>64.000000</ele>
<time>2010-01-01T04:10:14.000Z</time>
</trkpt>
<trkpt lat="31.3251975" lon="35.3435069">
<ele>60.000000</ele>
<time>2010-01-01T04:10:39.000Z</time>
</trkpt>
<trkpt lat="31.3259490" lon="35.3448158">
<ele>59.000000</ele>
<time>2010-01-01T04:11:33.000Z</time>
</trkpt>
<trkpt lat="31.3261923" lon="35.3453350">
<ele>51.999996</ele>
<time>2010-01-01T04:11:53.000Z</time>
</trkpt>
<trkpt lat="31.3262611" lon="35.3456246">
<ele>45.000004</ele>
<time>2010-01-01T04:12:03.000Z</time>
</trkpt>
<trkpt lat="31.3264169" lon="35.3457266">
<ele>42.000000</ele>
<time>2010-01-01T04:12:10.000Z</time>
</trkpt>
<trkpt lat="31.3264902" lon="35.3459519">
<ele>38.000000</ele>
<time>2010-01-01T04:12:19.000Z</time>
</trkpt>
<trkpt lat="31.3266185" lon="35.3461343">
<ele>33.000000</ele>
<time>2010-01-01T04:12:27.000Z</time>
</trkpt>
<trkpt lat="31.3266689" lon="35.3466439">
<ele>23.000000</ele>
<time>2010-01-01T04:12:44.000Z</time>
</trkpt>
<trkpt lat="31.3265772" lon="35.3461289">
<ele>33.000000</ele>
<time>2010-01-01T04:13:02.000Z</time>
</trkpt>
<trkpt lat="31.3258207" lon="35.3446012">
<ele>60.000000</ele>
<time>2010-01-01T04:14:03.000Z</time>
</trkpt>
<trkpt lat="31.3254358" lon="35.3438931">
<ele>61.000004</ele>
<time>2010-01-01T04:14:31.000Z</time>
</trkpt>
<trkpt lat="31.3251979" lon="35.3435754">
<ele>61.000004</ele>
<time>2010-01-01T04:14:46.000Z</time>
</trkpt>
<trkpt lat="31.3249959" lon="35.3435069">
<ele>62.000000</ele>
<time>2010-01-01T04:14:54.000Z</time>
</trkpt>
<trkpt lat="31.3243543" lon="35.3433352">
<ele>65.000000</ele>
<time>2010-01-01T04:15:20.000Z</time>
</trkpt>
<trkpt lat="31.3235662" lon="35.3429704">
<ele>70.000000</ele>
<time>2010-01-01T04:15:54.000Z</time>
</trkpt>
<trkpt lat="31.3231446" lon="35.3420907">
<ele>74.000000</ele>
<time>2010-01-01T04:16:29.000Z</time>
</trkpt>
<trkpt lat="31.3228879" lon="35.3414684">
<ele>75.000000</ele>
<time>2010-01-01T04:16:53.000Z</time>
</trkpt>
<trkpt lat="31.3220631" lon="35.3412753">
<ele>69.000000</ele>
<time>2010-01-01T04:17:26.000Z</time>
</trkpt>
<trkpt lat="31.3212932" lon="35.3411036">
<ele>66.000000</ele>
<time>2010-01-01T04:17:58.000Z</time>
</trkpt>
<trkpt lat="31.3206700" lon="35.3409963">
<ele>64.000000</ele>
<time>2010-01-01T04:18:23.000Z</time>
</trkpt>
<trkpt lat="31.3201384" lon="35.3411894">
<ele>63.000000</ele>
<time>2010-01-01T04:18:45.000Z</time>
</trkpt>
<trkpt lat="31.3194601" lon="35.3414684">
<ele>59.000000</ele>
<time>2010-01-01T04:19:14.000Z</time>
</trkpt>
<trkpt lat="31.3189835" lon="35.3422623">
<ele>51.999996</ele>
<time>2010-01-01T04:19:47.000Z</time>
</trkpt>
<trkpt lat="31.3185436" lon="35.3428202">
<ele>46.000000</ele>
<time>2010-01-01T04:20:13.000Z</time>
</trkpt>
<trkpt lat="31.3181586" lon="35.3436571">
<ele>40.000000</ele>
<time>2010-01-01T04:20:46.000Z</time>
</trkpt>
<trkpt lat="31.3177920" lon="35.3443866">
<ele>31.000000</ele>
<time>2010-01-01T04:21:14.000Z</time>
</trkpt>
<trkpt lat="31.3173887" lon="35.3453737">
<ele>14.000000</ele>
<time>2010-01-01T04:21:52.000Z</time>
</trkpt>
<trkpt lat="31.3170221" lon="35.3464895">
<ele>7.000000</ele>
<time>2010-01-01T04:22:33.000Z</time>
</trkpt>
<trkpt lat="31.3170221" lon="35.3470903">
<ele>4.000000</ele>
<time>2010-01-01T04:22:53.000Z</time>
</trkpt>
<trkpt lat="31.3171829" lon="35.3472876">
<ele>-3.000000</ele>
<time>2010-01-01T04:23:03.000Z</time>
</trkpt>
<trkpt lat="31.3173937" lon="35.3470516">
<ele>-5.000000</ele>
<time>2010-01-01T04:23:14.000Z</time>
</trkpt>
<trkpt lat="31.3175953" lon="35.3470623">
<ele>-7.000000</ele>
<time>2010-01-01T04:23:22.000Z</time>
</trkpt>
<trkpt lat="31.3176962" lon="35.3475880">
<ele>-10.000000</ele>
<time>2010-01-01T04:23:41.000Z</time>
</trkpt>
<trkpt lat="31.3178703" lon="35.3476953">
<ele>-12.000000</ele>
<time>2010-01-01T04:23:49.000Z</time>
</trkpt>
<trkpt lat="31.3182270" lon="35.3480589">
<ele>-12.999999</ele>
<time>2010-01-01T04:24:08.000Z</time>
</trkpt>
</trkseg>
</trk>
</gpx>
